Time,TemperatureF,DewpointF,PressureIn,WindDirection,WindDirectionDegrees,WindSpeedMPH,WindSpeedGustMPH,Humidity,HourlyPrecipIn,Conditions,Clouds,dailyrainin,SoftwareType,DateUTC
2013-05-01 00:00:00,61.9,47.0,30.02,SSE,151,3.5,5.1,58,0.00,,,0.00,VWS V14.01,2013-05-01 04:00:00,
2013-05-01 00:01:00,61.9,47.0,30.02,SSE,151,3.5,5.1,58,0.00,,,0.00,VWS V14.01,2013-05-01 04:01:00,
2013-05-01 00:02:00,62.5,48.1,30.02,SSE,161,0.0,4.2,59,0.00,,,0.00,VWS V14.01,2013-05-01 04:02:00,
2013-05-01 00:04:00,62.3,47.5,30.03,SSE,151,3.5,4.2,58,0.00,,,0.00,VWS V14.01,2013-05-01 04:04:00,
2013-05-01 00:06:00,62.0,47.3,30.03,SSE,154,3.9,5.4,58,0.00,,,0.00,VWS V14.01,2013-05-01 04:06:00,
2013-05-01 00:07:00,61.3,46.5,30.03,SSE,154,4.0,5.4,58,0.00,,,0.00,VWS V14.01,2013-05-01 04:07:00,
2013-05-01 00:08:00,61.8,47.4,30.02,SSE,150,3.0,5.4,59,0.00,,,0.00,VWS V14.01,2013-05-01 04:08:00,
2013-05-01 00:10:00,61.5,47.7,30.03,SSE,150,3.0,5.4,60,0.00,,,0.00,VWS V14.01,2013-05-01 04:10:00,
2013-05-01 00:12:00,60.8,47.1,30.03,SSE,152,2.8,5.4,61,0.00,,,0.00,VWS V14.01,2013-05-01 04:12:00,
2013-05-01 00:14:00,60.8,47.7,30.03,SE,144,3.5,5.4,62,0.00,,,0.00,VWS V14.01,2013-05-01 04:14:00,
2013-05-01 00:16:00,60.6,47.5,30.03,SE,146,3.0,5.4,62,0.00,,,0.00,VWS V14.01,2013-05-01 04:16:00,
2013-05-01 00:17:00,61.0,48.1,30.03,SSE,149,3.5,5.4,62,0.00,,,0.00,VWS V14.01,2013-05-01 04:17:00,
2013-05-01 00:19:00,60.2,47.8,30.03,SSE,159,2.8,5.4,64,0.00,,,0.00,VWS V14.01,2013-05-01 04:19:00,
2013-05-01 00:20:00,60.2,48.1,30.03,SSE,158,2.8,5.4,64,0.00,,,0.00,VWS V14.01,2013-05-01 04:20:00,
2013-05-01 00:22:00,60.4,48.5,30.03,SSE,159,2.3,5.4,65,0.00,,,0.00,VWS V14.01,2013-05-01 04:22:00,
2013-05-01 00:23:00,60.1,47.7,30.02,SSE,165,0.0,5.4,64,0.00,,,0.00,VWS V14.01,2013-05-01 04:23:00,
2013-05-01 00:24:00,59.7,48.9,30.02,SSE,165,0.0,5.4,67,0.00,,,0.00,VWS V14.01,2013-05-01 04:24:00,
2013-05-01 00:25:00,60.6,49.9,30.02,SSE,163,2.8,5.4,68,0.00,,,0.00,VWS V14.01,2013-05-01 04:25:00,
2013-05-01 00:28:00,60.4,49.9,30.02,SSE,163,2.3,5.4,68,0.00,,,0.00,VWS V14.01,2013-05-01 04:28:00,
2013-05-01 00:29:00,60.0,49.6,30.02,SSE,163,0.0,5.4,68,0.00,,,0.00,VWS V14.01,2013-05-01 04:29:00,
2013-05-01 00:32:00,60.9,49.5,30.03,SSE,162,2.8,5.4,66,0.00,,,0.00,VWS V14.01,2013-05-01 04:32:00,
2013-05-01 00:33:00,61.1,50.5,30.03,SSE,162,2.7,5.4,68,0.00,,,0.00,VWS V14.01,2013-05-01 04:33:00,
2013-05-01 00:36:00,60.5,49.9,30.02,SSE,166,2.0,5.4,68,0.00,,,0.00,VWS V14.01,2013-05-01 04:36:00,
2013-05-01 00:38:00,60.8,50.5,30.03,SSE,166,2.2,5.4,69,0.00,,,0.00,VWS V14.01,2013-05-01 04:38:00,
2013-05-01 00:39:00,60.8,50.5,30.03,SSE,166,2.2,5.4,69,0.00,,,0.00,VWS V14.01,2013-05-01 04:39:00,
2013-05-01 00:40:00,60.6,50.4,30.04,SSE,166,1.1,5.4,69,0.00,,,0.00,VWS V14.01,2013-05-01 04:40:00,
2013-05-01 00:42:00,60.2,49.7,30.03,SSE,166,1.6,5.4,68,0.00,,,0.00,VWS V14.01,2013-05-01 04:42:00,
2013-05-01 00:45:00,60.4,49.9,30.03,SE,146,2.0,5.4,68,0.00,,,0.00,VWS V14.01,2013-05-01 04:45:00,
2013-05-01 00:46:00,60.1,49.4,30.03,SE,146,0.0,5.4,68,0.00,,,0.00,VWS V14.01,2013-05-01 04:46:00,
2013-05-01 00:47:00,60.2,49.6,30.03,SE,146,1.1,5.4,68,0.00,,,0.00,VWS V14.01,2013-05-01 04:47:00,
2013-05-01 00:48:00,60.5,50.0,30.02,SE,146,0.0,5.4,68,0.00,,,0.00,VWS V14.01,2013-05-01 04:48:00,
2013-05-01 00:50:00,60.2,49.9,30.03,SE,146,0.0,5.4,69,0.00,,,0.00,VWS V14.01,2013-05-01 04:50:00,
2013-05-01 00:51:00,60.0,49.9,30.04,SSE,168,0.0,5.4,69,0.00,,,0.00,VWS V14.01,2013-05-01 04:51:00,
2013-05-01 00:52:00,60.0,49.9,30.04,SSE,168,0.0,5.4,69,0.00,,,0.00,VWS V14.01,2013-05-01 04:52:00,
2013-05-01 00:54:00,59.7,49.9,30.03,SSE,168,0.0,5.4,70,0.00,,,0.00,VWS V14.01,2013-05-01 04:54:00,
2013-05-01 00:55:00,60.0,50.5,30.03,SSE,168,0.0,5.4,71,0.00,,,0.00,VWS V14.01,2013-05-01 04:55:00,
2013-05-01 00:58:00,59.8,50.5,30.03,SSE,168,0.0,5.4,71,0.00,,,0.00,VWS V14.01,2013-05-01 04:58:00,
2013-05-01 00:59:00,59.5,50.4,30.04,SSE,168,0.0,5.4,72,0.00,,,0.00,VWS V14.01,2013-05-01 04:59:00,
2013-05-01 01:00:00,59.5,50.5,30.04,SSE,168,0.0,5.4,72,0.00,,,0.00,VWS V14.01,2013-05-01 05:00:00,
2013-05-01 01:01:00,59.5,50.7,30.04,SSE,168,0.0,5.4,72,0.00,,,0.00,VWS V14.01,2013-05-01 05:01:00,
2013-05-01 01:04:00,59.3,51.2,30.03,SSE,168,0.0,5.4,74,0.00,,,0.00,VWS V14.01,2013-05-01 05:04:00,
2013-05-01 01:06:00,59.2,51.0,30.04,SE,133,0.0,5.4,74,0.00,,,0.00,VWS V14.01,2013-05-01 05:06:00,
2013-05-01 01:07:00,59.1,50.9,30.04,SE,133,0.0,5.4,74,0.00,,,0.00,VWS V14.01,2013-05-01 05:07:00,
2013-05-01 01:10:00,59.4,51.5,30.03,SE,133,0.0,5.4,75,0.00,,,0.00,VWS V14.01,2013-05-01 05:10:00,
2013-05-01 01:11:00,59.5,51.6,30.04,SE,133,0.0,5.4,75,0.00,,,0.00,VWS V14.01,2013-05-01 05:11:00,
2013-05-01 01:12:00,59.4,51.2,30.03,SE,133,0.0,5.4,74,0.00,,,0.00,VWS V14.01,2013-05-01 05:12:00,
2013-05-01 01:15:00,58.7,51.3,30.04,SE,133,0.0,5.4,76,0.00,,,0.00,VWS V14.01,2013-05-01 05:15:00,
2013-05-01 01:16:00,59.0,52.2,30.03,SE,133,0.0,5.4,78,0.00,,,0.00,VWS V14.01,2013-05-01 05:16:00,
2013-05-01 01:17:00,59.2,52.4,30.04,SE,133,0.0,5.4,78,0.00,,,0.00,VWS V14.01,2013-05-01 05:17:00,
2013-05-01 01:18:00,58.8,51.4,30.04,SE,133,0.0,5.4,76,0.00,,,0.00,VWS V14.01,2013-05-01 05:18:00,
2013-05-01 01:22:00,59.0,52.3,30.04,SE,129,0.0,5.4,78,0.00,,,0.00,VWS V14.01,2013-05-01 05:22:00,
2013-05-01 01:23:00,59.0,52.3,30.03,SE,129,0.0,5.4,78,0.00,,,0.00,VWS V14.01,2013-05-01 05:23:00,
2013-05-01 01:24:00,58.5,52.1,30.04,SE,129,0.0,5.4,79,0.00,,,0.00,VWS V14.01,2013-05-01 05:24:00,
2013-05-01 01:25:00,58.5,52.1,30.04,SE,129,0.0,5.4,79,0.00,,,0.00,VWS V14.01,2013-05-01 05:25:00,
2013-05-01 01:26:00,58.2,50.3,30.04,SE,129,0.0,5.4,75,0.00,,,0.00,VWS V14.01,2013-05-01 05:26:00,
2013-05-01 01:28:00,58.2,52.0,30.04,SE,129,0.0,5.4,80,0.00,,,0.00,VWS V14.01,2013-05-01 05:28:00,
2013-05-01 01:29:00,56.9,50.4,30.04,SE,129,0.0,5.4,79,0.00,,,0.00,VWS V14.01,2013-05-01 05:29:00,
2013-05-01 01:30:00,58.1,51.9,30.04,SE,129,0.0,5.4,80,0.00,,,0.00,VWS V14.01,2013-05-01 05:30:00,
2013-05-01 01:34:00,58.9,53.7,30.03,SE,129,0.0,5.4,83,0.00,,,0.00,VWS V14.01,2013-05-01 05:34:00,
2013-05-01 01:35:00,58.7,53.2,30.04,SE,129,0.0,5.4,82,0.00,,,0.00,VWS V14.01,2013-05-01 05:35:00,
2013-05-01 01:36:00,58.8,53.3,30.04,SE,129,0.0,5.4,82,0.00,,,0.00,VWS V14.01,2013-05-01 05:36:00,
2013-05-01 01:37:00,58.8,53.4,30.04,SE,129,0.0,5.4,82,0.00,,,0.00,VWS V14.01,2013-05-01 05:37:00,
2013-05-01 01:40:00,58.5,52.9,30.04,SE,129,0.0,5.4,82,0.00,,,0.00,VWS V14.01,2013-05-01 05:40:00,
2013-05-01 01:41:00,58.4,53.0,30.05,SE,129,0.0,5.4,82,0.00,,,0.00,VWS V14.01,2013-05-01 05:41:00,
2013-05-01 01:42:00,58.8,53.6,30.04,SE,129,0.0,5.4,83,0.00,,,0.00,VWS V14.01,2013-05-01 05:42:00,
2013-05-01 01:43:00,58.6,53.5,30.04,SE,129,0.0,5.4,83,0.00,,,0.00,VWS V14.01,2013-05-01 05:43:00,
2013-05-01 01:45:00,58.7,53.1,30.05,ESE,111,0.0,5.4,82,0.00,,,0.00,VWS V14.01,2013-05-01 05:45:00,
2013-05-01 01:47:00,58.4,52.6,30.05,ESE,111,0.0,5.4,81,0.00,,,0.00,VWS V14.01,2013-05-01 05:47:00,
2013-05-01 01:48:00,58.4,52.5,30.04,ESE,111,0.0,5.4,81,0.00,,,0.00,VWS V14.01,2013-05-01 05:48:00,
2013-05-01 01:49:00,58.8,53.0,30.04,ESE,111,0.0,5.4,81,0.00,,,0.00,VWS V14.01,2013-05-01 05:49:00,
2013-05-01 01:53:00,58.8,52.7,30.04,East,101,2.2,5.4,80,0.00,,,0.00,VWS V14.01,2013-05-01 05:53:00,
2013-05-01 01:54:00,58.7,52.5,30.04,East,101,2.3,5.4,80,0.00,,,0.00,VWS V14.01,2013-05-01 05:54:00,
2013-05-01 01:55:00,58.9,52.7,30.05,East,101,2.5,5.4,80,0.00,,,0.00,VWS V14.01,2013-05-01 05:55:00,
2013-05-01 01:58:00,59.1,52.7,30.04,East,101,2.7,5.4,79,0.00,,,0.00,VWS V14.01,2013-05-01 05:58:00,
2013-05-01 01:59:00,58.5,52.0,30.08,East,101,3.0,5.4,79,0.00,,,0.00,VWS V14.01,2013-05-01 05:59:00,
2013-05-01 02:00:00,58.2,51.7,30.05,East,101,2.8,5.4,79,0.00,,,0.00,VWS V14.01,2013-05-01 06:00:00,
2013-05-01 02:01:00,61.9,47.3,30.02,SSE,163,4.2,4.2,59,0.00,,,0.00,VWS V14.01,2013-05-01 06:01:00,
2013-05-01 02:02:00,58.3,52.0,30.05,East,101,2.8,5.4,79,0.00,,,0.00,VWS V14.01,2013-05-01 06:02:00,
2013-05-01 02:03:00,59.0,52.5,30.05,ESE,114,2.3,2.7,79,0.00,,,0.00,VWS V14.01,2013-05-01 06:03:00,
2013-05-01 02:04:00,58.2,51.7,30.04,ESE,112,2.7,2.7,79,0.00,,,0.00,VWS V14.01,2013-05-01 06:04:00,
2013-05-01 02:05:00,58.1,51.4,30.04,ESE,108,3.0,3.0,78,0.00,,,0.00,VWS V14.01,2013-05-01 06:05:00,
2013-05-01 02:06:00,58.3,51.7,30.04,ESE,108,2.7,2.8,78,0.00,,,0.00,VWS V14.01,2013-05-01 06:06:00,
2013-05-01 02:07:00,58.4,51.8,30.05,ESE,108,2.7,2.8,79,0.00,,,0.00,VWS V14.01,2013-05-01 06:07:00,
2013-05-01 02:08:00,58.5,51.9,30.05,ESE,108,2.3,2.7,79,0.00,,,0.00,VWS V14.01,2013-05-01 06:08:00,
2013-05-01 02:09:00,58.5,51.8,30.04,ESE,108,2.8,2.8,78,0.00,,,0.00,VWS V14.01,2013-05-01 06:09:00,
2013-05-01 02:10:00,58.4,51.7,30.04,ESE,107,3.2,3.2,78,0.00,,,0.00,VWS V14.01,2013-05-01 06:10:00,
2013-05-01 02:11:00,58.3,51.5,30.04,ESE,103,3.4,3.4,78,0.00,,,0.00,VWS V14.01,2013-05-01 06:11:00,
2013-05-01 02:12:00,58.3,51.5,30.04,ESE,103,3.4,3.4,78,0.00,,,0.00,VWS V14.01,2013-05-01 06:12:00,
2013-05-01 02:13:00,57.5,50.6,30.05,East,100,3.2,3.5,78,0.00,,,0.00,VWS V14.01,2013-05-01 06:13:00,
2013-05-01 02:14:00,58.2,51.4,30.05,ESE,110,2.8,3.2,78,0.00,,,0.00,VWS V14.01,2013-05-01 06:14:00,
2013-05-01 02:15:00,57.8,51.1,30.05,East,101,2.8,2.8,78,0.00,,,0.00,VWS V14.01,2013-05-01 06:15:00,
2013-05-01 02:16:00,58.2,50.9,30.05,East,101,2.3,3.0,77,0.00,,,0.00,VWS V14.01,2013-05-01 06:16:00,
2013-05-01 02:17:00,58.2,51.6,30.05,ESE,107,2.8,2.8,79,0.00,,,0.00,VWS V14.01,2013-05-01 06:17:00,
2013-05-01 02:18:00,57.4,50.7,30.04,ESE,107,2.7,2.7,78,0.00,,,0.00,VWS V14.01,2013-05-01 06:18:00,
2013-05-01 02:19:00,57.7,51.3,30.05,ESE,103,2.8,2.8,79,0.00,,,0.00,VWS V14.01,2013-05-01 06:19:00,
2013-05-01 02:20:00,57.7,51.3,30.05,ESE,103,2.8,2.8,79,0.00,,,0.00,VWS V14.01,2013-05-01 06:20:00,
2013-05-01 02:21:00,58.2,52.0,30.04,ESE,110,3.0,3.4,80,0.00,,,0.00,VWS V14.01,2013-05-01 06:21:00,
2013-05-01 02:22:00,57.8,51.0,30.04,East,101,2.7,2.7,78,0.00,,,0.00,VWS V14.01,2013-05-01 06:22:00,
2013-05-01 02:23:00,57.8,51.0,30.04,East,101,2.7,2.7,78,0.00,,,0.00,VWS V14.01,2013-05-01 06:23:00,
2013-05-01 02:24:00,57.8,51.3,30.04,ESE,107,2.8,3.0,79,0.00,,,0.00,VWS V14.01,2013-05-01 06:24:00,
2013-05-01 02:25:00,57.9,51.4,30.05,ESE,107,2.5,2.8,79,0.00,,,0.00,VWS V14.01,2013-05-01 06:25:00,
2013-05-01 02:26:00,58.5,52.1,30.05,ESE,108,3.0,3.0,79,0.00,,,0.00,VWS V14.01,2013-05-01 06:26:00,
2013-05-01 02:27:00,57.8,51.2,30.04,ESE,108,2.5,3.0,79,0.00,,,0.00,VWS V14.01,2013-05-01 06:27:00,
2013-05-01 02:28:00,57.5,50.8,30.08,ESE,108,2.2,2.5,78,0.00,,,0.00,VWS V14.01,2013-05-01 06:28:00,
2013-05-01 02:29:00,57.3,50.7,30.06,ESE,117,2.5,2.5,79,0.00,,,0.00,VWS V14.01,2013-05-01 06:29:00,
2013-05-01 02:30:00,57.9,51.5,30.05,ESE,117,2.3,2.5,79,0.00,,,0.00,VWS V14.01,2013-05-01 06:30:00,
2013-05-01 02:31:00,57.8,51.5,30.05,ESE,117,2.5,2.5,79,0.00,,,0.00,VWS V14.01,2013-05-01 06:31:00,
2013-05-01 02:32:00,57.5,51.1,30.04,ESE,117,1.3,2.0,79,0.00,,,0.00,VWS V14.01,2013-05-01 06:32:00,
2013-05-01 02:33:00,57.5,51.1,30.04,ESE,117,1.3,2.0,79,0.00,,,0.00,VWS V14.01,2013-05-01 06:33:00,
2013-05-01 02:34:00,57.0,50.7,30.04,ESE,117,0.0,0.0,79,0.00,,,0.00,VWS V14.01,2013-05-01 06:34:00,
2013-05-01 02:35:00,57.2,51.2,30.05,ESE,117,0.0,0.0,80,0.00,,,0.00,VWS V14.01,2013-05-01 06:35:00,
2013-05-01 02:36:00,57.1,51.4,30.05,ESE,117,0.0,0.0,81,0.00,,,0.00,VWS V14.01,2013-05-01 06:36:00,
2013-05-01 02:37:00,57.1,51.6,30.05,ESE,117,0.0,0.0,82,0.00,,,0.00,VWS V14.01,2013-05-01 06:37:00,
2013-05-01 02:38:00,56.5,51.3,30.05,ESE,117,0.0,0.0,83,0.00,,,0.00,VWS V14.01,2013-05-01 06:38:00,
2013-05-01 02:39:00,56.7,51.7,30.05,ESE,117,0.0,0.0,83,0.00,,,0.00,VWS V14.01,2013-05-01 06:39:00,
2013-05-01 02:40:00,57.0,52.2,30.05,ESE,117,0.0,0.0,84,0.00,,,0.00,VWS V14.01,2013-05-01 06:40:00,
2013-05-01 02:41:00,57.1,52.7,30.04,ESE,117,0.0,0.0,85,0.00,,,0.00,VWS V14.01,2013-05-01 06:41:00,
2013-05-01 02:42:00,57.2,53.0,30.04,ESE,117,0.0,0.0,86,0.00,,,0.00,VWS V14.01,2013-05-01 06:42:00,
2013-05-01 02:43:00,57.0,52.8,30.04,ESE,117,0.0,0.0,86,0.00,,,0.00,VWS V14.01,2013-05-01 06:43:00,
2013-05-01 02:44:00,56.8,52.6,30.05,ESE,117,0.0,0.0,86,0.00,,,0.00,VWS V14.01,2013-05-01 06:44:00,
2013-05-01 02:45:00,56.9,52.8,30.05,ESE,117,0.0,0.0,86,0.00,,,0.00,VWS V14.01,2013-05-01 06:45:00,
2013-05-01 02:46:00,56.9,52.8,30.05,ESE,117,0.0,0.0,86,0.00,,,0.00,VWS V14.01,2013-05-01 06:46:00,
2013-05-01 02:47:00,57.0,52.9,30.06,ESE,117,0.0,0.0,86,0.00,,,0.00,VWS V14.01,2013-05-01 06:47:00,
2013-05-01 02:48:00,56.7,52.7,30.04,ESE,117,0.0,0.0,87,0.00,,,0.00,VWS V14.01,2013-05-01 06:48:00,
2013-05-01 02:49:00,56.3,52.4,30.04,ESE,117,0.0,0.0,87,0.00,,,0.00,VWS V14.01,2013-05-01 06:49:00,
2013-05-01 02:50:00,56.7,52.9,30.05,NE,38,0.0,0.0,87,0.00,,,0.00,VWS V14.01,2013-05-01 06:50:00,
2013-05-01 02:51:00,56.7,53.0,30.05,NE,38,0.0,0.0,87,0.00,,,0.00,VWS V14.01,2013-05-01 06:51:00,
2013-05-01 02:52:00,56.5,52.9,30.05,NE,38,0.0,0.0,87,0.00,,,0.00,VWS V14.01,2013-05-01 06:52:00,
2013-05-01 02:53:00,56.8,53.2,30.06,NE,38,0.0,0.0,88,0.00,,,0.00,VWS V14.01,2013-05-01 06:53:00,
2013-05-01 02:54:00,56.6,53.0,30.05,NE,38,0.0,0.0,88,0.00,,,0.00,VWS V14.01,2013-05-01 06:54:00,
2013-05-01 02:55:00,56.6,53.0,30.05,NE,38,0.0,0.0,88,0.00,,,0.00,VWS V14.01,2013-05-01 06:55:00,
2013-05-01 02:56:00,55.8,52.0,30.05,NE,38,0.0,0.0,87,0.00,,,0.00,VWS V14.01,2013-05-01 06:56:00,
2013-05-01 02:57:00,56.8,53.2,30.05,NE,38,0.0,0.0,88,0.00,,,0.00,VWS V14.01,2013-05-01 06:57:00,
2013-05-01 02:58:00,54.1,50.5,30.05,NE,38,0.0,0.0,88,0.00,,,0.00,VWS V14.01,2013-05-01 06:58:00,
2013-05-01 02:59:00,52.6,49.1,30.05,NE,38,0.0,0.0,88,0.00,,,0.00,VWS V14.01,2013-05-01 06:59:00,
2013-05-01 03:00:00,52.4,48.9,30.05,NE,38,0.0,0.0,88,0.00,,,0.00,VWS V14.01,2013-05-01 07:00:00,
2013-05-01 03:01:00,52.8,49.2,30.06,NE,38,0.0,0.0,88,0.00,,,0.00,VWS V14.01,2013-05-01 07:01:00,
2013-05-01 03:02:00,52.9,49.5,30.06,NE,38,0.0,0.0,88,0.00,,,0.00,VWS V14.01,2013-05-01 07:02:00,
2013-05-01 03:03:00,53.6,50.7,30.06,NE,37,1.8,1.8,90,0.00,,,0.00,VWS V14.01,2013-05-01 07:03:00,
2013-05-01 03:05:00,54.9,52.8,30.06,NNE,25,2.0,2.0,92,0.00,,,0.00,VWS V14.01,2013-05-01 07:05:00,
2013-05-01 03:07:00,55.0,52.9,30.05,NNE,25,0.0,0.0,93,0.00,,,0.00,VWS V14.01,2013-05-01 07:07:00,
2013-05-01 03:08:00,54.4,52.3,30.06,NNE,25,0.0,0.0,93,0.00,,,0.00,VWS V14.01,2013-05-01 07:08:00,
2013-05-01 03:10:00,55.0,52.9,30.06,NNE,25,0.0,0.0,93,0.00,,,0.00,VWS V14.01,2013-05-01 07:10:00,
2013-05-01 03:13:00,55.1,53.3,30.06,NNE,25,1.5,1.5,94,0.00,,,0.00,VWS V14.01,2013-05-01 07:13:00,
2013-05-01 03:14:00,54.7,52.8,30.06,NNE,25,1.8,1.8,94,0.00,,,0.00,VWS V14.01,2013-05-01 07:14:00,
2013-05-01 03:15:00,53.9,51.7,30.05,NNE,25,0.0,1.8,92,0.00,,,0.00,VWS V14.01,2013-05-01 07:15:00,
2013-05-01 03:20:00,53.0,51.1,30.06,NNE,25,0.0,0.0,93,0.00,,,0.00,VWS V14.01,2013-05-01 07:20:00,
2013-05-01 03:21:00,52.7,51.0,30.05,NNE,25,0.0,0.0,94,0.00,,,0.00,VWS V14.01,2013-05-01 07:21:00,
2013-05-01 03:23:00,54.7,53.6,30.06,NNE,16,1.8,1.8,96,0.00,,,0.00,VWS V14.01,2013-05-01 07:23:00,
2013-05-01 03:25:00,53.5,52.2,30.06,NNE,16,0.0,0.0,95,0.00,,,0.00,VWS V14.01,2013-05-01 07:25:00,
2013-05-01 03:26:00,53.1,51.5,30.10,NNE,16,0.0,0.0,95,0.00,,,0.00,VWS V14.01,2013-05-01 07:26:00,
2013-05-01 03:28:00,53.3,51.9,30.07,NNE,16,2.0,2.0,95,0.00,,,0.00,VWS V14.01,2013-05-01 07:28:00,
2013-05-01 03:30:00,51.8,50.0,30.06,NNE,16,0.0,0.0,94,0.00,,,0.00,VWS V14.01,2013-05-01 07:30:00,
2013-05-01 03:31:00,51.8,50.0,30.07,NNE,16,0.0,0.0,94,0.00,,,0.00,VWS V14.01,2013-05-01 07:31:00,
2013-05-01 03:32:00,52.1,50.6,30.06,NNE,16,0.0,0.0,95,0.00,,,0.00,VWS V14.01,2013-05-01 07:32:00,
2013-05-01 03:34:00,52.8,51.9,30.07,NNE,16,0.0,0.0,96,0.00,,,0.00,VWS V14.01,2013-05-01 07:34:00,
2013-05-01 03:35:00,52.8,51.9,30.07,NNE,16,0.0,0.0,96,0.00,,,0.00,VWS V14.01,2013-05-01 07:35:00,
2013-05-01 03:37:00,52.9,52.4,30.07,NNE,16,0.0,0.0,98,0.00,,,0.00,VWS V14.01,2013-05-01 07:37:00,
2013-05-01 03:38:00,53.3,52.7,30.06,NNE,16,1.8,1.8,98,0.00,,,0.00,VWS V14.01,2013-05-01 07:38:00,
2013-05-01 03:40:00,54.2,53.8,30.07,NNE,15,2.0,2.2,98,0.00,,,0.00,VWS V14.01,2013-05-01 07:40:00,
2013-05-01 03:42:00,53.4,52.8,30.06,NNE,15,0.0,0.0,98,0.00,,,0.00,VWS V14.01,2013-05-01 07:42:00,
2013-05-01 03:43:00,53.8,53.2,30.06,NNE,15,0.0,0.0,98,0.00,,,0.00,VWS V14.01,2013-05-01 07:43:00,
2013-05-01 03:44:00,53.7,53.1,30.05,NNE,15,0.0,0.0,98,0.00,,,0.00,VWS V14.01,2013-05-01 07:44:00,
2013-05-01 03:45:00,54.0,53.4,30.06,NNE,15,1.8,1.8,98,0.00,,,0.00,VWS V14.01,2013-05-01 07:45:00,
2013-05-01 03:46:00,53.5,52.9,30.07,NNE,15,2.3,2.3,98,0.00,,,0.00,VWS V14.01,2013-05-01 07:46:00,
2013-05-01 03:47:00,54.7,54.2,30.06,NNE,15,2.3,2.3,98,0.00,,,0.00,VWS V14.01,2013-05-01 07:47:00,
2013-05-01 03:49:00,54.1,53.6,30.06,NNE,15,2.2,2.2,98,0.00,,,0.00,VWS V14.01,2013-05-01 07:49:00,
2013-05-01 03:52:00,52.3,51.3,30.07,NNE,15,2.5,2.5,96,0.00,,,0.00,VWS V14.01,2013-05-01 07:52:00,
2013-05-01 03:53:00,53.1,52.1,30.06,NNE,15,1.8,1.8,96,0.00,,,0.00,VWS V14.01,2013-05-01 07:53:00,
2013-05-01 03:57:00,53.5,52.9,30.07,NNE,16,0.0,1.0,98,0.00,,,0.00,VWS V14.01,2013-05-01 07:57:00,
2013-05-01 03:58:00,52.3,51.7,30.07,NNE,16,0.0,0.0,98,0.00,,,0.00,VWS V14.01,2013-05-01 07:58:00,
2013-05-01 03:59:00,53.0,52.3,30.08,NNE,16,0.0,0.0,97,0.00,,,0.00,VWS V14.01,2013-05-01 07:59:00,
2013-05-01 04:00:00,53.2,50.8,30.07,NNE,16,0.0,0.0,91,0.00,,,0.00,VWS V14.01,2013-05-01 08:00:00,
2013-05-01 04:01:00,52.4,49.3,30.06,NE,38,0.0,0.0,89,0.00,,,0.00,VWS V14.01,2013-05-01 08:01:00,
2013-05-01 04:02:00,51.6,51.0,30.07,NNE,16,0.0,0.0,98,0.00,,,0.00,VWS V14.01,2013-05-01 08:02:00,
2013-05-01 04:03:00,53.6,50.7,30.06,NE,37,1.8,1.8,90,0.00,,,0.00,VWS V14.01,2013-05-01 08:03:00,
2013-05-01 04:04:00,50.3,49.3,30.07,NNE,16,0.0,0.0,96,0.00,,,0.00,VWS V14.01,2013-05-01 08:04:00,
2013-05-01 04:05:00,51.4,50.4,30.07,NNE,16,0.0,0.0,96,0.00,,,0.00,VWS V14.01,2013-05-01 08:05:00,
2013-05-01 04:06:00,53.0,52.2,30.08,NNE,16,0.0,0.0,97,0.00,,,0.00,VWS V14.01,2013-05-01 08:06:00,
2013-05-01 04:07:00,54.6,52.3,30.05,NNE,25,0.0,1.3,92,0.00,,,0.00,VWS V14.01,2013-05-01 08:07:00,
2013-05-01 04:08:00,51.0,50.6,30.07,NNE,16,0.0,0.0,99,0.00,,,0.00,VWS V14.01,2013-05-01 08:08:00,
2013-05-01 04:09:00,53.6,51.0,30.05,NNE,25,0.0,0.0,91,0.00,,,0.00,VWS V14.01,2013-05-01 08:09:00,
2013-05-01 04:10:00,51.1,50.6,30.08,NNE,16,0.0,0.0,98,0.00,,,0.00,VWS V14.01,2013-05-01 08:10:00,
2013-05-01 04:11:00,50.0,49.5,30.07,NNE,16,0.0,0.0,98,0.00,,,0.00,VWS V14.01,2013-05-01 08:11:00,
2013-05-01 04:12:00,51.7,51.1,30.08,NNE,16,0.0,0.0,98,0.00,,,0.00,VWS V14.01,2013-05-01 08:12:00,
2013-05-01 04:13:00,52.2,52.2,30.08,NNE,16,0.0,0.0,100,0.00,,,0.00,VWS V14.01,2013-05-01 08:13:00,
2013-05-01 04:14:00,54.7,52.8,30.06,NNE,25,1.8,1.8,94,0.00,,,0.00,VWS V14.01,2013-05-01 08:14:00,
2013-05-01 04:15:00,52.2,52.2,30.08,NNE,16,0.0,0.0,100,0.00,,,0.00,VWS V14.01,2013-05-01 08:15:00,
2013-05-01 04:16:00,52.2,52.2,30.08,NNE,16,0.0,0.0,100,0.00,,,0.00,VWS V14.01,2013-05-01 08:16:00,
2013-05-01 04:17:00,52.2,52.2,30.08,NNE,16,0.0,0.0,100,0.00,,,0.00,VWS V14.01,2013-05-01 08:17:00,
2013-05-01 04:18:00,51.5,51.5,30.08,NNE,16,0.0,0.0,100,0.00,,,0.00,VWS V14.01,2013-05-01 08:18:00,
2013-05-01 04:19:00,53.0,51.2,30.06,NNE,25,0.0,0.0,93,0.00,,,0.00,VWS V14.01,2013-05-01 08:19:00,
2013-05-01 04:20:00,53.0,51.1,30.06,NNE,25,0.0,0.0,93,0.00,,,0.00,VWS V14.01,2013-05-01 08:20:00,
2013-05-01 04:21:00,52.0,52.0,30.07,NNE,16,0.0,0.0,100,0.00,,,0.00,VWS V14.01,2013-05-01 08:21:00,
2013-05-01 04:22:00,52.6,52.6,30.07,NNE,16,0.0,0.0,100,0.00,,,0.00,VWS V14.01,2013-05-01 08:22:00,
2013-05-01 04:23:00,52.5,52.5,30.07,NNE,16,0.0,0.0,100,0.00,,,0.00,VWS V14.01,2013-05-01 08:23:00,
2013-05-01 04:24:00,51.8,51.8,30.07,NNE,16,0.0,0.0,100,0.00,,,0.00,VWS V14.01,2013-05-01 08:24:00,
2013-05-01 04:25:00,53.6,52.3,30.06,NNE,16,0.0,0.0,95,0.00,,,0.00,VWS V14.01,2013-05-01 08:25:00,
2013-05-01 04:26:00,53.1,51.5,30.10,NNE,16,0.0,0.0,95,0.00,,,0.00,VWS V14.01,2013-05-01 08:26:00,
2013-05-01 04:27:00,51.4,51.4,30.08,NNE,16,0.0,0.0,100,0.00,,,0.00,VWS V14.01,2013-05-01 08:27:00,
2013-05-01 04:28:00,51.6,51.6,30.08,NNE,16,0.0,0.0,100,0.00,,,0.00,VWS V14.01,2013-05-01 08:28:00,
2013-05-01 04:29:00,51.6,51.6,30.08,NNE,16,0.0,0.0,100,0.00,,,0.00,VWS V14.01,2013-05-01 08:29:00,
2013-05-01 04:30:00,51.8,50.0,30.06,NNE,16,0.0,0.0,94,0.00,,,0.00,VWS V14.01,2013-05-01 08:30:00,
2013-05-01 04:31:00,51.5,51.5,30.08,NNE,16,0.0,0.0,100,0.00,,,0.00,VWS V14.01,2013-05-01 08:31:00,
2013-05-01 04:32:00,52.1,50.6,30.06,NNE,16,0.0,0.0,95,0.00,,,0.00,VWS V14.01,2013-05-01 08:32:00,
2013-05-01 04:33:00,51.8,51.8,30.08,NNE,16,0.0,0.0,100,0.00,,,0.00,VWS V14.01,2013-05-01 08:33:00,
2013-05-01 04:34:00,52.0,52.0,30.08,NNE,16,0.0,0.0,100,0.00,,,0.00,VWS V14.01,2013-05-01 08:34:00,
2013-05-01 04:35:00,52.8,51.9,30.07,NNE,16,0.0,0.0,96,0.00,,,0.00,VWS V14.01,2013-05-01 08:35:00,
2013-05-01 04:36:00,54.0,53.5,30.10,NNE,16,0.0,0.0,98,0.00,,,0.00,VWS V14.01,2013-05-01 08:36:00,
2013-05-01 04:37:00,51.9,51.9,30.08,NNE,16,0.0,0.0,100,0.00,,,0.00,VWS V14.01,2013-05-01 08:37:00,
2013-05-01 04:38:00,53.3,52.7,30.06,NNE,16,1.8,1.8,98,0.00,,,0.00,VWS V14.01,2013-05-01 08:38:00,
2013-05-01 04:39:00,54.0,53.6,30.07,NNE,15,2.0,2.0,98,0.00,,,0.00,VWS V14.01,2013-05-01 08:39:00,
2013-05-01 04:40:00,51.5,51.5,30.08,NNE,16,0.0,0.0,100,0.00,,,0.00,VWS V14.01,2013-05-01 08:40:00,
2013-05-01 04:41:00,50.9,50.4,30.09,NNE,16,0.0,0.0,98,0.00,,,0.00,VWS V14.01,2013-05-01 08:41:00,
2013-05-01 04:42:00,53.5,52.9,30.07,NNE,15,0.0,1.1,98,0.00,,,0.00,VWS V14.01,2013-05-01 08:42:00,
2013-05-01 04:43:00,49.7,49.7,30.09,NNE,16,0.0,0.0,100,0.00,,,0.00,VWS V14.01,2013-05-01 08:43:00,
2013-05-01 04:44:00,49.7,49.7,30.09,NNE,16,0.0,0.0,100,0.00,,,0.00,VWS V14.01,2013-05-01 08:44:00,
2013-05-01 04:45:00,53.9,53.4,30.06,NNE,15,0.0,1.0,98,0.00,,,0.00,VWS V14.01,2013-05-01 08:45:00,
2013-05-01 04:46:00,50.9,50.9,30.09,NNE,16,0.0,0.0,100,0.00,,,0.00,VWS V14.01,2013-05-01 08:46:00,
2013-05-01 04:47:00,50.7,50.7,30.09,NNE,16,0.0,0.0,100,0.00,,,0.00,VWS V14.01,2013-05-01 08:47:00,
2013-05-01 04:48:00,54.7,54.2,30.06,NNE,15,2.3,2.3,98,0.00,,,0.00,VWS V14.01,2013-05-01 08:48:00,
2013-05-01 04:49:00,50.2,50.2,30.08,NNE,16,0.0,0.0,100,0.00,,,0.00,VWS V14.01,2013-05-01 08:49:00,
2013-05-01 04:50:00,50.4,50.4,30.09,NNE,16,0.0,0.0,100,0.00,,,0.00,VWS V14.01,2013-05-01 08:50:00,
2013-05-01 04:51:00,50.2,50.2,30.08,NNE,16,0.0,0.0,100,0.00,,,0.00,VWS V14.01,2013-05-01 08:51:00,
2013-05-01 04:52:00,52.6,51.4,30.07,NNE,15,0.0,2.5,96,0.00,,,0.00,VWS V14.01,2013-05-01 08:52:00,
2013-05-01 04:53:00,53.3,52.4,30.06,NNE,15,1.3,1.8,97,0.00,,,0.00,VWS V14.01,2013-05-01 08:53:00,
2013-05-01 04:54:00,50.2,50.2,30.09,NNE,16,0.0,0.0,100,0.00,,,0.00,VWS V14.01,2013-05-01 08:54:00,
2013-05-01 04:55:00,49.4,49.4,30.09,NNE,16,0.0,0.0,100,0.00,,,0.00,VWS V14.01,2013-05-01 08:55:00,
2013-05-01 04:56:00,50.3,50.3,30.09,NNE,16,0.0,0.0,100,0.00,,,0.00,VWS V14.01,2013-05-01 08:56:00,
2013-05-01 04:57:00,50.4,50.4,30.09,NNE,16,0.0,0.0,100,0.00,,,0.00,VWS V14.01,2013-05-01 08:57:00,
2013-05-01 04:58:00,53.5,52.9,30.07,NNE,16,0.0,1.0,98,0.00,,,0.00,VWS V14.01,2013-05-01 08:58:00,
2013-05-01 04:59:00,50.9,50.9,30.09,NNE,16,0.0,0.0,100,0.00,,,0.00,VWS V14.01,2013-05-01 08:59:00,
2013-05-01 05:00:00,53.2,50.8,30.07,NNE,16,0.0,0.0,91,0.00,,,0.00,VWS V14.01,2013-05-01 09:00:00,
2013-05-01 05:01:00,51.0,51.0,30.08,NNE,16,0.0,0.0,100,0.00,,,0.00,VWS V14.01,2013-05-01 09:01:00,
2013-05-01 05:02:00,49.4,49.4,30.08,NNE,16,0.0,0.0,100,0.00,,,0.00,VWS V14.01,2013-05-01 09:02:00,
2013-05-01 05:03:00,48.9,48.9,30.08,NNE,16,0.0,0.0,100,0.00,,,0.00,VWS V14.01,2013-05-01 09:03:00,
2013-05-01 05:04:00,49.1,49.1,30.08,NNE,16,0.0,0.0,100,0.00,,,0.00,VWS V14.01,2013-05-01 09:04:00,
2013-05-01 05:05:00,49.3,49.3,30.08,NNE,16,0.0,0.0,100,0.00,,,0.00,VWS V14.01,2013-05-01 09:05:00,
2013-05-01 05:06:00,49.7,49.7,30.09,NNE,16,0.0,0.0,100,0.00,,,0.00,VWS V14.01,2013-05-01 09:06:00,
2013-05-01 05:07:00,48.9,48.9,30.09,NNE,16,0.0,0.0,100,0.00,,,0.00,VWS V14.01,2013-05-01 09:07:00,
2013-05-01 05:08:00,49.7,49.7,30.09,NNE,16,0.0,0.0,100,0.00,,,0.00,VWS V14.01,2013-05-01 09:08:00,
2013-05-01 05:09:00,49.9,49.9,30.09,NNE,16,0.0,0.0,100,0.00,,,0.00,VWS V14.01,2013-05-01 09:09:00,
2013-05-01 05:10:00,49.6,49.6,30.09,NNE,16,0.0,0.0,100,0.00,,,0.00,VWS V14.01,2013-05-01 09:10:00,
2013-05-01 05:11:00,49.5,49.5,30.09,NNE,16,0.0,0.0,100,0.00,,,0.00,VWS V14.01,2013-05-01 09:11:00,
2013-05-01 05:12:00,49.8,49.8,30.09,NNE,16,1.3,1.3,100,0.00,,,0.00,VWS V14.01,2013-05-01 09:12:00,
2013-05-01 05:13:00,49.1,49.1,30.09,NNE,16,0.0,1.0,100,0.00,,,0.00,VWS V14.01,2013-05-01 09:13:00,
2013-05-01 05:14:00,49.3,49.3,30.09,NNE,15,0.0,0.0,100,0.00,,,0.00,VWS V14.01,2013-05-01 09:14:00,
2013-05-01 05:15:00,48.6,48.6,30.10,NNE,16,0.0,0.0,100,0.00,,,0.00,VWS V14.01,2013-05-01 09:15:00,
2013-05-01 05:16:00,49.8,49.8,30.10,NNE,16,0.0,0.0,100,0.00,,,0.00,VWS V14.01,2013-05-01 09:16:00,
2013-05-01 05:17:00,49.2,49.2,30.10,NNE,16,0.0,0.0,100,0.00,,,0.00,VWS V14.01,2013-05-01 09:17:00,
2013-05-01 05:18:00,49.9,49.9,30.10,NNE,16,0.0,0.0,100,0.00,,,0.00,VWS V14.01,2013-05-01 09:18:00,
2013-05-01 05:19:00,49.1,49.1,30.09,NNE,16,0.0,0.0,100,0.00,,,0.00,VWS V14.01,2013-05-01 09:19:00,
2013-05-01 05:20:00,48.6,48.6,30.09,NNE,16,0.0,0.0,100,0.00,,,0.00,VWS V14.01,2013-05-01 09:20:00,
2013-05-01 05:21:00,50.2,50.2,30.09,NNE,16,0.0,0.0,100,0.00,,,0.00,VWS V14.01,2013-05-01 09:21:00,
2013-05-01 05:22:00,50.3,50.3,30.10,NNE,16,0.0,0.0,100,0.00,,,0.00,VWS V14.01,2013-05-01 09:22:00,
2013-05-01 05:23:00,50.2,50.2,30.10,NNE,16,0.0,0.0,100,0.00,,,0.00,VWS V14.01,2013-05-01 09:23:00,
2013-05-01 05:24:00,49.8,49.8,30.10,NNE,16,0.0,0.0,100,0.00,,,0.00,VWS V14.01,2013-05-01 09:24:00,
2013-05-01 05:25:00,49.3,49.3,30.10,NNE,16,0.0,0.0,100,0.00,,,0.00,VWS V14.01,2013-05-01 09:25:00,
2013-05-01 05:26:00,50.3,50.3,30.10,NNE,15,0.0,0.0,100,0.00,,,0.00,VWS V14.01,2013-05-01 09:26:00,
2013-05-01 05:27:00,50.0,50.0,30.10,NNE,16,0.0,0.0,100,0.00,,,0.00,VWS V14.01,2013-05-01 09:27:00,
2013-05-01 05:28:00,50.0,50.0,30.10,NNE,16,0.0,0.0,100,0.00,,,0.00,VWS V14.01,2013-05-01 09:28:00,
2013-05-01 05:30:00,49.4,49.4,30.10,NNE,16,0.0,0.0,100,0.00,,,0.00,VWS V14.01,2013-05-01 09:30:00,
2013-05-01 05:31:00,49.5,49.5,30.10,NNE,16,0.0,0.0,100,0.00,,,0.00,VWS V14.01,2013-05-01 09:31:00,
2013-05-01 05:32:00,49.3,49.3,30.10,NNE,16,0.0,0.0,100,0.00,,,0.00,VWS V14.01,2013-05-01 09:32:00,
2013-05-01 05:33:00,50.4,50.4,30.10,NNE,16,0.0,0.0,100,0.00,,,0.00,VWS V14.01,2013-05-01 09:33:00,
2013-05-01 05:34:00,50.6,50.6,30.10,NNE,16,0.0,0.0,100,0.00,,,0.00,VWS V14.01,2013-05-01 09:34:00,
2013-05-01 05:35:00,49.8,49.8,30.09,NNE,16,0.0,0.0,100,0.00,,,0.00,VWS V14.01,2013-05-01 09:35:00,
2013-05-01 05:36:00,49.9,49.9,30.09,NNE,16,0.0,0.0,100,0.00,,,0.00,VWS V14.01,2013-05-01 09:36:00,
2013-05-01 05:37:00,50.3,50.3,30.09,NNE,15,0.0,0.0,100,0.00,,,0.00,VWS V14.01,2013-05-01 09:37:00,
2013-05-01 05:38:00,50.4,50.4,30.13,NNE,16,0.0,0.0,100,0.00,,,0.00,VWS V14.01,2013-05-01 09:38:00,
2013-05-01 05:39:00,49.8,49.8,30.10,NNE,16,0.0,0.0,100,0.00,,,0.00,VWS V14.01,2013-05-01 09:39:00,
2013-05-01 05:40:00,50.0,50.0,30.10,NNE,16,0.0,0.0,100,0.00,,,0.00,VWS V14.01,2013-05-01 09:40:00,
2013-05-01 05:41:00,49.9,49.9,30.10,NNE,16,0.0,0.0,100,0.00,,,0.00,VWS V14.01,2013-05-01 09:41:00,
2013-05-01 05:42:00,51.2,51.2,30.09,NNE,16,0.0,0.0,100,0.00,,,0.00,VWS V14.01,2013-05-01 09:42:00,
2013-05-01 05:43:00,50.9,50.9,30.09,NNE,16,0.0,0.0,100,0.00,,,0.00,VWS V14.01,2013-05-01 09:43:00,
2013-05-01 05:44:00,50.7,50.7,30.10,NNE,16,0.0,0.0,100,0.00,,,0.00,VWS V14.01,2013-05-01 09:44:00,
2013-05-01 05:45:00,50.7,50.7,30.10,NNE,16,0.0,0.0,100,0.00,,,0.00,VWS V14.01,2013-05-01 09:45:00,
2013-05-01 05:46:00,50.7,50.6,30.10,NNE,16,0.0,0.0,100,0.00,,,0.00,VWS V14.01,2013-05-01 09:46:00,
2013-05-01 05:47:00,49.6,49.6,30.10,NNE,16,0.0,0.0,100,0.00,,,0.00,VWS V14.01,2013-05-01 09:47:00,
2013-05-01 05:48:00,49.0,49.0,30.09,NNE,16,0.0,0.0,100,0.00,,,0.00,VWS V14.01,2013-05-01 09:48:00,
2013-05-01 05:49:00,49.0,49.0,30.09,NNE,16,0.0,0.0,100,0.00,,,0.00,VWS V14.01,2013-05-01 09:49:00,
2013-05-01 05:50:00,48.8,48.8,30.10,NNE,16,0.0,0.0,100,0.00,,,0.00,VWS V14.01,2013-05-01 09:50:00,
2013-05-01 05:51:00,48.9,48.9,30.10,NNE,16,0.0,0.0,100,0.00,,,0.00,VWS V14.01,2013-05-01 09:51:00,
2013-05-01 05:52:00,49.1,49.1,30.10,NNE,16,0.0,0.0,100,0.00,,,0.00,VWS V14.01,2013-05-01 09:52:00,
2013-05-01 05:53:00,48.6,48.6,30.11,NNE,16,0.0,0.0,100,0.00,,,0.00,VWS V14.01,2013-05-01 09:53:00,
2013-05-01 05:54:00,49.9,49.9,30.11,NNE,16,0.0,0.0,100,0.00,,,0.00,VWS V14.01,2013-05-01 09:54:00,
2013-05-01 05:55:00,48.9,48.9,30.10,NNE,16,0.0,0.0,100,0.00,,,0.00,VWS V14.01,2013-05-01 09:55:00,
2013-05-01 05:56:00,48.5,48.5,30.11,NNE,16,0.0,0.0,100,0.00,,,0.00,VWS V14.01,2013-05-01 09:56:00,
2013-05-01 05:57:00,48.2,48.3,30.11,NNE,16,0.0,0.0,100,0.00,,,0.00,VWS V14.01,2013-05-01 09:57:00,
2013-05-01 05:58:00,48.8,48.8,30.11,NNE,16,0.0,0.0,100,0.00,,,0.00,VWS V14.01,2013-05-01 09:58:00,
2013-05-01 05:59:00,48.7,48.7,30.11,NNE,16,0.0,0.0,100,0.00,,,0.00,VWS V14.01,2013-05-01 09:59:00,
2013-05-01 06:00:00,48.3,48.3,30.10,NNE,16,0.0,0.0,100,0.00,,,0.00,VWS V14.01,2013-05-01 10:00:00,
2013-05-01 06:01:00,48.7,48.7,30.11,NNE,16,0.0,0.0,100,0.00,,,0.00,VWS V14.01,2013-05-01 10:01:00,
2013-05-01 06:02:00,48.7,48.7,30.11,NNE,16,0.0,0.0,100,0.00,,,0.00,VWS V14.01,2013-05-01 10:02:00,
2013-05-01 06:03:00,48.7,48.7,30.11,NNE,16,0.0,0.0,100,0.00,,,0.00,VWS V14.01,2013-05-01 10:03:00,
2013-05-01 06:04:00,48.0,48.0,30.11,NNE,16,0.0,0.0,100,0.00,,,0.00,VWS V14.01,2013-05-01 10:04:00,
2013-05-01 06:05:00,48.1,48.1,30.11,NNE,16,0.0,0.0,100,0.00,,,0.00,VWS V14.01,2013-05-01 10:05:00,
2013-05-01 06:06:00,47.9,47.9,30.11,NNE,16,0.0,0.0,100,0.00,,,0.00,VWS V14.01,2013-05-01 10:06:00,
2013-05-01 06:07:00,48.0,48.0,30.11,NNE,16,0.0,0.0,100,0.00,,,0.00,VWS V14.01,2013-05-01 10:07:00,
2013-05-01 06:08:00,48.2,48.2,30.12,NNE,16,0.0,0.0,100,0.00,,,0.00,VWS V14.01,2013-05-01 10:08:00,
2013-05-01 06:09:00,48.2,48.2,30.11,NNE,16,0.0,0.0,100,0.00,,,0.00,VWS V14.01,2013-05-01 10:09:00,
2013-05-01 06:10:00,48.8,48.8,30.14,NNE,16,0.0,0.0,100,0.00,,,0.00,VWS V14.01,2013-05-01 10:10:00,
2013-05-01 06:11:00,49.3,49.3,30.12,NNE,16,0.0,0.0,100,0.00,,,0.00,VWS V14.01,2013-05-01 10:11:00,
2013-05-01 06:12:00,49.2,49.2,30.12,NNE,16,0.0,0.0,100,0.00,,,0.00,VWS V14.01,2013-05-01 10:12:00,
2013-05-01 06:13:00,48.7,48.7,30.11,NNE,16,0.0,0.0,100,0.00,,,0.00,VWS V14.01,2013-05-01 10:13:00,
2013-05-01 06:14:00,49.2,49.2,30.11,NNE,15,0.0,0.0,100,0.00,,,0.00,VWS V14.01,2013-05-01 10:14:00,
2013-05-01 06:15:00,49.4,49.4,30.10,NNE,16,0.0,0.0,100,0.00,,,0.00,VWS V14.01,2013-05-01 10:15:00,
2013-05-01 06:16:00,48.8,48.8,30.10,NNE,16,0.0,0.0,100,0.00,,,0.00,VWS V14.01,2013-05-01 10:16:00,
2013-05-01 06:17:00,47.8,47.8,30.12,NNE,16,0.0,0.0,100,0.00,,,0.00,VWS V14.01,2013-05-01 10:17:00,
2013-05-01 06:18:00,47.8,47.8,30.11,NNE,16,0.0,0.0,100,0.00,,,0.00,VWS V14.01,2013-05-01 10:18:00,
2013-05-01 06:19:00,48.4,48.4,30.11,NNE,16,0.0,0.0,100,0.00,,,0.00,VWS V14.01,2013-05-01 10:19:00,
2013-05-01 06:20:00,48.5,48.5,30.11,NNE,16,0.0,0.0,100,0.00,,,0.00,VWS V14.01,2013-05-01 10:20:00,
2013-05-01 06:21:00,46.2,46.2,30.11,NNW,344,2.0,2.2,100,0.00,,,0.00,VWS V14.01,2013-05-01 10:21:00,
2013-05-01 06:22:00,46.8,46.8,30.12,NNW,344,2.3,2.3,100,0.00,,,0.00,VWS V14.01,2013-05-01 10:22:00,
2013-05-01 06:23:00,48.8,48.8,30.12,NNW,344,1.8,2.0,100,0.00,,,0.00,VWS V14.01,2013-05-01 10:23:00,
2013-05-01 06:24:00,48.9,48.9,30.12,NNW,344,0.0,1.8,100,0.00,,,0.00,VWS V14.01,2013-05-01 10:24:00,
2013-05-01 06:25:00,47.8,47.8,30.12,NNW,344,0.0,0.0,100,0.00,,,0.00,VWS V14.01,2013-05-01 10:25:00,
2013-05-01 06:26:00,47.3,47.3,30.13,NNW,344,0.0,0.0,100,0.00,,,0.00,VWS V14.01,2013-05-01 10:26:00,
2013-05-01 06:27:00,47.3,47.3,30.12,NNW,344,0.0,0.0,100,0.00,,,0.00,VWS V14.01,2013-05-01 10:27:00,
2013-05-01 06:28:00,48.0,48.0,30.12,NNE,26,0.0,0.0,100,0.00,,,0.00,VWS V14.01,2013-05-01 10:28:00,
2013-05-01 06:29:00,48.0,48.0,30.12,NNE,26,0.0,0.0,100,0.00,,,0.00,VWS V14.01,2013-05-01 10:29:00,
2013-05-01 06:31:00,47.9,47.9,30.12,NNE,26,0.0,1.8,100,0.00,,,0.00,VWS V14.01,2013-05-01 10:31:00,
2013-05-01 06:32:00,47.3,47.3,30.13,NNE,26,0.0,0.0,100,0.00,,,0.00,VWS V14.01,2013-05-01 10:32:00,
2013-05-01 06:33:00,47.6,47.6,30.13,NNE,26,0.0,0.0,100,0.00,,,0.00,VWS V14.01,2013-05-01 10:33:00,
2013-05-01 06:34:00,49.7,49.7,30.14,NNE,26,0.0,0.0,100,0.00,,,0.00,VWS V14.01,2013-05-01 10:34:00,
2013-05-01 06:35:00,47.6,47.6,30.13,NNE,26,0.0,0.0,100,0.00,,,0.00,VWS V14.01,2013-05-01 10:35:00,
2013-05-01 06:36:00,49.4,49.4,30.13,NNE,26,0.0,0.0,100,0.00,,,0.00,VWS V14.01,2013-05-01 10:36:00,
2013-05-01 06:37:00,47.7,47.7,30.13,NNE,26,0.0,0.0,100,0.00,,,0.00,VWS V14.01,2013-05-01 10:37:00,
2013-05-01 06:38:00,49.0,49.0,30.13,NNE,26,0.0,0.0,100,0.00,,,0.00,VWS V14.01,2013-05-01 10:38:00,
2013-05-01 06:39:00,49.0,49.0,30.14,NNE,26,0.0,0.0,100,0.00,,,0.00,VWS V14.01,2013-05-01 10:39:00,
2013-05-01 06:40:00,48.1,48.1,30.12,NNE,26,0.0,0.0,100,0.00,,,0.00,VWS V14.01,2013-05-01 10:40:00,
2013-05-01 06:41:00,49.4,49.4,30.13,NNE,26,0.0,0.0,100,0.00,,,0.00,VWS V14.01,2013-05-01 10:41:00,
2013-05-01 06:42:00,50.1,50.1,30.13,NNE,26,0.0,0.0,100,0.00,,,0.00,VWS V14.01,2013-05-01 10:42:00,
2013-05-01 06:43:00,50.8,50.8,30.12,NNE,26,0.0,0.0,100,0.00,,,0.00,VWS V14.01,2013-05-01 10:43:00,
2013-05-01 06:44:00,47.5,47.5,30.12,NNE,26,0.0,0.0,100,0.00,,,0.00,VWS V14.01,2013-05-01 10:44:00,
2013-05-01 06:45:00,50.6,50.6,30.14,NNE,26,0.0,0.0,100,0.00,,,0.00,VWS V14.01,2013-05-01 10:45:00,
2013-05-01 06:46:00,49.5,49.5,30.14,ENE,60,1.0,1.0,100,0.00,,,0.00,VWS V14.01,2013-05-01 10:46:00,
2013-05-01 06:47:00,50.9,50.9,30.14,East,86,0.0,1.0,100,0.00,,,0.00,VWS V14.01,2013-05-01 10:47:00,
2013-05-01 06:48:00,49.4,49.4,30.14,East,86,0.0,0.0,100,0.00,,,0.00,VWS V14.01,2013-05-01 10:48:00,
2013-05-01 06:49:00,49.7,49.7,30.14,East,86,0.0,0.0,100,0.00,,,0.00,VWS V14.01,2013-05-01 10:49:00,
2013-05-01 06:50:00,49.9,49.9,30.13,East,86,0.0,0.0,100,0.00,,,0.00,VWS V14.01,2013-05-01 10:50:00,
2013-05-01 06:51:00,50.3,50.3,30.13,East,86,0.0,0.0,100,0.00,,,0.00,VWS V14.01,2013-05-01 10:51:00,
2013-05-01 06:52:00,50.4,50.4,30.14,East,86,0.0,0.0,100,0.00,,,0.00,VWS V14.01,2013-05-01 10:52:00,
2013-05-01 06:53:00,49.4,49.4,30.13,East,86,2.0,2.0,100,0.00,,,0.00,VWS V14.01,2013-05-01 10:53:00,
2013-05-01 06:54:00,49.8,49.8,30.12,East,86,2.3,2.3,100,0.00,,,0.00,VWS V14.01,2013-05-01 10:54:00,
2013-05-01 06:55:00,49.6,49.6,30.13,East,86,2.5,2.7,100,0.00,,,0.00,VWS V14.01,2013-05-01 10:55:00,
2013-05-01 06:56:00,48.5,48.5,30.14,East,86,2.0,2.0,100,0.00,,,0.00,VWS V14.01,2013-05-01 10:56:00,
2013-05-01 06:57:00,48.6,48.6,30.14,East,86,2.0,2.0,100,0.00,,,0.00,VWS V14.01,2013-05-01 10:57:00,
2013-05-01 06:58:00,48.5,48.5,30.13,East,86,0.0,1.8,100,0.00,,,0.00,VWS V14.01,2013-05-01 10:58:00,
2013-05-01 06:59:00,48.7,48.7,30.14,East,86,0.0,0.0,100,0.00,,,0.00,VWS V14.01,2013-05-01 10:59:00,
2013-05-01 07:00:00,48.7,48.7,30.14,East,86,0.0,1.8,100,0.00,,,0.00,VWS V14.01,2013-05-01 11:00:00,
2013-05-01 07:01:00,48.5,48.5,30.13,East,86,0.0,0.0,100,0.00,,,0.00,VWS V14.01,2013-05-01 11:01:00,
2013-05-01 07:02:00,50.0,50.0,30.12,East,86,1.8,1.8,100,0.00,,,0.00,VWS V14.01,2013-05-01 11:02:00,
2013-05-01 07:03:00,49.5,49.5,30.13,East,86,0.0,1.8,100,0.00,,,0.00,VWS V14.01,2013-05-01 11:03:00,
2013-05-01 07:04:00,49.9,49.9,30.14,East,86,1.1,1.3,100,0.00,,,0.00,VWS V14.01,2013-05-01 11:04:00,
2013-05-01 07:05:00,49.5,49.5,30.14,East,86,0.0,1.5,100,0.00,,,0.00,VWS V14.01,2013-05-01 11:05:00,
2013-05-01 07:06:00,49.5,49.5,30.15,East,86,0.0,1.5,100,0.00,,,0.00,VWS V14.01,2013-05-01 11:06:00,
2013-05-01 07:07:00,49.1,49.2,30.15,East,86,0.0,0.0,100,0.00,,,0.00,VWS V14.01,2013-05-01 11:07:00,
2013-05-01 07:08:00,50.8,50.8,30.15,East,86,0.0,0.0,100,0.00,,,0.00,VWS V14.01,2013-05-01 11:08:00,
2013-05-01 07:09:00,50.0,50.0,30.14,East,86,0.0,0.0,100,0.00,,,0.00,VWS V14.01,2013-05-01 11:09:00,
2013-05-01 07:10:00,49.8,49.8,30.15,East,86,0.0,0.0,100,0.00,,,0.00,VWS V14.01,2013-05-01 11:10:00,
2013-05-01 07:11:00,49.5,49.5,30.15,East,86,0.0,0.0,100,0.00,,,0.00,VWS V14.01,2013-05-01 11:11:00,
2013-05-01 07:12:00,49.6,49.6,30.15,East,86,0.0,0.0,100,0.00,,,0.00,VWS V14.01,2013-05-01 11:12:00,
2013-05-01 07:13:00,49.2,49.2,30.15,East,86,0.0,0.0,100,0.00,,,0.00,VWS V14.01,2013-05-01 11:13:00,
2013-05-01 07:14:00,49.7,49.7,30.15,East,86,0.0,0.0,100,0.00,,,0.00,VWS V14.01,2013-05-01 11:14:00,
2013-05-01 07:15:00,49.6,49.6,30.13,East,86,0.0,0.0,100,0.00,,,0.00,VWS V14.01,2013-05-01 11:15:00,
2013-05-01 07:16:00,49.5,49.5,30.13,East,86,0.0,0.0,100,0.00,,,0.00,VWS V14.01,2013-05-01 11:16:00,
2013-05-01 07:17:00,50.1,50.1,30.14,East,86,0.0,0.0,100,0.00,,,0.00,VWS V14.01,2013-05-01 11:17:00,
2013-05-01 07:18:00,50.7,50.7,30.15,East,86,0.0,0.0,100,0.00,,,0.00,VWS V14.01,2013-05-01 11:18:00,
2013-05-01 07:19:00,51.2,51.2,30.15,East,86,0.0,0.0,100,0.00,,,0.00,VWS V14.01,2013-05-01 11:19:00,
2013-05-01 07:20:00,51.3,51.3,30.15,East,86,0.0,0.0,100,0.00,,,0.00,VWS V14.01,2013-05-01 11:20:00,
2013-05-01 07:21:00,51.2,51.2,30.15,East,86,0.0,0.0,100,0.00,,,0.00,VWS V14.01,2013-05-01 11:21:00,
2013-05-01 07:22:00,51.3,51.3,30.15,East,86,0.0,0.0,100,0.00,,,0.00,VWS V14.01,2013-05-01 11:22:00,
2013-05-01 07:23:00,51.3,51.3,30.14,East,86,0.0,0.0,100,0.00,,,0.00,VWS V14.01,2013-05-01 11:23:00,
2013-05-01 07:24:00,51.3,51.3,30.14,East,86,0.0,0.0,100,0.00,,,0.00,VWS V14.01,2013-05-01 11:24:00,
2013-05-01 07:25:00,51.2,51.2,30.17,East,86,0.0,0.0,100,0.00,,,0.00,VWS V14.01,2013-05-01 11:25:00,
2013-05-01 07:26:00,50.9,50.9,30.16,East,86,0.0,0.0,100,0.00,,,0.00,VWS V14.01,2013-05-01 11:26:00,
2013-05-01 07:27:00,51.0,51.1,30.15,East,86,0.0,0.0,100,0.00,,,0.00,VWS V14.01,2013-05-01 11:27:00,
2013-05-01 07:28:00,51.4,51.4,30.14,East,86,0.0,0.0,100,0.00,,,0.00,VWS V14.01,2013-05-01 11:28:00,
2013-05-01 07:29:00,51.8,51.8,30.15,East,86,0.0,0.0,100,0.00,,,0.00,VWS V14.01,2013-05-01 11:29:00,
2013-05-01 07:30:00,52.1,52.1,30.15,East,86,0.0,0.0,100,0.00,,,0.00,VWS V14.01,2013-05-01 11:30:00,
2013-05-01 07:31:00,52.3,52.3,30.14,East,86,0.0,0.0,100,0.00,,,0.00,VWS V14.01,2013-05-01 11:31:00,
2013-05-01 07:32:00,52.4,52.4,30.13,East,86,0.0,0.0,100,0.00,,,0.00,VWS V14.01,2013-05-01 11:32:00,
2013-05-01 07:33:00,52.9,52.9,30.14,East,86,0.0,0.0,100,0.00,,,0.00,VWS V14.01,2013-05-01 11:33:00,
2013-05-01 07:34:00,53.2,53.2,30.14,East,86,0.0,0.0,100,0.00,,,0.00,VWS V14.01,2013-05-01 11:34:00,
2013-05-01 07:35:00,53.4,53.4,30.15,East,86,0.0,0.0,100,0.00,,,0.00,VWS V14.01,2013-05-01 11:35:00,
2013-05-01 07:36:00,53.6,53.6,30.14,East,86,0.0,0.0,100,0.00,,,0.00,VWS V14.01,2013-05-01 11:36:00,
2013-05-01 07:37:00,53.6,53.6,30.15,East,86,0.0,0.0,100,0.00,,,0.00,VWS V14.01,2013-05-01 11:37:00,
2013-05-01 07:38:00,53.5,53.5,30.15,East,86,0.0,0.0,100,0.00,,,0.00,VWS V14.01,2013-05-01 11:38:00,
2013-05-01 07:39:00,54.2,54.2,30.14,East,86,0.0,0.0,100,0.00,,,0.00,VWS V14.01,2013-05-01 11:39:00,
2013-05-01 07:40:00,54.8,54.8,30.15,East,86,0.0,0.0,100,0.00,,,0.00,VWS V14.01,2013-05-01 11:40:00,
2013-05-01 07:41:00,55.7,55.7,30.15,East,86,0.0,0.0,100,0.00,,,0.00,VWS V14.01,2013-05-01 11:41:00,
2013-05-01 07:42:00,55.7,55.7,30.15,East,86,0.0,0.0,100,0.00,,,0.00,VWS V14.01,2013-05-01 11:42:00,
2013-05-01 07:43:00,55.4,54.9,30.14,East,86,0.0,0.0,98,0.00,,,0.00,VWS V14.01,2013-05-01 11:43:00,
2013-05-01 07:44:00,56.8,55.8,30.14,East,86,0.0,0.0,96,0.00,,,0.00,VWS V14.01,2013-05-01 11:44:00,
2013-05-01 07:45:00,55.4,53.7,30.15,East,86,0.0,0.0,94,0.00,,,0.00,VWS V14.01,2013-05-01 11:45:00,
2013-05-01 07:46:00,55.8,53.8,30.15,East,86,0.0,0.0,93,0.00,,,0.00,VWS V14.01,2013-05-01 11:46:00,
2013-05-01 07:47:00,55.1,52.7,30.15,ENE,72,0.0,0.0,92,0.00,,,0.00,VWS V14.01,2013-05-01 11:47:00,
2013-05-01 07:48:00,55.7,53.1,30.15,ENE,72,0.0,0.0,91,0.00,,,0.00,VWS V14.01,2013-05-01 11:48:00,
2013-05-01 07:49:00,55.7,53.3,30.14,ENE,72,0.0,0.0,92,0.00,,,0.00,VWS V14.01,2013-05-01 11:49:00,
2013-05-01 07:50:00,55.3,52.8,30.14,ENE,72,1.0,1.5,91,0.00,,,0.00,VWS V14.01,2013-05-01 11:50:00,
2013-05-01 07:51:00,55.7,53.4,30.14,ENE,72,1.0,1.0,92,0.00,,,0.00,VWS V14.01,2013-05-01 11:51:00,
2013-05-01 07:52:00,55.7,53.7,30.14,ENE,72,1.0,1.0,93,0.00,,,0.00,VWS V14.01,2013-05-01 11:52:00,
2013-05-01 07:53:00,55.8,53.8,30.14,ENE,72,1.0,1.0,93,0.00,,,0.00,VWS V14.01,2013-05-01 11:53:00,
2013-05-01 07:54:00,56.2,54.1,30.18,East,89,2.2,2.2,93,0.00,,,0.00,VWS V14.01,2013-05-01 11:54:00,
2013-05-01 07:55:00,56.0,53.8,30.15,East,89,2.3,2.3,92,0.00,,,0.00,VWS V14.01,2013-05-01 11:55:00,
2013-05-01 07:56:00,55.9,53.6,30.15,East,89,2.3,2.8,92,0.00,,,0.00,VWS V14.01,2013-05-01 11:56:00,
2013-05-01 07:57:00,56.3,54.1,30.18,East,89,2.5,2.5,92,0.00,,,0.00,VWS V14.01,2013-05-01 11:57:00,
2013-05-01 07:58:00,56.5,54.4,30.15,East,97,1.5,2.5,93,0.00,,,0.00,VWS V14.01,2013-05-01 11:58:00,
2013-05-01 07:59:00,56.4,54.2,30.15,East,97,3.2,3.2,92,0.00,,,0.00,VWS V14.01,2013-05-01 11:59:00,
2013-05-01 08:00:00,56.3,53.9,30.15,East,94,3.0,3.2,92,0.00,,,0.00,VWS V14.01,2013-05-01 12:00:00,
2013-05-01 08:01:00,56.5,54.1,30.15,East,89,2.8,3.0,92,0.00,,,0.00,VWS V14.01,2013-05-01 12:01:00,
2013-05-01 08:02:00,56.6,54.2,30.15,East,92,2.3,3.0,92,0.00,,,0.00,VWS V14.01,2013-05-01 12:02:00,
2013-05-01 08:03:00,56.7,54.2,30.15,East,92,2.8,2.8,91,0.00,,,0.00,VWS V14.01,2013-05-01 12:03:00,
2013-05-01 08:04:00,56.9,54.3,30.18,East,95,2.7,2.7,91,0.00,,,0.00,VWS V14.01,2013-05-01 12:04:00,
2013-05-01 08:05:00,57.1,54.6,30.16,East,96,2.7,2.7,91,0.00,,,0.00,VWS V14.01,2013-05-01 12:05:00,
2013-05-01 08:06:00,57.6,54.8,30.14,ESE,110,2.7,2.7,91,0.00,,,0.00,VWS V14.01,2013-05-01 12:06:00,
2013-05-01 08:07:00,57.3,54.3,30.15,ESE,105,3.2,3.2,90,0.00,,,0.00,VWS V14.01,2013-05-01 12:07:00,
2013-05-01 08:08:00,57.3,54.3,30.15,ESE,105,3.2,3.2,90,0.00,,,0.00,VWS V14.01,2013-05-01 12:08:00,
2013-05-01 08:09:00,58.4,55.5,30.15,East,98,2.0,2.3,90,0.00,,,0.00,VWS V14.01,2013-05-01 12:09:00,
2013-05-01 08:10:00,58.2,55.0,30.15,ESE,110,2.8,2.8,89,0.00,,,0.00,VWS V14.01,2013-05-01 12:10:00,
2013-05-01 08:11:00,58.4,54.9,30.15,ESE,103,3.0,3.0,88,0.00,,,0.00,VWS V14.01,2013-05-01 12:11:00,
2013-05-01 08:12:00,58.2,54.3,30.14,ESE,103,3.0,3.0,87,0.00,,,0.00,VWS V14.01,2013-05-01 12:12:00,
2013-05-01 08:13:00,58.2,54.2,30.15,East,98,2.5,2.8,87,0.00,,,0.00,VWS V14.01,2013-05-01 12:13:00,
2013-05-01 08:14:00,59.0,54.9,30.16,ESE,108,2.8,2.8,86,0.00,,,0.00,VWS V14.01,2013-05-01 12:14:00,
2013-05-01 08:15:00,59.4,55.5,30.14,ESE,109,2.3,2.5,87,0.00,,,0.00,VWS V14.01,2013-05-01 12:15:00,
2013-05-01 08:16:00,59.2,55.3,30.15,ESE,102,2.7,2.7,87,0.00,,,0.00,VWS V14.01,2013-05-01 12:16:00,
2013-05-01 08:17:00,60.1,55.8,30.15,ESE,105,3.0,3.0,86,0.00,,,0.00,VWS V14.01,2013-05-01 12:17:00,
2013-05-01 08:18:00,60.1,56.0,30.15,ESE,112,2.5,3.0,86,0.00,,,0.00,VWS V14.01,2013-05-01 12:18:00,
2013-05-01 08:19:00,59.4,54.5,30.14,ESE,103,3.7,3.7,84,0.00,,,0.00,VWS V14.01,2013-05-01 12:19:00,
2013-05-01 08:20:00,60.0,55.5,30.14,ESE,107,3.4,3.7,85,0.00,,,0.00,VWS V14.01,2013-05-01 12:20:00,
2013-05-01 08:21:00,60.2,55.5,30.14,ESE,107,3.5,3.5,85,0.00,,,0.00,VWS V14.01,2013-05-01 12:21:00,
2013-05-01 08:22:00,61.2,56.8,30.15,ESE,108,2.3,3.7,85,0.00,,,0.00,VWS V14.01,2013-05-01 12:22:00,
2013-05-01 08:23:00,60.9,55.8,30.15,ESE,106,3.7,3.7,83,0.00,,,0.00,VWS V14.01,2013-05-01 12:23:00,
2013-05-01 08:24:00,60.7,55.0,30.14,ESE,102,3.4,3.7,81,0.00,,,0.00,VWS V14.01,2013-05-01 12:24:00,
2013-05-01 08:25:00,60.6,54.9,30.15,ESE,107,3.9,3.9,81,0.00,,,0.00,VWS V14.01,2013-05-01 12:25:00,
2013-05-01 08:26:00,60.9,54.7,30.15,ESE,121,3.9,3.9,80,0.00,,,0.00,VWS V14.01,2013-05-01 12:26:00,
2013-05-01 08:27:00,61.7,55.6,30.14,ESE,121,3.7,3.7,80,0.00,,,0.00,VWS V14.01,2013-05-01 12:27:00,
2013-05-01 08:28:00,62.4,56.5,30.15,ESE,119,3.2,3.7,81,0.00,,,0.00,VWS V14.01,2013-05-01 12:28:00,
2013-05-01 08:29:00,61.4,55.0,30.15,SE,141,3.7,3.7,79,0.00,,,0.00,VWS V14.01,2013-05-01 12:29:00,
2013-05-01 08:30:00,62.2,55.7,30.15,ESE,119,3.2,3.7,79,0.00,,,0.00,VWS V14.01,2013-05-01 12:30:00,
2013-05-01 08:31:00,62.3,55.6,30.14,ESE,121,3.4,3.4,79,0.00,,,0.00,VWS V14.01,2013-05-01 12:31:00,
2013-05-01 08:32:00,62.2,55.5,30.15,SE,139,4.0,4.0,79,0.00,,,0.00,VWS V14.01,2013-05-01 12:32:00,
2013-05-01 08:33:00,62.0,55.2,30.14,ESE,118,4.4,4.4,78,0.00,,,0.00,VWS V14.01,2013-05-01 12:33:00,
2013-05-01 08:34:00,61.8,54.3,30.14,ESE,122,5.4,5.4,76,0.00,,,0.00,VWS V14.01,2013-05-01 12:34:00,
2013-05-01 08:35:00,62.2,55.0,30.14,SE,136,4.5,4.5,77,0.00,,,0.00,VWS V14.01,2013-05-01 12:35:00,
2013-05-01 08:36:00,63.0,55.6,30.14,SE,139,4.2,4.7,77,0.00,,,0.00,VWS V14.01,2013-05-01 12:36:00,
2013-05-01 08:37:00,63.0,55.6,30.14,SE,139,4.2,4.7,77,0.00,,,0.00,VWS V14.01,2013-05-01 12:37:00,
2013-05-01 08:38:00,62.5,54.6,30.14,SE,129,4.4,5.1,75,0.00,,,0.00,VWS V14.01,2013-05-01 12:38:00,
2013-05-01 08:39:00,62.0,53.0,30.14,SE,128,5.1,5.1,72,0.00,,,0.00,VWS V14.01,2013-05-01 12:39:00,
2013-05-01 08:40:00,62.1,53.7,30.15,ESE,121,4.9,5.1,74,0.00,,,0.00,VWS V14.01,2013-05-01 12:40:00,
2013-05-01 08:41:00,62.5,54.5,30.15,SE,130,4.5,4.9,75,0.00,,,0.00,VWS V14.01,2013-05-01 12:41:00,
2013-05-01 08:42:00,62.9,55.2,30.15,ESE,103,3.9,3.9,76,0.00,,,0.00,VWS V14.01,2013-05-01 12:42:00,
2013-05-01 08:43:00,62.2,54.7,30.15,ESE,121,4.7,4.7,76,0.00,,,0.00,VWS V14.01,2013-05-01 12:43:00,
2013-05-01 08:44:00,62.6,55.2,30.14,ESE,111,4.2,4.7,77,0.00,,,0.00,VWS V14.01,2013-05-01 12:44:00,
2013-05-01 08:45:00,62.9,54.5,30.15,SE,130,5.4,5.4,74,0.00,,,0.00,VWS V14.01,2013-05-01 12:45:00,
2013-05-01 08:46:00,63.2,53.8,30.14,ESE,113,5.7,5.7,71,0.00,,,0.00,VWS V14.01,2013-05-01 12:46:00,
2013-05-01 08:47:00,62.8,54.5,30.15,ESE,122,4.9,6.1,74,0.00,,,0.00,VWS V14.01,2013-05-01 12:47:00,
2013-05-01 08:48:00,63.5,54.6,30.15,SE,132,5.6,5.6,73,0.00,,,0.00,VWS V14.01,2013-05-01 12:48:00,
2013-05-01 08:49:00,63.6,55.0,30.15,SE,125,4.2,5.6,74,0.00,,,0.00,VWS V14.01,2013-05-01 12:49:00,
2013-05-01 08:50:00,62.8,52.7,30.16,SE,124,6.6,6.8,70,0.00,,,0.00,VWS V14.01,2013-05-01 12:50:00,
2013-05-01 08:51:00,63.5,53.0,30.15,ESE,110,5.6,6.8,69,0.00,,,0.00,VWS V14.01,2013-05-01 12:51:00,
2013-05-01 08:52:00,63.6,54.0,30.15,ESE,121,5.2,5.7,71,0.00,,,0.00,VWS V14.01,2013-05-01 12:52:00,
2013-05-01 08:53:00,63.2,52.8,30.18,ESE,120,6.4,6.4,69,0.00,,,0.00,VWS V14.01,2013-05-01 12:53:00,
2013-05-01 08:54:00,63.2,51.6,30.15,SE,129,5.7,6.4,66,0.00,,,0.00,VWS V14.01,2013-05-01 12:54:00,
2013-05-01 08:55:00,63.4,52.5,30.14,ESE,121,5.9,5.9,67,0.00,,,0.00,VWS V14.01,2013-05-01 12:55:00,
2013-05-01 08:56:00,63.1,50.5,30.15,SE,124,6.8,6.8,64,0.00,,,0.00,VWS V14.01,2013-05-01 12:56:00,
2013-05-01 08:57:00,63.8,52.4,30.14,SE,143,5.2,6.8,66,0.00,,,0.00,VWS V14.01,2013-05-01 12:57:00,
2013-05-01 08:58:00,63.6,51.2,30.18,ESE,119,5.6,5.9,64,0.00,,,0.00,VWS V14.01,2013-05-01 12:58:00,
2013-05-01 08:59:00,63.8,51.3,30.16,SE,133,5.9,5.9,64,0.00,,,0.00,VWS V14.01,2013-05-01 12:59:00,
2013-05-01 09:00:00,64.1,51.6,30.15,ESE,121,5.7,6.3,64,0.00,,,0.00,VWS V14.01,2013-05-01 13:00:00,
2013-05-01 09:01:00,63.8,51.0,30.16,ESE,120,5.7,5.7,63,0.00,,,0.00,VWS V14.01,2013-05-01 13:01:00,
2013-05-01 09:02:00,64.3,51.5,30.15,SE,128,5.2,5.7,63,0.00,,,0.00,VWS V14.01,2013-05-01 13:02:00,
2013-05-01 09:03:00,65.3,54.0,30.14,SSE,154,5.2,5.4,67,0.00,,,0.00,VWS V14.01,2013-05-01 13:03:00,
2013-05-01 09:04:00,64.8,52.1,30.14,SE,124,4.4,5.2,63,0.00,,,0.00,VWS V14.01,2013-05-01 13:04:00,
2013-05-01 09:05:00,64.9,51.8,30.13,SE,144,5.1,5.1,62,0.00,,,0.00,VWS V14.01,2013-05-01 13:05:00,
2013-05-01 09:06:00,65.7,53.9,30.15,SE,140,4.4,5.1,66,0.00,,,0.00,VWS V14.01,2013-05-01 13:06:00,
2013-05-01 09:07:00,64.6,51.7,30.15,ESE,122,5.9,5.9,63,0.00,,,0.00,VWS V14.01,2013-05-01 13:07:00,
2013-05-01 09:08:00,64.8,51.0,30.14,ESE,123,4.9,5.6,61,0.00,,,0.00,VWS V14.01,2013-05-01 13:08:00,
2013-05-01 09:09:00,66.1,52.8,30.14,SE,127,3.5,4.7,62,0.00,,,0.00,VWS V14.01,2013-05-01 13:09:00,
2013-05-01 09:10:00,67.0,55.0,30.14,SE,127,3.7,4.7,65,0.00,,,0.00,VWS V14.01,2013-05-01 13:10:00,
2013-05-01 09:11:00,66.6,51.8,30.14,SSE,151,3.9,4.0,59,0.00,,,0.00,VWS V14.01,2013-05-01 13:11:00,
2013-05-01 09:12:00,66.5,52.5,30.15,SE,146,4.2,4.2,61,0.00,,,0.00,VWS V14.01,2013-05-01 13:12:00,
2013-05-01 09:13:00,67.3,53.6,30.14,SSE,153,3.7,3.7,61,0.00,,,0.00,VWS V14.01,2013-05-01 13:13:00,
2013-05-01 09:14:00,66.7,51.2,30.14,SSE,150,3.9,3.9,57,0.00,,,0.00,VWS V14.01,2013-05-01 13:14:00,
2013-05-01 09:15:00,67.0,51.0,30.14,SSE,148,3.9,5.1,56,0.00,,,0.00,VWS V14.01,2013-05-01 13:15:00,
2013-05-01 09:16:00,66.0,50.5,30.13,SSE,147,5.7,5.7,57,0.00,,,0.00,VWS V14.01,2013-05-01 13:16:00,
2013-05-01 09:17:00,66.8,53.3,30.14,SSE,151,3.9,5.7,62,0.00,,,0.00,VWS V14.01,2013-05-01 13:17:00,
2013-05-01 09:18:00,66.4,49.3,30.15,SSE,148,4.7,4.7,54,0.00,,,0.00,VWS V14.01,2013-05-01 13:18:00,
2013-05-01 09:19:00,66.3,51.7,30.14,ESE,123,4.4,4.7,59,0.00,,,0.00,VWS V14.01,2013-05-01 13:19:00,
2013-05-01 09:20:00,65.9,48.7,30.14,SSE,147,6.1,6.1,54,0.00,,,0.00,VWS V14.01,2013-05-01 13:20:00,
2013-05-01 09:21:00,66.9,50.5,30.14,SE,138,4.0,6.1,56,0.00,,,0.00,VWS V14.01,2013-05-01 13:21:00,
2013-05-01 09:22:00,67.2,50.2,30.15,SSE,158,3.7,4.0,54,0.00,,,0.00,VWS V14.01,2013-05-01 13:22:00,
2013-05-01 09:23:00,67.5,52.3,30.14,SE,144,1.3,3.7,58,0.00,,,0.00,VWS V14.01,2013-05-01 13:23:00,
2013-05-01 09:24:00,67.8,53.3,30.15,SSE,148,4.7,4.7,60,0.00,,,0.00,VWS V14.01,2013-05-01 13:24:00,
2013-05-01 09:25:00,66.4,50.2,30.15,SE,133,5.2,5.4,56,0.00,,,0.00,VWS V14.01,2013-05-01 13:25:00,
2013-05-01 09:26:00,67.3,50.3,30.15,SE,138,3.2,5.2,54,0.00,,,0.00,VWS V14.01,2013-05-01 13:26:00,
2013-05-01 09:27:00,65.3,48.0,30.15,ESE,122,6.8,6.8,54,0.00,,,0.00,VWS V14.01,2013-05-01 13:27:00,
2013-05-01 09:28:00,65.3,48.9,30.15,ESE,110,6.3,6.8,55,0.00,,,0.00,VWS V14.01,2013-05-01 13:28:00,
2013-05-01 09:29:00,65.7,47.2,30.15,ESE,119,6.1,6.3,51,0.00,,,0.00,VWS V14.01,2013-05-01 13:29:00,
2013-05-01 09:30:00,65.2,48.7,30.15,ESE,117,6.1,6.1,55,0.00,,,0.00,VWS V14.01,2013-05-01 13:30:00,
2013-05-01 09:31:00,65.6,49.4,30.16,ESE,116,5.1,5.7,56,0.00,,,0.00,VWS V14.01,2013-05-01 13:31:00,
2013-05-01 09:32:00,65.1,48.0,30.15,ESE,119,6.3,6.3,54,0.00,,,0.00,VWS V14.01,2013-05-01 13:32:00,
2013-05-01 09:33:00,66.5,51.9,30.16,ESE,121,5.2,6.3,59,0.00,,,0.00,VWS V14.01,2013-05-01 13:33:00,
2013-05-01 09:34:00,65.6,48.8,30.15,SE,141,5.9,5.9,55,0.00,,,0.00,VWS V14.01,2013-05-01 13:34:00,
2013-05-01 09:35:00,65.9,50.2,30.15,SE,126,5.7,5.9,57,0.00,,,0.00,VWS V14.01,2013-05-01 13:35:00,
2013-05-01 09:36:00,66.2,47.3,30.15,SE,139,4.4,5.7,50,0.00,,,0.00,VWS V14.01,2013-05-01 13:36:00,
2013-05-01 09:37:00,66.9,50.1,30.16,South,179,3.2,3.5,55,0.00,,,0.00,VWS V14.01,2013-05-01 13:37:00,
2013-05-01 09:38:00,66.5,48.5,30.15,SSE,152,6.3,6.3,52,0.00,,,0.00,VWS V14.01,2013-05-01 13:38:00,
2013-05-01 09:39:00,66.7,49.0,30.15,SSE,161,5.4,6.3,53,0.00,,,0.00,VWS V14.01,2013-05-01 13:39:00,
2013-05-01 09:40:00,67.6,50.5,30.15,SSE,167,3.5,5.4,54,0.00,,,0.00,VWS V14.01,2013-05-01 13:40:00,
2013-05-01 09:41:00,67.4,49.3,30.15,SSE,167,4.4,4.4,52,0.00,,,0.00,VWS V14.01,2013-05-01 13:41:00,
2013-05-01 09:42:00,67.0,47.5,30.15,SSE,156,4.9,6.6,49,0.00,,,0.00,VWS V14.01,2013-05-01 13:42:00,
2013-05-01 09:43:00,67.9,48.8,30.15,SSE,154,4.2,4.9,50,0.00,,,0.00,VWS V14.01,2013-05-01 13:43:00,
2013-05-01 09:44:00,67.0,47.7,30.16,South,171,4.5,4.5,50,0.00,,,0.00,VWS V14.01,2013-05-01 13:44:00,
2013-05-01 09:45:00,67.7,48.8,30.15,SSE,159,4.2,4.5,51,0.00,,,0.00,VWS V14.01,2013-05-01 13:45:00,
2013-05-01 09:46:00,68.8,51.4,30.15,ESE,108,3.2,4.5,54,0.00,,,0.00,VWS V14.01,2013-05-01 13:46:00,
2013-05-01 09:47:00,67.8,49.4,30.15,South,179,4.2,4.2,52,0.00,,,0.00,VWS V14.01,2013-05-01 13:47:00,
2013-05-01 09:48:00,67.9,49.1,30.15,South,179,5.9,5.9,51,0.00,,,0.00,VWS V14.01,2013-05-01 13:48:00,
2013-05-01 09:49:00,67.2,46.4,30.15,SSE,165,6.3,6.3,47,0.00,,,0.00,VWS V14.01,2013-05-01 13:49:00,
2013-05-01 09:50:00,68.6,48.4,30.16,SSE,162,2.7,4.9,48,0.00,,,0.00,VWS V14.01,2013-05-01 13:50:00,
2013-05-01 09:51:00,67.8,48.2,30.15,South,181,4.9,4.9,49,0.00,,,0.00,VWS V14.01,2013-05-01 13:51:00,
2013-05-01 09:52:00,67.1,47.3,30.15,SSE,148,7.1,7.1,49,0.00,,,0.00,VWS V14.01,2013-05-01 13:52:00,
2013-05-01 09:53:00,68.8,51.0,30.15,SSE,157,3.4,7.1,53,0.00,,,0.00,VWS V14.01,2013-05-01 13:53:00,
2013-05-01 09:54:00,67.9,48.5,30.15,SE,140,4.9,4.9,50,0.00,,,0.00,VWS V14.01,2013-05-01 13:54:00,
2013-05-01 09:55:00,67.7,49.3,30.15,South,171,5.4,5.4,52,0.00,,,0.00,VWS V14.01,2013-05-01 13:55:00,
2013-05-01 09:56:00,67.9,48.5,30.15,SSE,155,6.4,6.4,50,0.00,,,0.00,VWS V14.01,2013-05-01 13:56:00,
2013-05-01 09:57:00,67.7,49.3,30.15,SE,126,5.4,6.4,52,0.00,,,0.00,VWS V14.01,2013-05-01 13:57:00,
2013-05-01 09:58:00,68.5,50.6,30.14,SSE,160,5.7,5.7,53,0.00,,,0.00,VWS V14.01,2013-05-01 13:58:00,
2013-05-01 09:59:00,68.4,49.0,30.14,SSE,163,5.7,8.3,50,0.00,,,0.00,VWS V14.01,2013-05-01 13:59:00,
2013-05-01 10:00:00,67.6,47.4,30.14,SSE,150,5.7,5.7,48,0.00,,,0.00,VWS V14.01,2013-05-01 14:00:00,
2013-05-01 10:01:00,68.4,48.2,30.14,SSE,163,4.2,5.7,48,0.00,,,0.00,VWS V14.01,2013-05-01 14:01:00,
2013-05-01 10:02:00,68.3,48.7,30.15,SSE,164,5.2,5.2,50,0.00,,,0.00,VWS V14.01,2013-05-01 14:02:00,
2013-05-01 10:03:00,68.6,49.5,30.14,SSE,161,4.9,5.7,51,0.00,,,0.00,VWS V14.01,2013-05-01 14:03:00,
2013-05-01 10:04:00,68.6,48.6,30.15,South,177,6.1,8.0,49,0.00,,,0.00,VWS V14.01,2013-05-01 14:04:00,
2013-05-01 10:05:00,68.8,50.5,30.15,SSE,160,8.0,8.0,52,0.00,,,0.00,VWS V14.01,2013-05-01 14:05:00,
2013-05-01 10:06:00,68.1,48.2,30.15,SSE,153,7.1,8.0,49,0.00,,,0.00,VWS V14.01,2013-05-01 14:06:00,
2013-05-01 10:07:00,67.7,46.0,30.14,SE,144,5.9,7.1,46,0.00,,,0.00,VWS V14.01,2013-05-01 14:07:00,
2013-05-01 10:08:00,68.3,46.9,30.15,SSE,157,6.1,6.1,46,0.00,,,0.00,VWS V14.01,2013-05-01 14:08:00,
2013-05-01 10:09:00,68.0,47.2,30.14,SE,146,6.8,6.8,47,0.00,,,0.00,VWS V14.01,2013-05-01 14:09:00,
2013-05-01 10:10:00,68.6,48.4,30.15,SE,140,4.0,6.8,49,0.00,,,0.00,VWS V14.01,2013-05-01 14:10:00,
2013-05-01 10:11:00,68.6,48.4,30.15,SE,140,4.0,6.8,49,0.00,,,0.00,VWS V14.01,2013-05-01 14:11:00,
2013-05-01 10:12:00,69.0,49.9,30.15,SSE,164,6.1,7.5,51,0.00,,,0.00,VWS V14.01,2013-05-01 14:12:00,
2013-05-01 10:13:00,68.2,46.6,30.15,South,176,4.9,5.6,46,0.00,,,0.00,VWS V14.01,2013-05-01 14:13:00,
2013-05-01 10:14:00,69.2,50.6,30.15,SE,126,5.2,5.2,51,0.00,,,0.00,VWS V14.01,2013-05-01 14:14:00,
2013-05-01 10:15:00,67.9,45.3,30.14,SE,144,8.7,8.7,44,0.00,,,0.00,VWS V14.01,2013-05-01 14:15:00,
2013-05-01 10:16:00,68.1,46.0,30.15,SE,145,6.8,7.6,45,0.00,,,0.00,VWS V14.01,2013-05-01 14:16:00,
2013-05-01 10:17:00,68.1,46.0,30.15,SE,145,6.8,7.6,45,0.00,,,0.00,VWS V14.01,2013-05-01 14:17:00,
2013-05-01 10:18:00,68.1,45.2,30.14,SSE,151,6.1,6.1,44,0.00,,,0.00,VWS V14.01,2013-05-01 14:18:00,
2013-05-01 10:19:00,68.3,47.5,30.14,SSW,193,6.3,6.3,47,0.00,,,0.00,VWS V14.01,2013-05-01 14:19:00,
2013-05-01 10:20:00,68.3,46.2,30.15,SSE,166,5.7,6.3,45,0.00,,,0.00,VWS V14.01,2013-05-01 14:20:00,
2013-05-01 10:21:00,69.2,48.6,30.15,South,183,5.4,5.7,48,0.00,,,0.00,VWS V14.01,2013-05-01 14:21:00,
2013-05-01 10:22:00,68.8,47.6,30.15,South,188,5.7,5.7,47,0.00,,,0.00,VWS V14.01,2013-05-01 14:22:00,
2013-05-01 10:23:00,70.4,51.7,30.15,South,172,5.1,6.6,52,0.00,,,0.00,VWS V14.01,2013-05-01 14:23:00,
2013-05-01 10:24:00,68.8,46.5,30.15,South,171,6.1,7.8,45,0.00,,,0.00,VWS V14.01,2013-05-01 14:24:00,
2013-05-01 10:25:00,69.4,47.9,30.15,SSE,155,6.8,6.8,46,0.00,,,0.00,VWS V14.01,2013-05-01 14:25:00,
2013-05-01 10:26:00,68.8,44.8,30.15,South,170,6.3,6.8,42,0.00,,,0.00,VWS V14.01,2013-05-01 14:26:00,
2013-05-01 10:27:00,69.1,45.7,30.15,SSE,167,6.6,6.6,43,0.00,,,0.00,VWS V14.01,2013-05-01 14:27:00,
2013-05-01 10:28:00,69.1,45.2,30.15,South,171,6.3,6.6,42,0.00,,,0.00,VWS V14.01,2013-05-01 14:28:00,
2013-05-01 10:29:00,69.1,44.7,30.15,SSE,160,5.4,5.9,41,0.00,,,0.00,VWS V14.01,2013-05-01 14:29:00,
2013-05-01 10:30:00,69.3,46.2,30.15,SE,124,6.6,6.6,44,0.00,,,0.00,VWS V14.01,2013-05-01 14:30:00,
2013-05-01 10:31:00,68.9,45.8,30.15,ESE,121,5.2,6.6,43,0.00,,,0.00,VWS V14.01,2013-05-01 14:31:00,
2013-05-01 10:32:00,69.3,47.7,30.15,ESE,121,6.3,6.4,46,0.00,,,0.00,VWS V14.01,2013-05-01 14:32:00,
2013-05-01 10:33:00,69.3,46.1,30.15,ESE,109,4.5,6.3,43,0.00,,,0.00,VWS V14.01,2013-05-01 14:33:00,
2013-05-01 10:34:00,69.9,48.1,30.15,ESE,120,5.1,5.1,46,0.00,,,0.00,VWS V14.01,2013-05-01 14:34:00,
2013-05-01 10:35:00,69.7,46.7,30.15,ESE,116,5.4,5.4,44,0.00,,,0.00,VWS V14.01,2013-05-01 14:35:00,
2013-05-01 10:36:00,70.0,46.6,30.14,South,169,6.3,6.3,43,0.00,,,0.00,VWS V14.01,2013-05-01 14:36:00,
2013-05-01 10:37:00,69.6,44.5,30.15,South,179,5.6,6.3,40,0.00,,,0.00,VWS V14.01,2013-05-01 14:37:00,
2013-05-01 10:38:00,71.0,49.4,30.15,SE,130,4.7,7.1,46,0.00,,,0.00,VWS V14.01,2013-05-01 14:38:00,
2013-05-01 10:39:00,71.0,49.4,30.15,SE,130,4.7,7.1,46,0.00,,,0.00,VWS V14.01,2013-05-01 14:39:00,
2013-05-01 10:40:00,69.6,44.8,30.14,ESE,117,7.5,7.5,41,0.00,,,0.00,VWS V14.01,2013-05-01 14:40:00,
2013-05-01 10:41:00,70.8,48.5,30.14,SE,136,6.8,6.8,45,0.00,,,0.00,VWS V14.01,2013-05-01 14:41:00,
2013-05-01 10:42:00,70.6,46.0,30.14,South,176,5.9,6.8,41,0.00,,,0.00,VWS V14.01,2013-05-01 14:42:00,
2013-05-01 10:43:00,69.9,45.2,30.15,South,180,7.1,7.1,41,0.00,,,0.00,VWS V14.01,2013-05-01 14:43:00,
2013-05-01 10:44:00,69.8,44.8,30.14,South,178,8.5,8.5,41,0.00,,,0.00,VWS V14.01,2013-05-01 14:44:00,
2013-05-01 10:45:00,70.4,45.5,30.14,South,172,6.3,8.5,41,0.00,,,0.00,VWS V14.01,2013-05-01 14:45:00,
2013-05-01 10:46:00,70.4,45.5,30.14,South,172,6.3,6.3,41,0.00,,,0.00,VWS V14.01,2013-05-01 14:46:00,
2013-05-01 10:47:00,71.2,47.1,30.15,South,170,5.1,5.1,42,0.00,,,0.00,VWS V14.01,2013-05-01 14:47:00,
2013-05-01 10:48:00,70.6,44.3,30.15,South,173,6.1,7.1,39,0.00,,,0.00,VWS V14.01,2013-05-01 14:48:00,
2013-05-01 10:49:00,70.7,46.8,30.15,SSE,157,5.7,6.1,42,0.00,,,0.00,VWS V14.01,2013-05-01 14:49:00,
2013-05-01 10:50:00,71.4,46.5,30.14,SSE,151,5.4,5.6,41,0.00,,,0.00,VWS V14.01,2013-05-01 14:50:00,
2013-05-01 10:51:00,70.7,43.6,30.15,SE,139,3.5,4.9,38,0.00,,,0.00,VWS V14.01,2013-05-01 14:51:00,
2013-05-01 10:52:00,72.1,45.8,30.14,SE,133,4.0,4.9,39,0.00,,,0.00,VWS V14.01,2013-05-01 14:52:00,
2013-05-01 10:53:00,70.6,44.1,30.15,SE,141,5.6,6.9,38,0.00,,,0.00,VWS V14.01,2013-05-01 14:53:00,
2013-05-01 10:54:00,70.4,43.8,30.15,SSE,153,6.4,6.4,38,0.00,,,0.00,VWS V14.01,2013-05-01 14:54:00,
2013-05-01 10:55:00,70.7,45.0,30.14,SSE,156,6.3,6.3,40,0.00,,,0.00,VWS V14.01,2013-05-01 14:55:00,
2013-05-01 10:56:00,71.6,47.1,30.15,SSE,148,5.2,6.3,42,0.00,,,0.00,VWS V14.01,2013-05-01 14:56:00,
2013-05-01 10:57:00,71.2,46.7,30.14,SSE,152,5.6,5.6,42,0.00,,,0.00,VWS V14.01,2013-05-01 14:57:00,
2013-05-01 10:58:00,71.8,47.3,30.15,SSE,165,6.9,7.5,42,0.00,,,0.00,VWS V14.01,2013-05-01 14:58:00,
2013-05-01 10:59:00,71.7,46.9,30.14,SSE,159,6.3,7.5,41,0.00,,,0.00,VWS V14.01,2013-05-01 14:59:00,
2013-05-01 11:00:00,71.7,45.8,30.15,South,174,6.1,6.3,40,0.00,,,0.00,VWS V14.01,2013-05-01 15:00:00,
2013-05-01 11:01:00,71.9,45.6,30.15,SSE,165,5.7,6.1,39,0.00,,,0.00,VWS V14.01,2013-05-01 15:01:00,
2013-05-01 11:02:00,71.5,45.4,30.15,South,169,9.2,9.2,39,0.00,,,0.00,VWS V14.01,2013-05-01 15:02:00,
2013-05-01 11:03:00,71.3,43.8,30.15,South,172,6.6,9.2,37,0.00,,,0.00,VWS V14.01,2013-05-01 15:03:00,
2013-05-01 11:04:00,71.7,44.2,30.14,South,170,6.6,6.6,37,0.00,,,0.00,VWS V14.01,2013-05-01 15:04:00,
2013-05-01 11:05:00,72.0,44.5,30.15,SSE,162,4.0,6.6,37,0.00,,,0.00,VWS V14.01,2013-05-01 15:05:00,
2013-05-01 11:06:00,72.1,46.7,30.15,South,170,5.7,5.9,40,0.00,,,0.00,VWS V14.01,2013-05-01 15:06:00,
2013-05-01 11:07:00,71.9,45.5,30.14,South,176,6.8,6.8,39,0.00,,,0.00,VWS V14.01,2013-05-01 15:07:00,
2013-05-01 11:08:00,72.7,47.8,30.14,South,169,8.8,8.8,41,0.00,,,0.00,VWS V14.01,2013-05-01 15:08:00,
2013-05-01 11:09:00,72.1,45.8,30.14,South,173,5.9,8.8,39,0.00,,,0.00,VWS V14.01,2013-05-01 15:09:00,
2013-05-01 11:10:00,72.1,45.8,30.14,South,173,5.9,8.8,39,0.00,,,0.00,VWS V14.01,2013-05-01 15:10:00,
2013-05-01 11:11:00,71.9,44.2,30.15,South,185,5.6,7.1,37,0.00,,,0.00,VWS V14.01,2013-05-01 15:11:00,
2013-05-01 11:12:00,72.3,45.8,30.14,South,172,6.3,6.3,39,0.00,,,0.00,VWS V14.01,2013-05-01 15:12:00,
2013-05-01 11:13:00,71.6,42.2,30.15,South,181,5.1,6.3,35,0.00,,,0.00,VWS V14.01,2013-05-01 15:13:00,
2013-05-01 11:14:00,73.0,47.2,30.15,SSE,156,4.4,5.1,40,0.00,,,0.00,VWS V14.01,2013-05-01 15:14:00,
2013-05-01 11:15:00,72.6,46.3,30.17,South,179,5.7,6.9,39,0.00,,,0.00,VWS V14.01,2013-05-01 15:15:00,
2013-05-01 11:16:00,72.2,45.8,30.15,SE,142,5.9,5.9,39,0.00,,,0.00,VWS V14.01,2013-05-01 15:16:00,
2013-05-01 11:17:00,71.5,42.1,30.15,SE,145,6.8,6.8,35,0.00,,,0.00,VWS V14.01,2013-05-01 15:17:00,
2013-05-01 11:18:00,72.2,44.5,30.15,SSE,150,5.6,6.6,37,0.00,,,0.00,VWS V14.01,2013-05-01 15:18:00,
2013-05-01 11:19:00,73.3,45.0,30.15,South,173,5.4,6.1,36,0.00,,,0.00,VWS V14.01,2013-05-01 15:19:00,
2013-05-01 11:20:00,72.0,41.5,30.15,SSW,193,5.2,5.2,33,0.00,,,0.00,VWS V14.01,2013-05-01 15:20:00,
2013-05-01 11:21:00,73.6,46.5,30.15,South,185,5.7,5.7,38,0.00,,,0.00,VWS V14.01,2013-05-01 15:21:00,
2013-05-01 11:22:00,72.3,41.3,30.15,South,170,5.4,6.1,33,0.00,,,0.00,VWS V14.01,2013-05-01 15:22:00,
2013-05-01 11:23:00,73.3,44.9,30.15,South,181,5.1,5.1,36,0.00,,,0.00,VWS V14.01,2013-05-01 15:23:00,
2013-05-01 11:24:00,72.5,42.2,30.15,SSE,155,6.1,6.1,34,0.00,,,0.00,VWS V14.01,2013-05-01 15:24:00,
2013-05-01 11:25:00,72.8,45.4,30.15,SSE,150,5.6,6.1,38,0.00,,,0.00,VWS V14.01,2013-05-01 15:25:00,
2013-05-01 11:26:00,72.9,45.6,30.15,ESE,109,5.1,6.3,38,0.00,,,0.00,VWS V14.01,2013-05-01 15:26:00,
2013-05-01 11:27:00,73.2,45.6,30.15,South,181,6.3,6.3,37,0.00,,,0.00,VWS V14.01,2013-05-01 15:27:00,
2013-05-01 11:28:00,72.8,43.9,30.15,SSW,194,4.2,6.3,36,0.00,,,0.00,VWS V14.01,2013-05-01 15:28:00,
2013-05-01 11:29:00,73.0,46.7,30.15,South,170,6.3,6.3,39,0.00,,,0.00,VWS V14.01,2013-05-01 15:29:00,
2013-05-01 11:30:00,72.8,43.9,30.15,SSE,154,5.9,5.9,35,0.00,,,0.00,VWS V14.01,2013-05-01 15:30:00,
2013-05-01 11:31:00,72.9,43.4,30.15,SSE,167,6.8,6.8,35,0.00,,,0.00,VWS V14.01,2013-05-01 15:31:00,
2013-05-01 11:32:00,73.1,42.8,30.15,SSE,167,4.9,4.9,34,0.00,,,0.00,VWS V14.01,2013-05-01 15:32:00,
2013-05-01 11:33:00,72.6,44.2,30.15,SE,127,4.5,6.1,36,0.00,,,0.00,VWS V14.01,2013-05-01 15:33:00,
2013-05-01 11:34:00,73.9,48.1,30.15,ESE,121,3.5,4.5,40,0.00,,,0.00,VWS V14.01,2013-05-01 15:34:00,
2013-05-01 11:35:00,73.3,44.7,30.15,SE,138,3.2,4.7,36,0.00,,,0.00,VWS V14.01,2013-05-01 15:35:00,
2013-05-01 11:36:00,74.7,45.8,30.15,SSW,207,1.1,4.7,36,0.00,,,0.00,VWS V14.01,2013-05-01 15:36:00,
2013-05-01 11:37:00,74.4,46.9,30.16,SSE,155,6.4,6.4,38,0.00,,,0.00,VWS V14.01,2013-05-01 15:37:00,
2013-05-01 11:38:00,73.4,42.0,30.15,SSE,162,4.9,6.8,32,0.00,,,0.00,VWS V14.01,2013-05-01 15:38:00,
2013-05-01 11:39:00,73.2,42.4,30.15,SSE,158,6.6,6.6,33,0.00,,,0.00,VWS V14.01,2013-05-01 15:39:00,
2013-05-01 11:40:00,73.9,42.1,30.15,South,170,9.0,9.0,32,0.00,,,0.00,VWS V14.01,2013-05-01 15:40:00,
2013-05-01 11:41:00,72.8,42.3,30.14,South,174,7.5,9.0,33,0.00,,,0.00,VWS V14.01,2013-05-01 15:41:00,
2013-05-01 11:42:00,73.1,42.9,30.15,South,172,7.1,7.5,34,0.00,,,0.00,VWS V14.01,2013-05-01 15:42:00,
2013-05-01 11:43:00,73.3,42.9,30.16,SSE,166,6.3,6.3,34,0.00,,,0.00,VWS V14.01,2013-05-01 15:43:00,
2013-05-01 11:44:00,73.1,42.3,30.16,South,179,5.1,6.3,33,0.00,,,0.00,VWS V14.01,2013-05-01 15:44:00,
2013-05-01 11:45:00,72.7,42.0,30.15,South,188,6.8,6.8,33,0.00,,,0.00,VWS V14.01,2013-05-01 15:45:00,
2013-05-01 11:46:00,74.5,44.3,30.15,South,187,0.0,3.7,34,0.00,,,0.00,VWS V14.01,2013-05-01 15:46:00,
2013-05-01 11:47:00,74.2,45.9,30.15,SSE,166,5.4,6.1,36,0.00,,,0.00,VWS V14.01,2013-05-01 15:47:00,
2013-05-01 11:48:00,73.4,42.5,30.15,SE,124,3.9,5.4,33,0.00,,,0.00,VWS V14.01,2013-05-01 15:48:00,
2013-05-01 11:49:00,73.1,44.0,30.15,ESE,107,5.6,5.6,35,0.00,,,0.00,VWS V14.01,2013-05-01 15:49:00,
2013-05-01 11:50:00,75.4,50.5,30.15,SSE,153,4.5,4.5,42,0.00,,,0.00,VWS V14.01,2013-05-01 15:50:00,
2013-05-01 11:51:00,73.3,40.9,30.14,South,177,7.1,7.6,31,0.00,,,0.00,VWS V14.01,2013-05-01 15:51:00,
2013-05-01 11:52:00,73.2,42.3,30.14,South,178,6.6,7.1,33,0.00,,,0.00,VWS V14.01,2013-05-01 15:52:00,
2013-05-01 11:53:00,73.8,42.1,30.15,South,173,3.7,6.1,32,0.00,,,0.00,VWS V14.01,2013-05-01 15:53:00,
2013-05-01 11:54:00,74.6,46.7,30.15,SSE,168,6.1,6.6,37,0.00,,,0.00,VWS V14.01,2013-05-01 15:54:00,
2013-05-01 11:55:00,73.7,43.3,30.15,South,172,6.4,6.6,34,0.00,,,0.00,VWS V14.01,2013-05-01 15:55:00,
2013-05-01 11:56:00,73.1,40.4,30.15,South,191,4.7,6.4,31,0.00,,,0.00,VWS V14.01,2013-05-01 15:56:00,
2013-05-01 11:57:00,74.7,43.8,30.14,SSE,164,3.7,3.7,33,0.00,,,0.00,VWS V14.01,2013-05-01 15:57:00,
2013-05-01 11:58:00,73.7,41.5,30.15,SSE,163,7.3,7.3,31,0.00,,,0.00,VWS V14.01,2013-05-01 15:58:00,
2013-05-01 11:59:00,73.6,41.7,30.14,SE,140,5.4,6.6,32,0.00,,,0.00,VWS V14.01,2013-05-01 15:59:00,
2013-05-01 12:00:00,74.1,43.2,30.15,SSE,160,5.7,5.7,33,0.00,,,0.00,VWS V14.01,2013-05-01 16:00:00,
2013-05-01 12:01:00,74.0,45.2,30.15,ESE,105,5.6,5.7,36,0.00,,,0.00,VWS V14.01,2013-05-01 16:01:00,
2013-05-01 12:02:00,73.5,41.7,30.15,SE,143,5.9,5.9,32,0.00,,,0.00,VWS V14.01,2013-05-01 16:02:00,
2013-05-01 12:03:00,73.5,42.3,30.15,SE,136,6.1,6.1,33,0.00,,,0.00,VWS V14.01,2013-05-01 16:03:00,
2013-05-01 12:04:00,74.2,42.7,30.15,SSE,165,6.6,6.6,32,0.00,,,0.00,VWS V14.01,2013-05-01 16:04:00,
2013-05-01 12:05:00,74.6,44.8,30.14,South,176,4.7,6.6,35,0.00,,,0.00,VWS V14.01,2013-05-01 16:05:00,
2013-05-01 12:06:00,73.4,41.6,30.15,SE,133,6.9,7.1,32,0.00,,,0.00,VWS V14.01,2013-05-01 16:06:00,
2013-05-01 12:07:00,73.6,41.0,30.15,ESE,123,4.2,9.5,31,0.00,,,0.00,VWS V14.01,2013-05-01 16:07:00,
2013-05-01 12:08:00,74.2,43.1,30.15,SE,130,3.5,4.2,33,0.00,,,0.00,VWS V14.01,2013-05-01 16:08:00,
2013-05-01 12:09:00,75.2,45.4,30.14,ESE,110,4.2,4.2,35,0.00,,,0.00,VWS V14.01,2013-05-01 16:09:00,
2013-05-01 12:10:00,74.7,43.9,30.14,SSW,203,4.9,5.1,33,0.00,,,0.00,VWS V14.01,2013-05-01 16:10:00,
2013-05-01 12:11:00,75.4,46.8,30.14,SE,133,4.0,6.8,36,0.00,,,0.00,VWS V14.01,2013-05-01 16:11:00,
2013-05-01 12:12:00,73.6,40.0,30.14,ESE,122,6.1,6.1,30,0.00,,,0.00,VWS V14.01,2013-05-01 16:12:00,
2013-05-01 12:13:00,74.8,43.2,30.15,South,170,6.9,7.1,32,0.00,,,0.00,VWS V14.01,2013-05-01 16:13:00,
2013-05-01 12:14:00,73.9,40.2,30.15,SE,144,6.4,6.9,30,0.00,,,0.00,VWS V14.01,2013-05-01 16:14:00,
2013-05-01 12:15:00,74.9,44.1,30.15,SSE,166,6.3,6.4,33,0.00,,,0.00,VWS V14.01,2013-05-01 16:15:00,
2013-05-01 12:16:00,74.8,41.1,30.15,SSE,168,3.5,10.4,30,0.00,,,0.00,VWS V14.01,2013-05-01 16:16:00,
2013-05-01 12:17:00,74.9,42.4,30.15,South,170,5.1,5.1,31,0.00,,,0.00,VWS V14.01,2013-05-01 16:17:00,
2013-05-01 12:18:00,75.6,45.1,30.15,SSE,148,4.9,6.6,34,0.00,,,0.00,VWS V14.01,2013-05-01 16:18:00,
2013-05-01 12:19:00,74.8,45.7,30.15,ESE,114,6.3,6.3,35,0.00,,,0.00,VWS V14.01,2013-05-01 16:19:00,
2013-05-01 12:20:00,74.4,43.2,30.14,SE,145,6.4,8.3,33,0.00,,,0.00,VWS V14.01,2013-05-01 16:20:00,
2013-05-01 12:21:00,75.7,45.8,30.14,South,183,7.3,7.3,35,0.00,,,0.00,VWS V14.01,2013-05-01 16:21:00,
2013-05-01 12:22:00,75.7,45.8,30.14,South,183,7.3,7.3,35,0.00,,,0.00,VWS V14.01,2013-05-01 16:22:00,
2013-05-01 12:23:00,75.0,43.0,30.14,SSE,164,7.1,8.1,32,0.00,,,0.00,VWS V14.01,2013-05-01 16:23:00,
2013-05-01 12:24:00,75.2,41.8,30.14,SSE,168,5.7,7.1,30,0.00,,,0.00,VWS V14.01,2013-05-01 16:24:00,
2013-05-01 12:25:00,76.0,46.0,30.15,SSE,157,4.5,7.6,34,0.00,,,0.00,VWS V14.01,2013-05-01 16:25:00,
2013-05-01 12:26:00,75.3,42.7,30.15,SSE,153,4.4,5.1,31,0.00,,,0.00,VWS V14.01,2013-05-01 16:26:00,
2013-05-01 12:27:00,74.5,39.2,30.15,SSE,150,5.6,5.6,28,0.00,,,0.00,VWS V14.01,2013-05-01 16:27:00,
2013-05-01 12:28:00,75.9,43.1,30.14,SSE,150,3.9,5.6,31,0.00,,,0.00,VWS V14.01,2013-05-01 16:28:00,
2013-05-01 12:29:00,75.9,42.8,30.15,ESE,123,2.5,4.9,31,0.00,,,0.00,VWS V14.01,2013-05-01 16:29:00,
2013-05-01 12:30:00,75.2,43.2,30.14,SSE,160,7.5,7.5,32,0.00,,,0.00,VWS V14.01,2013-05-01 16:30:00,
2013-05-01 12:31:00,75.6,44.4,30.14,South,178,8.0,8.0,33,0.00,,,0.00,VWS V14.01,2013-05-01 16:31:00,
2013-05-01 12:32:00,75.2,41.8,30.14,SSE,160,5.4,8.0,30,0.00,,,0.00,VWS V14.01,2013-05-01 16:32:00,
2013-05-01 12:33:00,74.6,39.5,30.14,SSW,193,4.7,6.3,28,0.00,,,0.00,VWS V14.01,2013-05-01 16:33:00,
2013-05-01 12:34:00,74.2,38.7,30.14,South,191,5.4,5.4,28,0.00,,,0.00,VWS V14.01,2013-05-01 16:34:00,
2013-05-01 12:35:00,76.0,44.1,30.14,SE,133,5.9,5.9,32,0.00,,,0.00,VWS V14.01,2013-05-01 16:35:00,
2013-05-01 12:36:00,75.7,43.2,30.14,SE,131,5.4,5.9,31,0.00,,,0.00,VWS V14.01,2013-05-01 16:36:00,
2013-05-01 12:37:00,75.1,40.0,30.15,SSE,149,6.3,6.9,28,0.00,,,0.00,VWS V14.01,2013-05-01 16:37:00,
2013-05-01 12:38:00,74.7,39.3,30.15,SE,133,8.0,8.0,28,0.00,,,0.00,VWS V14.01,2013-05-01 16:38:00,
2013-05-01 12:39:00,75.4,42.2,30.15,SE,139,5.7,7.3,30,0.00,,,0.00,VWS V14.01,2013-05-01 16:39:00,
2013-05-01 12:40:00,75.2,40.2,30.15,SE,139,6.1,7.3,28,0.00,,,0.00,VWS V14.01,2013-05-01 16:40:00,
2013-05-01 12:41:00,75.6,40.9,30.14,SSE,155,5.1,6.1,29,0.00,,,0.00,VWS V14.01,2013-05-01 16:41:00,
2013-05-01 12:42:00,75.4,39.7,30.14,South,188,3.2,5.1,28,0.00,,,0.00,VWS V14.01,2013-05-01 16:42:00,
2013-05-01 12:43:00,75.2,37.4,30.15,SE,136,4.2,4.4,25,0.00,,,0.00,VWS V14.01,2013-05-01 16:43:00,
2013-05-01 12:44:00,74.9,39.9,30.14,SSE,149,6.3,6.3,28,0.00,,,0.00,VWS V14.01,2013-05-01 16:44:00,
2013-05-01 12:45:00,75.7,42.2,30.15,ESE,106,4.2,6.3,30,0.00,,,0.00,VWS V14.01,2013-05-01 16:45:00,
2013-05-01 12:46:00,76.2,44.0,30.15,SE,134,4.4,4.4,32,0.00,,,0.00,VWS V14.01,2013-05-01 16:46:00,
2013-05-01 12:47:00,75.8,38.3,30.15,ESE,114,3.5,4.0,26,0.00,,,0.00,VWS V14.01,2013-05-01 16:47:00,
2013-05-01 12:48:00,75.6,40.4,30.14,SSE,150,5.6,5.6,28,0.00,,,0.00,VWS V14.01,2013-05-01 16:48:00,
2013-05-01 12:49:00,75.1,38.8,30.14,SE,144,6.1,8.5,27,0.00,,,0.00,VWS V14.01,2013-05-01 16:49:00,
2013-05-01 12:50:00,74.8,39.7,30.14,ESE,118,6.8,6.8,28,0.00,,,0.00,VWS V14.01,2013-05-01 16:50:00,
2013-05-01 12:51:00,74.6,38.7,30.14,East,93,5.9,6.8,27,0.00,,,0.00,VWS V14.01,2013-05-01 16:51:00,
2013-05-01 12:52:00,74.9,38.8,30.14,ESE,106,4.5,4.5,27,0.00,,,0.00,VWS V14.01,2013-05-01 16:52:00,
2013-05-01 12:53:00,76.1,43.8,30.15,SSE,150,4.5,6.3,32,0.00,,,0.00,VWS V14.01,2013-05-01 16:53:00,
2013-05-01 12:54:00,75.2,40.7,30.15,SE,130,5.4,5.4,29,0.00,,,0.00,VWS V14.01,2013-05-01 16:54:00,
2013-05-01 12:55:00,76.7,45.9,30.14,ESE,113,2.3,5.2,34,0.00,,,0.00,VWS V14.01,2013-05-01 16:55:00,
2013-05-01 12:56:00,75.7,40.5,30.15,ESE,115,3.9,3.9,28,0.00,,,0.00,VWS V14.01,2013-05-01 16:56:00,
2013-05-01 12:57:00,76.2,42.3,30.14,South,187,4.9,5.6,30,0.00,,,0.00,VWS V14.01,2013-05-01 16:57:00,
2013-05-01 12:58:00,76.0,43.2,30.15,SSE,163,6.4,6.4,31,0.00,,,0.00,VWS V14.01,2013-05-01 16:58:00,
2013-05-01 12:59:00,76.7,45.1,30.15,SE,146,7.1,7.5,33,0.00,,,0.00,VWS V14.01,2013-05-01 16:59:00,
2013-05-01 13:00:00,75.2,38.0,30.14,SSE,154,10.2,10.2,26,0.00,,,0.00,VWS V14.01,2013-05-01 17:00:00,
2013-05-01 13:01:00,75.2,38.0,30.14,SSE,154,10.2,10.2,26,0.00,,,0.00,VWS V14.01,2013-05-01 17:01:00,
2013-05-01 13:02:00,75.2,38.0,30.14,SSE,154,10.2,10.2,26,0.00,,,0.00,VWS V14.01,2013-05-01 17:02:00,
2013-05-01 13:03:00,75.0,38.5,30.15,SE,140,6.8,10.2,27,0.00,,,0.00,VWS V14.01,2013-05-01 17:03:00,
2013-05-01 13:05:00,74.9,37.5,30.14,South,188,6.3,6.3,26,0.00,,,0.00,VWS V14.01,2013-05-01 17:05:00,
2013-05-01 13:06:00,75.8,39.9,30.15,SSW,193,4.2,6.3,27,0.00,,,0.00,VWS V14.01,2013-05-01 17:06:00,
2013-05-01 13:08:00,76.8,39.8,30.14,SSE,168,2.5,6.3,26,0.00,,,0.00,VWS V14.01,2013-05-01 17:08:00,
2013-05-01 13:09:00,77.0,39.6,30.15,SSE,168,0.0,6.3,26,0.00,,,0.00,VWS V14.01,2013-05-01 17:09:00,
2013-05-01 13:10:00,77.9,40.3,30.15,SSE,159,0.0,6.3,26,0.00,,,0.00,VWS V14.01,2013-05-01 17:10:00,
2013-05-01 13:12:00,76.8,42.6,30.14,SE,138,4.0,6.3,29,0.00,,,0.00,VWS V14.01,2013-05-01 17:12:00,
2013-05-01 13:13:00,76.2,41.8,30.14,South,172,8.1,8.1,29,0.00,,,0.00,VWS V14.01,2013-05-01 17:13:00,
2013-05-01 13:14:00,75.7,40.7,30.14,South,173,7.3,8.1,28,0.00,,,0.00,VWS V14.01,2013-05-01 17:14:00,
2013-05-01 13:15:00,77.8,43.3,30.13,South,171,3.9,8.1,29,0.00,,,0.00,VWS V14.01,2013-05-01 17:15:00,
2013-05-01 13:16:00,76.1,37.8,30.13,South,174,5.2,8.1,25,0.00,,,0.00,VWS V14.01,2013-05-01 17:16:00,
2013-05-01 13:19:00,76.6,38.8,30.14,SSE,163,4.2,8.1,26,0.00,,,0.00,VWS V14.01,2013-05-01 17:19:00,
2013-05-01 13:21:00,76.6,40.9,30.15,South,179,10.0,10.0,28,0.00,,,0.00,VWS V14.01,2013-05-01 17:21:00,
2013-05-01 13:24:00,76.5,39.0,30.13,South,170,7.6,10.0,26,0.00,,,0.00,VWS V14.01,2013-05-01 17:24:00,
2013-05-01 13:26:00,77.7,41.0,30.14,SSE,158,4.2,10.0,27,0.00,,,0.00,VWS V14.01,2013-05-01 17:26:00,
2013-05-01 13:27:00,77.4,42.0,30.14,South,169,5.4,10.0,28,0.00,,,0.00,VWS V14.01,2013-05-01 17:27:00,
2013-05-01 13:28:00,77.1,37.6,30.13,SSE,168,5.2,10.0,24,0.00,,,0.00,VWS V14.01,2013-05-01 17:28:00,
2013-05-01 13:29:00,77.0,40.0,30.14,South,180,4.5,10.0,26,0.00,,,0.00,VWS V14.01,2013-05-01 17:29:00,
2013-05-01 13:30:00,77.0,40.0,30.14,South,180,4.5,10.0,26,0.00,,,0.00,VWS V14.01,2013-05-01 17:30:00,
2013-05-01 13:32:00,76.3,36.2,30.14,SE,141,4.9,10.0,23,0.00,,,0.00,VWS V14.01,2013-05-01 17:32:00,
2013-05-01 13:33:00,77.4,42.0,30.14,SSE,166,5.4,10.0,28,0.00,,,0.00,VWS V14.01,2013-05-01 17:33:00,
2013-05-01 13:35:00,77.4,43.7,30.14,SSE,154,5.6,10.0,30,0.00,,,0.00,VWS V14.01,2013-05-01 17:35:00,
2013-05-01 13:36:00,77.0,38.6,30.14,South,171,6.1,10.0,25,0.00,,,0.00,VWS V14.01,2013-05-01 17:36:00,
2013-05-01 13:37:00,77.9,39.9,30.14,SSE,166,3.5,10.0,26,0.00,,,0.00,VWS V14.01,2013-05-01 17:37:00,
2013-05-01 13:39:00,76.9,37.4,30.14,South,178,3.7,10.0,24,0.00,,,0.00,VWS V14.01,2013-05-01 17:39:00,
2013-05-01 13:41:00,77.1,39.5,30.14,South,181,8.1,10.0,26,0.00,,,0.00,VWS V14.01,2013-05-01 17:41:00,
2013-05-01 13:42:00,76.9,38.1,30.14,SSE,147,8.8,10.0,25,0.00,,,0.00,VWS V14.01,2013-05-01 17:42:00,
2013-05-01 13:44:00,77.0,42.6,30.13,SE,128,8.0,11.6,29,0.00,,,0.00,VWS V14.01,2013-05-01 17:44:00,
2013-05-01 13:46:00,77.4,40.6,30.15,SSW,196,7.8,11.6,27,0.00,,,0.00,VWS V14.01,2013-05-01 17:46:00,
2013-05-01 13:49:00,77.8,39.3,30.14,South,178,7.1,11.6,25,0.00,,,0.00,VWS V14.01,2013-05-01 17:49:00,
2013-05-01 13:50:00,77.6,40.6,30.14,SSE,166,6.6,11.6,27,0.00,,,0.00,VWS V14.01,2013-05-01 17:50:00,
2013-05-01 13:52:00,76.6,35.8,30.13,SSE,167,6.9,11.6,23,0.00,,,0.00,VWS V14.01,2013-05-01 17:52:00,
2013-05-01 13:53:00,77.6,43.3,30.13,SSE,165,5.7,11.6,29,0.00,,,0.00,VWS V14.01,2013-05-01 17:53:00,
2013-05-01 13:54:00,77.7,41.8,30.15,SE,142,4.4,11.6,28,0.00,,,0.00,VWS V14.01,2013-05-01 17:54:00,
2013-05-01 13:56:00,77.2,37.8,30.13,SSE,156,6.3,11.6,24,0.00,,,0.00,VWS V14.01,2013-05-01 17:56:00,
2013-05-01 13:57:00,77.8,42.8,30.14,SE,143,6.3,11.6,29,0.00,,,0.00,VWS V14.01,2013-05-01 17:57:00,
2013-05-01 14:00:00,77.4,38.2,30.14,ESE,112,3.0,11.6,24,0.00,,,0.00,VWS V14.01,2013-05-01 18:00:00,
2013-05-01 14:01:00,77.9,41.5,30.14,SSE,164,8.3,8.3,27,0.00,,,0.00,VWS V14.01,2013-05-01 18:01:00,
2013-05-01 14:02:00,77.0,38.6,30.14,SSE,152,9.7,9.7,25,0.00,,,0.00,VWS V14.01,2013-05-01 18:02:00,
2013-05-01 14:03:00,76.6,34.7,30.14,SSE,153,9.0,9.7,22,0.00,,,0.00,VWS V14.01,2013-05-01 18:03:00,
2013-05-01 14:04:00,78.6,41.6,30.13,SSE,159,3.5,7.1,27,0.00,,,0.00,VWS V14.01,2013-05-01 18:04:00,
2013-05-01 14:06:00,77.2,38.2,30.14,SSW,199,4.9,6.3,25,0.00,,,0.00,VWS V14.01,2013-05-01 18:06:00,
2013-05-01 14:07:00,79.1,44.5,30.14,SW,219,3.0,6.3,29,0.00,,,0.00,VWS V14.01,2013-05-01 18:07:00,
2013-05-01 14:09:00,77.9,42.3,30.14,SE,137,6.6,7.5,28,0.00,,,0.00,VWS V14.01,2013-05-01 18:09:00,
2013-05-01 14:10:00,77.2,36.6,30.14,SE,133,4.9,7.5,23,0.00,,,0.00,VWS V14.01,2013-05-01 18:10:00,
2013-05-01 14:11:00,78.3,41.1,30.14,SE,132,4.0,7.5,27,0.00,,,0.00,VWS V14.01,2013-05-01 18:11:00,
2013-05-01 14:14:00,76.9,36.3,30.13,SSE,168,10.0,10.0,23,0.00,,,0.00,VWS V14.01,2013-05-01 18:14:00,
2013-05-01 14:16:00,78.2,42.3,30.14,South,184,6.1,10.0,28,0.00,,,0.00,VWS V14.01,2013-05-01 18:16:00,
2013-05-01 14:17:00,77.8,41.1,30.14,South,190,5.6,10.0,27,0.00,,,0.00,VWS V14.01,2013-05-01 18:17:00,
2013-05-01 14:18:00,77.5,39.8,30.14,SSE,158,8.1,10.0,26,0.00,,,0.00,VWS V14.01,2013-05-01 18:18:00,
2013-05-01 14:20:00,77.7,42.5,30.13,SSE,154,9.0,10.0,29,0.00,,,0.00,VWS V14.01,2013-05-01 18:20:00,
2013-05-01 14:23:00,78.1,46.1,30.14,SSE,167,8.0,11.6,32,0.00,,,0.00,VWS V14.01,2013-05-01 18:23:00,
2013-05-01 14:25:00,77.2,40.6,30.13,SSE,159,8.8,11.9,27,0.00,,,0.00,VWS V14.01,2013-05-01 18:25:00,
2013-05-01 14:26:00,78.2,43.2,30.13,SSE,152,5.4,11.9,29,0.00,,,0.00,VWS V14.01,2013-05-01 18:26:00,
2013-05-01 14:28:00,77.7,41.7,30.14,SE,140,6.4,11.9,28,0.00,,,0.00,VWS V14.01,2013-05-01 18:28:00,
2013-05-01 14:29:00,77.7,38.2,30.13,SSE,157,8.0,11.9,24,0.00,,,0.00,VWS V14.01,2013-05-01 18:29:00,
2013-05-01 14:30:00,77.4,39.8,30.13,SE,135,8.5,11.9,26,0.00,,,0.00,VWS V14.01,2013-05-01 18:30:00,
2013-05-01 14:31:00,78.2,42.0,30.13,SSE,168,5.7,11.9,27,0.00,,,0.00,VWS V14.01,2013-05-01 18:31:00,
2013-05-01 14:32:00,78.6,42.2,30.13,SW,216,7.8,11.9,27,0.00,,,0.00,VWS V14.01,2013-05-01 18:32:00,
2013-05-01 14:34:00,78.5,40.3,30.13,South,189,11.9,11.9,26,0.00,,,0.00,VWS V14.01,2013-05-01 18:34:00,
2013-05-01 14:35:00,77.7,38.1,30.13,South,183,11.2,11.9,24,0.00,,,0.00,VWS V14.01,2013-05-01 18:35:00,
2013-05-01 14:37:00,78.0,38.2,30.13,South,191,4.9,11.9,24,0.00,,,0.00,VWS V14.01,2013-05-01 18:37:00,
2013-05-01 14:38:00,78.6,42.4,30.13,SW,217,7.5,11.9,28,0.00,,,0.00,VWS V14.01,2013-05-01 18:38:00,
2013-05-01 14:41:00,78.5,38.2,30.13,South,170,4.9,11.9,23,0.00,,,0.00,VWS V14.01,2013-05-01 18:41:00,
2013-05-01 14:42:00,78.6,38.2,30.14,South,174,9.2,11.9,23,0.00,,,0.00,VWS V14.01,2013-05-01 18:42:00,
2013-05-01 14:43:00,77.6,38.2,30.13,SSE,153,10.2,11.9,24,0.00,,,0.00,VWS V14.01,2013-05-01 18:43:00,
2013-05-01 14:44:00,78.3,41.9,30.14,SSE,168,8.1,11.9,27,0.00,,,0.00,VWS V14.01,2013-05-01 18:44:00,
2013-05-01 14:46:00,78.8,38.0,30.14,SE,133,3.0,11.9,23,0.00,,,0.00,VWS V14.01,2013-05-01 18:46:00,
2013-05-01 14:47:00,78.6,37.4,30.14,ESE,109,2.7,11.9,23,0.00,,,0.00,VWS V14.01,2013-05-01 18:47:00,
2013-05-01 14:48:00,79.4,41.3,30.13,SE,138,5.6,11.9,26,0.00,,,0.00,VWS V14.01,2013-05-01 18:48:00,
2013-05-01 14:50:00,77.7,36.8,30.14,South,172,11.2,11.9,23,0.00,,,0.00,VWS V14.01,2013-05-01 18:50:00,
2013-05-01 14:51:00,77.9,42.2,30.13,South,186,10.0,11.9,28,0.00,,,0.00,VWS V14.01,2013-05-01 18:51:00,
2013-05-01 14:52:00,78.2,36.9,30.13,SSW,197,6.3,11.9,23,0.00,,,0.00,VWS V14.01,2013-05-01 18:52:00,
2013-05-01 14:53:00,79.1,41.9,30.13,South,181,7.1,11.9,27,0.00,,,0.00,VWS V14.01,2013-05-01 18:53:00,
2013-05-01 14:55:00,79.2,40.2,30.13,SSW,201,6.1,11.9,25,0.00,,,0.00,VWS V14.01,2013-05-01 18:55:00,
2013-05-01 14:56:00,79.6,42.2,30.14,SSW,204,10.5,11.9,26,0.00,,,0.00,VWS V14.01,2013-05-01 18:56:00,
2013-05-01 14:57:00,76.8,34.6,30.14,South,171,9.7,9.7,22,0.00,,,0.00,VWS V14.01,2013-05-01 18:57:00,
2013-05-01 14:58:00,78.6,39.0,30.14,South,188,9.9,12.8,24,0.00,,,0.00,VWS V14.01,2013-05-01 18:58:00,
2013-05-01 14:59:00,79.2,43.3,30.14,South,170,8.8,12.8,28,0.00,,,0.00,VWS V14.01,2013-05-01 18:59:00,
2013-05-01 15:00:00,78.6,41.6,30.14,SSE,159,3.5,7.1,27,0.00,,,0.00,VWS V14.01,2013-05-01 19:00:00,
2013-05-01 15:01:00,78.7,40.2,30.14,SSW,201,10.7,12.8,25,0.00,,,0.00,VWS V14.01,2013-05-01 19:01:00,
2013-05-01 15:02:00,78.1,37.1,30.14,South,176,8.8,8.8,23,0.00,,,0.00,VWS V14.01,2013-05-01 19:02:00,
2013-05-01 15:03:00,77.9,36.0,30.13,SW,216,8.5,8.5,22,0.00,,,0.00,VWS V14.01,2013-05-01 19:03:00,
2013-05-01 15:04:00,78.4,38.2,30.14,SSW,211,4.9,8.5,24,0.00,,,0.00,VWS V14.01,2013-05-01 19:04:00,
2013-05-01 15:05:00,79.9,41.2,30.14,SSW,213,2.2,4.9,25,0.00,,,0.00,VWS V14.01,2013-05-01 19:05:00,
2013-05-01 15:06:00,79.8,43.6,30.14,SSW,207,5.9,5.9,28,0.00,,,0.00,VWS V14.01,2013-05-01 19:06:00,
2013-05-01 15:07:00,78.3,38.8,30.13,SE,138,8.1,8.1,24,0.00,,,0.00,VWS V14.01,2013-05-01 19:07:00,
2013-05-01 15:08:00,78.3,39.2,30.14,ESE,111,8.7,8.7,25,0.00,,,0.00,VWS V14.01,2013-05-01 19:08:00,
2013-05-01 15:09:00,78.3,39.2,30.14,ESE,111,8.7,8.7,25,0.00,,,0.00,VWS V14.01,2013-05-01 19:09:00,
2013-05-01 15:10:00,78.5,40.7,30.13,South,172,10.9,14.1,26,0.00,,,0.00,VWS V14.01,2013-05-01 19:10:00,
2013-05-01 15:11:00,78.2,40.5,30.14,South,179,12.3,12.3,26,0.00,,,0.00,VWS V14.01,2013-05-01 19:11:00,
2013-05-01 15:12:00,77.8,39.2,30.13,SE,138,9.7,12.3,25,0.00,,,0.00,VWS V14.01,2013-05-01 19:12:00,
2013-05-01 15:13:00,78.8,44.0,30.13,SSE,161,8.5,9.7,29,0.00,,,0.00,VWS V14.01,2013-05-01 19:13:00,
2013-05-01 15:14:00,78.6,44.5,30.13,SSE,154,7.5,11.1,30,0.00,,,0.00,VWS V14.01,2013-05-01 19:14:00,
2013-05-01 15:15:00,79.3,46.5,30.13,South,177,6.3,11.1,31,0.00,,,0.00,VWS V14.01,2013-05-01 19:15:00,
2013-05-01 15:16:00,77.6,37.4,30.14,SSE,150,5.7,8.8,23,0.00,,,0.00,VWS V14.01,2013-05-01 19:16:00,
2013-05-01 15:17:00,77.6,37.4,30.14,SSE,150,5.7,8.8,23,0.00,,,0.00,VWS V14.01,2013-05-01 19:17:00,
2013-05-01 15:18:00,77.7,39.7,30.14,South,175,8.5,8.5,26,0.00,,,0.00,VWS V14.01,2013-05-01 19:18:00,
2013-05-01 15:19:00,78.0,38.4,30.13,South,178,4.7,8.5,24,0.00,,,0.00,VWS V14.01,2013-05-01 19:19:00,
2013-05-01 15:20:00,78.4,43.1,30.13,South,178,5.1,5.1,28,0.00,,,0.00,VWS V14.01,2013-05-01 19:20:00,
2013-05-01 15:21:00,78.3,39.8,30.14,SE,143,6.1,7.8,25,0.00,,,0.00,VWS V14.01,2013-05-01 19:21:00,
2013-05-01 15:22:00,78.3,39.5,30.14,East,79,5.9,6.1,25,0.00,,,0.00,VWS V14.01,2013-05-01 19:22:00,
2013-05-01 15:23:00,78.4,39.7,30.14,SE,145,5.2,5.6,25,0.00,,,0.00,VWS V14.01,2013-05-01 19:23:00,
2013-05-01 15:24:00,79.9,39.1,30.14,South,183,2.2,2.2,23,0.00,,,0.00,VWS V14.01,2013-05-01 19:24:00,
2013-05-01 15:25:00,79.1,39.2,30.13,SSE,153,8.1,8.1,24,0.00,,,0.00,VWS V14.01,2013-05-01 19:25:00,
2013-05-01 15:26:00,79.8,45.3,30.13,SSE,155,7.3,9.5,30,0.00,,,0.00,VWS V14.01,2013-05-01 19:26:00,
2013-05-01 15:27:00,79.5,45.2,30.13,SSE,159,9.3,9.3,30,0.00,,,0.00,VWS V14.01,2013-05-01 19:27:00,
2013-05-01 15:28:00,78.7,41.2,30.14,SSE,161,10.4,13.3,26,0.00,,,0.00,VWS V14.01,2013-05-01 19:28:00,
2013-05-01 15:29:00,78.4,37.3,30.14,SSE,167,8.0,10.4,23,0.00,,,0.00,VWS V14.01,2013-05-01 19:29:00,
2013-05-01 15:30:00,78.8,39.7,30.14,South,169,8.7,8.7,25,0.00,,,0.00,VWS V14.01,2013-05-01 19:30:00,
2013-05-01 15:31:00,78.7,38.4,30.14,South,176,7.3,8.5,24,0.00,,,0.00,VWS V14.01,2013-05-01 19:31:00,
2013-05-01 15:32:00,78.9,37.0,30.14,South,179,4.4,7.3,22,0.00,,,0.00,VWS V14.01,2013-05-01 19:32:00,
2013-05-01 15:33:00,79.0,38.2,30.13,SE,134,4.4,4.4,23,0.00,,,0.00,VWS V14.01,2013-05-01 19:33:00,
2013-05-01 15:34:00,78.3,37.3,30.13,SE,126,5.9,10.4,23,0.00,,,0.00,VWS V14.01,2013-05-01 19:34:00,
2013-05-01 15:35:00,79.4,42.5,30.13,SSE,159,5.2,5.9,27,0.00,,,0.00,VWS V14.01,2013-05-01 19:35:00,
2013-05-01 15:36:00,78.9,38.2,30.14,South,175,7.6,7.6,23,0.00,,,0.00,VWS V14.01,2013-05-01 19:36:00,
2013-05-01 15:37:00,79.1,38.2,30.13,SSW,194,10.0,10.0,23,0.00,,,0.00,VWS V14.01,2013-05-01 19:37:00,
2013-05-01 15:38:00,79.3,37.4,30.13,South,186,9.2,10.0,22,0.00,,,0.00,VWS V14.01,2013-05-01 19:38:00,
2013-05-01 15:39:00,78.8,38.2,30.13,South,188,9.0,9.5,23,0.00,,,0.00,VWS V14.01,2013-05-01 19:39:00,
2013-05-01 15:40:00,79.1,38.8,30.14,South,189,9.3,9.3,24,0.00,,,0.00,VWS V14.01,2013-05-01 19:40:00,
2013-05-01 15:41:00,79.1,38.8,30.14,South,189,9.3,9.3,24,0.00,,,0.00,VWS V14.01,2013-05-01 19:41:00,
2013-05-01 15:42:00,79.0,39.4,30.14,South,177,8.7,8.7,24,0.00,,,0.00,VWS V14.01,2013-05-01 19:42:00,
2013-05-01 15:43:00,80.3,45.1,30.14,SSW,195,6.8,6.8,29,0.00,,,0.00,VWS V14.01,2013-05-01 19:43:00,
2013-05-01 15:44:00,79.9,40.7,30.14,South,173,8.1,8.1,25,0.00,,,0.00,VWS V14.01,2013-05-01 19:44:00,
2013-05-01 15:45:00,79.6,43.3,30.14,SE,124,7.3,7.3,28,0.00,,,0.00,VWS V14.01,2013-05-01 19:45:00,
2013-05-01 15:46:00,79.5,41.7,30.14,South,178,8.3,8.3,26,0.00,,,0.00,VWS V14.01,2013-05-01 19:46:00,
2013-05-01 15:47:00,79.9,40.8,30.14,SE,126,4.7,8.3,25,0.00,,,0.00,VWS V14.01,2013-05-01 19:47:00,
2013-05-01 15:48:00,79.3,40.8,30.14,SSE,153,7.3,8.5,25,0.00,,,0.00,VWS V14.01,2013-05-01 19:48:00,
2013-05-01 15:49:00,79.3,42.7,30.13,South,170,5.2,7.3,27,0.00,,,0.00,VWS V14.01,2013-05-01 19:49:00,
2013-05-01 15:50:00,79.4,39.2,30.13,SSE,163,6.6,6.6,24,0.00,,,0.00,VWS V14.01,2013-05-01 19:50:00,
2013-05-01 15:51:00,79.7,43.8,30.13,South,172,8.3,9.3,28,0.00,,,0.00,VWS V14.01,2013-05-01 19:51:00,
2013-05-01 15:52:00,79.2,37.8,30.13,SSW,203,6.4,11.2,23,0.00,,,0.00,VWS V14.01,2013-05-01 19:52:00,
2013-05-01 15:53:00,79.7,41.4,30.13,SW,216,8.0,8.0,26,0.00,,,0.00,VWS V14.01,2013-05-01 19:53:00,
2013-05-01 15:54:00,79.3,40.7,30.14,SE,139,10.2,10.2,25,0.00,,,0.00,VWS V14.01,2013-05-01 19:54:00,
2013-05-01 15:55:00,79.1,38.7,30.14,SSE,149,11.4,11.4,23,0.00,,,0.00,VWS V14.01,2013-05-01 19:55:00,
2013-05-01 15:56:00,80.1,40.8,30.13,South,179,10.5,11.4,25,0.00,,,0.00,VWS V14.01,2013-05-01 19:56:00,
2013-05-01 15:57:00,78.6,37.9,30.14,South,188,12.6,12.6,23,0.00,,,0.00,VWS V14.01,2013-05-01 19:57:00,
2013-05-01 15:58:00,79.6,41.9,30.14,SSW,205,7.5,12.6,26,0.00,,,0.00,VWS V14.01,2013-05-01 19:58:00,
2013-05-01 15:59:00,79.3,41.7,30.14,SSE,151,8.8,8.8,26,0.00,,,0.00,VWS V14.01,2013-05-01 19:59:00,
2013-05-01 16:00:00,78.6,38.3,30.14,SSW,195,5.4,8.0,24,0.00,,,0.00,VWS V14.01,2013-05-01 20:00:00,
2013-05-01 16:01:00,78.7,39.7,30.14,SSW,196,7.3,11.9,25,0.00,,,0.00,VWS V14.01,2013-05-01 20:01:00,
2013-05-01 16:02:00,78.7,40.6,30.14,South,173,8.5,8.5,26,0.00,,,0.00,VWS V14.01,2013-05-01 20:02:00,
2013-05-01 16:03:00,77.7,42.5,30.14,South,171,7.3,8.5,28,0.00,,,0.00,VWS V14.01,2013-05-01 20:03:00,
2013-05-01 16:04:00,77.5,42.4,30.14,SSE,162,7.6,8.1,29,0.00,,,0.00,VWS V14.01,2013-05-01 20:04:00,
2013-05-01 16:05:00,78.1,40.9,30.14,SE,142,9.3,9.5,26,0.00,,,0.00,VWS V14.01,2013-05-01 20:05:00,
2013-05-01 16:06:00,78.6,42.1,30.14,SE,134,8.0,10.7,27,0.00,,,0.00,VWS V14.01,2013-05-01 20:06:00,
2013-05-01 16:07:00,78.4,42.7,30.14,SE,133,10.4,10.4,28,0.00,,,0.00,VWS V14.01,2013-05-01 20:07:00,
2013-05-01 16:08:00,78.2,39.0,30.13,SE,135,9.2,10.4,24,0.00,,,0.00,VWS V14.01,2013-05-01 20:08:00,
2013-05-01 16:09:00,78.4,39.1,30.13,SSE,156,8.7,9.2,24,0.00,,,0.00,VWS V14.01,2013-05-01 20:09:00,
2013-05-01 16:10:00,78.2,42.8,30.13,SE,137,8.8,8.8,28,0.00,,,0.00,VWS V14.01,2013-05-01 20:10:00,
2013-05-01 16:11:00,78.2,42.8,30.13,SE,137,8.8,8.8,28,0.00,,,0.00,VWS V14.01,2013-05-01 20:11:00,
2013-05-01 16:12:00,77.7,39.9,30.14,SSE,162,11.7,11.7,26,0.00,,,0.00,VWS V14.01,2013-05-01 20:12:00,
2013-05-01 16:13:00,77.5,40.0,30.14,SE,146,10.4,11.7,26,0.00,,,0.00,VWS V14.01,2013-05-01 20:13:00,
2013-05-01 16:14:00,77.4,39.2,30.14,SSE,157,8.7,11.6,25,0.00,,,0.00,VWS V14.01,2013-05-01 20:14:00,
2013-05-01 16:15:00,76.9,40.8,30.16,SSE,160,6.6,8.7,27,0.00,,,0.00,VWS V14.01,2013-05-01 20:15:00,
2013-05-01 16:16:00,78.6,40.8,30.14,SSE,149,8.3,10.0,26,0.00,,,0.00,VWS V14.01,2013-05-01 20:16:00,
2013-05-01 16:17:00,79.2,43.0,30.14,SSE,149,7.5,8.3,28,0.00,,,0.00,VWS V14.01,2013-05-01 20:17:00,
2013-05-01 16:18:00,79.7,44.5,30.15,South,185,6.4,7.5,29,0.00,,,0.00,VWS V14.01,2013-05-01 20:18:00,
2013-05-01 16:19:00,79.1,46.0,30.14,SSE,149,9.9,9.9,31,0.00,,,0.00,VWS V14.01,2013-05-01 20:19:00,
2013-05-01 16:20:00,77.9,40.9,30.14,South,181,9.7,9.9,27,0.00,,,0.00,VWS V14.01,2013-05-01 20:20:00,
2013-05-01 16:21:00,78.2,41.3,30.14,South,191,9.0,9.7,27,0.00,,,0.00,VWS V14.01,2013-05-01 20:21:00,
2013-05-01 16:22:00,79.2,40.5,30.14,South,180,9.7,10.9,25,0.00,,,0.00,VWS V14.01,2013-05-01 20:22:00,
2013-05-01 16:23:00,79.3,42.2,30.14,South,172,12.3,12.3,27,0.00,,,0.00,VWS V14.01,2013-05-01 20:23:00,
2013-05-01 16:24:00,79.8,41.2,30.14,SSW,199,8.1,12.3,25,0.00,,,0.00,VWS V14.01,2013-05-01 20:24:00,
2013-05-01 16:25:00,79.1,38.0,30.14,SSW,194,10.7,11.7,23,0.00,,,0.00,VWS V14.01,2013-05-01 20:25:00,
2013-05-01 16:27:00,79.5,40.1,30.13,South,176,9.7,10.7,24,0.00,,,0.00,VWS V14.01,2013-05-01 20:27:00,
2013-05-01 16:28:00,79.1,38.6,30.13,South,175,10.0,10.0,23,0.00,,,0.00,VWS V14.01,2013-05-01 20:28:00,
2013-05-01 16:29:00,79.9,42.6,30.13,South,188,8.3,10.0,27,0.00,,,0.00,VWS V14.01,2013-05-01 20:29:00,
2013-05-01 16:30:00,79.1,39.6,30.14,SSW,196,10.0,10.0,24,0.00,,,0.00,VWS V14.01,2013-05-01 20:30:00,
2013-05-01 16:31:00,80.3,44.5,30.14,South,177,6.4,9.7,28,0.00,,,0.00,VWS V14.01,2013-05-01 20:31:00,
2013-05-01 16:32:00,80.2,42.1,30.13,South,181,5.6,6.4,26,0.00,,,0.00,VWS V14.01,2013-05-01 20:32:00,
2013-05-01 16:33:00,79.5,39.7,30.13,SSE,161,8.0,8.0,24,0.00,,,0.00,VWS V14.01,2013-05-01 20:33:00,
2013-05-01 16:34:00,79.9,41.4,30.14,SSW,192,7.6,8.0,25,0.00,,,0.00,VWS V14.01,2013-05-01 20:34:00,
2013-05-01 16:35:00,79.3,37.7,30.13,SSW,194,8.0,8.0,22,0.00,,,0.00,VWS V14.01,2013-05-01 20:35:00,
2013-05-01 16:36:00,79.1,36.8,30.14,South,176,10.9,10.9,22,0.00,,,0.00,VWS V14.01,2013-05-01 20:36:00,
2013-05-01 16:37:00,80.1,39.1,30.14,SSE,155,6.1,10.9,23,0.00,,,0.00,VWS V14.01,2013-05-01 20:37:00,
2013-05-01 16:38:00,80.5,45.6,30.14,ESE,123,4.4,7.8,29,0.00,,,0.00,VWS V14.01,2013-05-01 20:38:00,
2013-05-01 16:39:00,80.1,43.7,30.14,SE,132,7.6,8.7,28,0.00,,,0.00,VWS V14.01,2013-05-01 20:39:00,
2013-05-01 16:40:00,79.7,39.2,30.14,SE,132,6.4,7.6,23,0.00,,,0.00,VWS V14.01,2013-05-01 20:40:00,
2013-05-01 16:41:00,80.3,44.2,30.13,ESE,111,7.1,7.1,28,0.00,,,0.00,VWS V14.01,2013-05-01 20:41:00,
2013-05-01 16:42:00,80.2,41.6,30.13,SSE,160,7.3,7.3,25,0.00,,,0.00,VWS V14.01,2013-05-01 20:42:00,
2013-05-01 16:43:00,80.1,40.8,30.13,South,178,10.9,11.6,25,0.00,,,0.00,VWS V14.01,2013-05-01 20:43:00,
2013-05-01 16:44:00,80.1,44.7,30.14,SSW,199,7.5,10.9,29,0.00,,,0.00,VWS V14.01,2013-05-01 20:44:00,
2013-05-01 16:45:00,80.3,43.4,30.14,SSE,162,7.3,7.3,27,0.00,,,0.00,VWS V14.01,2013-05-01 20:45:00,
2013-05-01 16:46:00,79.7,40.7,30.14,SSE,157,8.7,10.0,25,0.00,,,0.00,VWS V14.01,2013-05-01 20:46:00,
2013-05-01 16:47:00,79.5,39.7,30.15,South,172,9.3,9.3,24,0.00,,,0.00,VWS V14.01,2013-05-01 20:47:00,
2013-05-01 16:48:00,80.2,41.5,30.14,SSW,206,10.2,12.4,25,0.00,,,0.00,VWS V14.01,2013-05-01 20:48:00,
2013-05-01 16:49:00,78.9,37.3,30.14,SSW,200,11.7,11.7,22,0.00,,,0.00,VWS V14.01,2013-05-01 20:49:00,
2013-05-01 16:50:00,80.0,41.2,30.15,South,174,9.5,10.2,25,0.00,,,0.00,VWS V14.01,2013-05-01 20:50:00,
2013-05-01 16:51:00,79.6,36.8,30.14,SSW,194,7.5,9.5,21,0.00,,,0.00,VWS V14.01,2013-05-01 20:51:00,
2013-05-01 16:52:00,79.3,38.5,30.14,SSW,194,10.5,10.7,23,0.00,,,0.00,VWS V14.01,2013-05-01 20:52:00,
2013-05-01 16:53:00,79.8,40.3,30.13,South,187,9.3,10.5,24,0.00,,,0.00,VWS V14.01,2013-05-01 20:53:00,
2013-05-01 16:54:00,79.8,41.8,30.14,SW,216,11.1,11.1,26,0.00,,,0.00,VWS V14.01,2013-05-01 20:54:00,
2013-05-01 16:55:00,79.6,39.8,30.13,SSW,194,15.2,15.2,24,0.00,,,0.00,VWS V14.01,2013-05-01 20:55:00,
2013-05-01 16:56:00,79.8,38.5,30.13,SSW,194,14.8,15.2,23,0.00,,,0.00,VWS V14.01,2013-05-01 20:56:00,
2013-05-01 16:57:00,79.2,41.0,30.13,SSE,159,11.7,12.3,26,0.00,,,0.00,VWS V14.01,2013-05-01 20:57:00,
2013-05-01 16:58:00,79.4,44.2,30.14,ESE,122,7.8,11.7,29,0.00,,,0.00,VWS V14.01,2013-05-01 20:58:00,
2013-05-01 16:59:00,79.3,42.4,30.13,South,173,9.9,9.9,27,0.00,,,0.00,VWS V14.01,2013-05-01 20:59:00,
2013-05-01 17:00:00,79.3,42.4,30.13,South,173,9.9,9.9,27,0.00,,,0.00,VWS V14.01,2013-05-01 21:00:00,
2013-05-01 17:01:00,79.1,43.0,30.13,SE,141,8.8,12.8,28,0.00,,,0.00,VWS V14.01,2013-05-01 21:01:00,
2013-05-01 17:02:00,79.3,44.2,30.14,SSE,147,6.3,10.0,29,0.00,,,0.00,VWS V14.01,2013-05-01 21:02:00,
2013-05-01 17:03:00,79.4,44.1,30.14,SE,139,6.9,7.3,29,0.00,,,0.00,VWS V14.01,2013-05-01 21:03:00,
2013-05-01 17:04:00,79.8,42.1,30.14,SE,144,5.7,8.3,26,0.00,,,0.00,VWS V14.01,2013-05-01 21:04:00,
2013-05-01 17:05:00,79.7,39.4,30.14,South,177,9.0,9.0,24,0.00,,,0.00,VWS V14.01,2013-05-01 21:05:00,
2013-05-01 17:06:00,79.5,38.1,30.14,South,179,8.7,9.0,23,0.00,,,0.00,VWS V14.01,2013-05-01 21:06:00,
2013-05-01 17:07:00,80.5,43.6,30.14,SW,219,7.1,8.7,27,0.00,,,0.00,VWS V14.01,2013-05-01 21:07:00,
2013-05-01 17:08:00,80.0,32.3,30.13,South,179,12.9,12.9,18,0.00,,,0.00,VWS V14.01,2013-05-01 21:08:00,
2013-05-01 17:09:00,79.8,41.7,30.14,South,180,10.9,12.9,26,0.00,,,0.00,VWS V14.01,2013-05-01 21:09:00,
2013-05-01 17:10:00,79.3,39.1,30.13,SSE,166,9.7,11.9,24,0.00,,,0.00,VWS V14.01,2013-05-01 21:10:00,
2013-05-01 17:11:00,79.0,38.0,30.14,SSE,147,9.9,12.1,23,0.00,,,0.00,VWS V14.01,2013-05-01 21:11:00,
2013-05-01 17:12:00,79.1,40.1,30.13,SSE,149,9.2,9.9,25,0.00,,,0.00,VWS V14.01,2013-05-01 21:12:00,
2013-05-01 17:13:00,79.4,41.3,30.13,South,180,9.7,9.7,26,0.00,,,0.00,VWS V14.01,2013-05-01 21:13:00,
2013-05-01 17:14:00,79.3,41.2,30.14,South,170,8.5,9.0,26,0.00,,,0.00,VWS V14.01,2013-05-01 21:14:00,
2013-05-01 17:15:00,79.9,41.1,30.13,South,188,9.2,9.2,25,0.00,,,0.00,VWS V14.01,2013-05-01 21:15:00,
2013-05-01 17:16:00,80.2,43.2,30.13,South,181,8.1,10.0,27,0.00,,,0.00,VWS V14.01,2013-05-01 21:16:00,
2013-05-01 17:17:00,79.1,37.1,30.14,SSW,198,10.2,12.1,22,0.00,,,0.00,VWS V14.01,2013-05-01 21:17:00,
2013-05-01 17:18:00,79.6,37.7,30.13,SSW,205,9.3,10.2,22,0.00,,,0.00,VWS V14.01,2013-05-01 21:18:00,
2013-05-01 17:19:00,79.6,38.1,30.13,SSW,194,9.2,9.3,23,0.00,,,0.00,VWS V14.01,2013-05-01 21:19:00,
2013-05-01 17:20:00,79.8,40.1,30.13,SSW,200,12.3,12.3,24,0.00,,,0.00,VWS V14.01,2013-05-01 21:20:00,
2013-05-01 17:21:00,79.1,39.3,30.14,SSW,192,8.0,11.9,24,0.00,,,0.00,VWS V14.01,2013-05-01 21:21:00,
2013-05-01 17:22:00,79.3,39.3,30.14,South,169,11.6,11.6,24,0.00,,,0.00,VWS V14.01,2013-05-01 21:22:00,
2013-05-01 17:23:00,79.0,39.4,30.15,South,173,11.9,11.9,24,0.00,,,0.00,VWS V14.01,2013-05-01 21:23:00,
2013-05-01 17:24:00,79.1,39.6,30.14,SSE,162,10.7,11.9,24,0.00,,,0.00,VWS V14.01,2013-05-01 21:24:00,
2013-05-01 17:25:00,79.4,39.0,30.14,South,176,7.6,10.7,23,0.00,,,0.00,VWS V14.01,2013-05-01 21:25:00,
2013-05-01 17:26:00,79.7,40.6,30.14,SSW,194,6.8,7.6,25,0.00,,,0.00,VWS V14.01,2013-05-01 21:26:00,
2013-05-01 17:27:00,79.8,42.6,30.14,SSW,196,8.0,8.0,27,0.00,,,0.00,VWS V14.01,2013-05-01 21:27:00,
2013-05-01 17:28:00,79.6,38.7,30.14,South,183,11.7,11.7,23,0.00,,,0.00,VWS V14.01,2013-05-01 21:28:00,
2013-05-01 17:29:00,79.5,38.2,30.14,SSW,194,10.7,11.7,23,0.00,,,0.00,VWS V14.01,2013-05-01 21:29:00,
2013-05-01 17:30:00,79.1,40.6,30.14,South,182,12.3,12.3,25,0.00,,,0.00,VWS V14.01,2013-05-01 21:30:00,
2013-05-01 17:31:00,79.2,38.9,30.14,South,173,10.4,12.4,24,0.00,,,0.00,VWS V14.01,2013-05-01 21:31:00,
2013-05-01 17:32:00,79.1,38.5,30.14,South,186,14.0,14.0,23,0.00,,,0.00,VWS V14.01,2013-05-01 21:32:00,
2013-05-01 17:33:00,79.3,38.3,30.14,SSW,197,12.6,14.0,23,0.00,,,0.00,VWS V14.01,2013-05-01 21:33:00,
2013-05-01 17:34:00,79.7,40.9,30.14,South,188,9.2,12.6,25,0.00,,,0.00,VWS V14.01,2013-05-01 21:34:00,
2013-05-01 17:35:00,79.4,40.3,30.14,South,187,10.4,10.4,25,0.00,,,0.00,VWS V14.01,2013-05-01 21:35:00,
2013-05-01 17:36:00,79.4,40.1,30.14,South,175,6.9,10.4,25,0.00,,,0.00,VWS V14.01,2013-05-01 21:36:00,
2013-05-01 17:37:00,79.2,40.3,30.14,South,173,7.6,7.6,25,0.00,,,0.00,VWS V14.01,2013-05-01 21:37:00,
2013-05-01 17:38:00,79.9,40.1,30.14,South,191,6.6,7.6,24,0.00,,,0.00,VWS V14.01,2013-05-01 21:38:00,
2013-05-01 17:39:00,79.2,40.8,30.14,SSE,159,10.9,10.9,25,0.00,,,0.00,VWS V14.01,2013-05-01 21:39:00,
2013-05-01 17:40:00,78.9,40.0,30.14,South,176,9.5,10.9,25,0.00,,,0.00,VWS V14.01,2013-05-01 21:40:00,
2013-05-01 17:41:00,78.8,42.8,30.14,SSE,167,5.7,12.1,28,0.00,,,0.00,VWS V14.01,2013-05-01 21:41:00,
2013-05-01 17:42:00,79.2,38.7,30.14,South,188,9.7,9.7,23,0.00,,,0.00,VWS V14.01,2013-05-01 21:42:00,
2013-05-01 17:43:00,79.3,39.4,30.14,South,182,6.9,9.7,24,0.00,,,0.00,VWS V14.01,2013-05-01 21:43:00,
2013-05-01 17:44:00,79.4,34.8,30.14,SSW,194,8.7,8.7,20,0.00,,,0.00,VWS V14.01,2013-05-01 21:44:00,
2013-05-01 17:45:00,79.1,43.0,30.14,SSE,155,8.0,8.0,28,0.00,,,0.00,VWS V14.01,2013-05-01 21:45:00,
2013-05-01 17:46:00,78.8,41.4,30.14,SE,131,10.2,10.2,26,0.00,,,0.00,VWS V14.01,2013-05-01 21:46:00,
2013-05-01 17:47:00,79.2,42.5,30.14,South,177,6.6,10.2,27,0.00,,,0.00,VWS V14.01,2013-05-01 21:47:00,
2013-05-01 17:48:00,79.2,42.9,30.15,SSE,159,6.1,6.6,27,0.00,,,0.00,VWS V14.01,2013-05-01 21:48:00,
2013-05-01 17:49:00,79.4,41.0,30.16,SSE,151,7.3,7.3,26,0.00,,,0.00,VWS V14.01,2013-05-01 21:49:00,
2013-05-01 17:50:00,79.0,38.9,30.15,SSE,163,9.7,10.5,24,0.00,,,0.00,VWS V14.01,2013-05-01 21:50:00,
2013-05-01 17:51:00,78.6,40.8,30.14,SSE,157,8.8,9.7,26,0.00,,,0.00,VWS V14.01,2013-05-01 21:51:00,
2013-05-01 17:52:00,78.5,40.6,30.14,SSE,166,9.3,9.3,26,0.00,,,0.00,VWS V14.01,2013-05-01 21:52:00,
2013-05-01 17:53:00,79.1,37.5,30.13,SSE,159,12.3,12.3,22,0.00,,,0.00,VWS V14.01,2013-05-01 21:53:00,
2013-05-01 17:54:00,79.1,37.5,30.13,SSE,159,12.3,12.3,22,0.00,,,0.00,VWS V14.01,2013-05-01 21:54:00,
2013-05-01 17:55:00,79.1,37.8,30.14,South,173,8.0,9.2,23,0.00,,,0.00,VWS V14.01,2013-05-01 21:55:00,
2013-05-01 17:56:00,78.9,39.3,30.15,SSE,157,8.0,8.0,24,0.00,,,0.00,VWS V14.01,2013-05-01 21:56:00,
2013-05-01 17:57:00,78.8,41.8,30.15,SSE,156,8.3,8.3,27,0.00,,,0.00,VWS V14.01,2013-05-01 21:57:00,
2013-05-01 17:58:00,78.8,41.4,30.14,South,169,8.7,8.7,26,0.00,,,0.00,VWS V14.01,2013-05-01 21:58:00,
2013-05-01 17:59:00,78.5,40.8,30.15,SSE,150,10.2,10.4,26,0.00,,,0.00,VWS V14.01,2013-05-01 21:59:00,
2013-05-01 18:00:00,78.8,38.8,30.14,South,170,9.3,10.2,24,0.00,,,0.00,VWS V14.01,2013-05-01 22:00:00,
2013-05-01 18:01:00,78.3,42.1,30.14,South,176,6.8,9.3,28,0.00,,,0.00,VWS V14.01,2013-05-01 22:01:00,
2013-05-01 18:02:00,78.1,40.5,30.14,South,174,7.8,7.8,26,0.00,,,0.00,VWS V14.01,2013-05-01 22:02:00,
2013-05-01 18:03:00,78.8,42.6,30.15,SSE,166,7.6,7.6,28,0.00,,,0.00,VWS V14.01,2013-05-01 22:03:00,
2013-05-01 18:04:00,78.9,39.0,30.15,South,185,9.3,9.3,24,0.00,,,0.00,VWS V14.01,2013-05-01 22:04:00,
2013-05-01 18:05:00,78.6,38.6,30.15,SSE,164,8.0,8.8,24,0.00,,,0.00,VWS V14.01,2013-05-01 22:05:00,
2013-05-01 18:06:00,78.4,41.2,30.15,SSE,168,8.7,11.6,27,0.00,,,0.00,VWS V14.01,2013-05-01 22:06:00,
2013-05-01 18:07:00,78.7,40.3,30.15,SSW,192,8.5,10.0,25,0.00,,,0.00,VWS V14.01,2013-05-01 22:07:00,
2013-05-01 18:08:00,78.7,41.3,30.15,SSW,193,8.5,10.0,26,0.00,,,0.00,VWS V14.01,2013-05-01 22:08:00,
2013-05-01 18:09:00,78.6,40.7,30.14,SSE,167,9.2,9.2,26,0.00,,,0.00,VWS V14.01,2013-05-01 22:09:00,
2013-05-01 18:10:00,78.3,41.8,30.14,SSE,153,6.4,9.2,27,0.00,,,0.00,VWS V14.01,2013-05-01 22:10:00,
2013-05-01 18:11:00,78.6,41.7,30.14,SE,143,7.5,7.5,27,0.00,,,0.00,VWS V14.01,2013-05-01 22:11:00,
2013-05-01 18:12:00,78.7,40.8,30.15,SSE,148,9.7,9.7,26,0.00,,,0.00,VWS V14.01,2013-05-01 22:12:00,
2013-05-01 18:13:00,78.6,41.9,30.14,SSE,152,9.7,10.0,27,0.00,,,0.00,VWS V14.01,2013-05-01 22:13:00,
2013-05-01 18:14:00,78.1,41.8,30.14,SE,139,9.3,10.9,27,0.00,,,0.00,VWS V14.01,2013-05-01 22:14:00,
2013-05-01 18:15:00,78.6,39.4,30.15,SE,140,11.2,12.8,25,0.00,,,0.00,VWS V14.01,2013-05-01 22:15:00,
2013-05-01 18:16:00,78.4,40.1,30.14,SE,133,8.3,11.2,25,0.00,,,0.00,VWS V14.01,2013-05-01 22:16:00,
2013-05-01 18:17:00,78.1,40.2,30.15,ESE,109,7.3,8.3,26,0.00,,,0.00,VWS V14.01,2013-05-01 22:17:00,
2013-05-01 18:18:00,78.5,40.0,30.14,SE,143,9.2,9.5,25,0.00,,,0.00,VWS V14.01,2013-05-01 22:18:00,
2013-05-01 18:19:00,78.1,42.6,30.14,South,173,6.8,9.2,28,0.00,,,0.00,VWS V14.01,2013-05-01 22:19:00,
2013-05-01 18:20:00,79.0,39.4,30.14,SE,142,10.2,10.2,24,0.00,,,0.00,VWS V14.01,2013-05-01 22:20:00,
2013-05-01 18:21:00,78.7,41.0,30.14,South,184,10.0,10.2,26,0.00,,,0.00,VWS V14.01,2013-05-01 22:21:00,
2013-05-01 18:22:00,78.5,41.2,30.14,SE,140,10.4,11.4,26,0.00,,,0.00,VWS V14.01,2013-05-01 22:22:00,
2013-05-01 18:23:00,78.7,39.2,30.16,SSE,165,10.7,10.7,24,0.00,,,0.00,VWS V14.01,2013-05-01 22:23:00,
2013-05-01 18:24:00,78.6,39.3,30.14,SE,145,11.6,11.6,24,0.00,,,0.00,VWS V14.01,2013-05-01 22:24:00,
2013-05-01 18:25:00,78.6,39.3,30.14,SE,145,11.6,11.6,24,0.00,,,0.00,VWS V14.01,2013-05-01 22:25:00,
2013-05-01 18:26:00,78.6,38.2,30.14,SSE,159,9.7,10.0,23,0.00,,,0.00,VWS V14.01,2013-05-01 22:26:00,
2013-05-01 18:27:00,79.1,40.3,30.14,South,172,8.8,12.1,25,0.00,,,0.00,VWS V14.01,2013-05-01 22:27:00,
2013-05-01 18:28:00,79.2,39.8,30.15,SSE,149,10.7,10.7,24,0.00,,,0.00,VWS V14.01,2013-05-01 22:28:00,
2013-05-01 18:29:00,79.2,40.2,30.14,SSE,166,10.5,10.9,25,0.00,,,0.00,VWS V14.01,2013-05-01 22:29:00,
2013-05-01 18:30:00,79.0,41.3,30.14,SSE,154,11.7,11.7,26,0.00,,,0.00,VWS V14.01,2013-05-01 22:30:00,
2013-05-01 18:31:00,78.6,42.1,30.14,South,176,10.0,11.7,27,0.00,,,0.00,VWS V14.01,2013-05-01 22:31:00,
2013-05-01 18:32:00,79.0,43.7,30.14,South,172,7.8,11.7,29,0.00,,,0.00,VWS V14.01,2013-05-01 22:32:00,
2013-05-01 18:33:00,79.4,42.1,30.14,South,176,6.9,9.2,26,0.00,,,0.00,VWS V14.01,2013-05-01 22:33:00,
2013-05-01 18:34:00,79.9,40.0,30.14,South,173,8.7,9.2,24,0.00,,,0.00,VWS V14.01,2013-05-01 22:34:00,
2013-05-01 18:35:00,79.7,42.3,30.14,South,179,6.3,8.7,26,0.00,,,0.00,VWS V14.01,2013-05-01 22:35:00,
2013-05-01 18:36:00,79.3,40.4,30.14,SSE,165,10.0,10.0,25,0.00,,,0.00,VWS V14.01,2013-05-01 22:36:00,
2013-05-01 18:37:00,79.4,41.7,30.15,South,175,9.0,10.0,26,0.00,,,0.00,VWS V14.01,2013-05-01 22:37:00,
2013-05-01 18:38:00,79.4,41.7,30.15,South,177,9.2,9.2,26,0.00,,,0.00,VWS V14.01,2013-05-01 22:38:00,
2013-05-01 18:39:00,79.7,44.0,30.14,South,174,4.7,4.7,28,0.00,,,0.00,VWS V14.01,2013-05-01 22:39:00,
2013-05-01 18:40:00,79.5,43.2,30.14,South,169,6.1,6.1,28,0.00,,,0.00,VWS V14.01,2013-05-01 22:40:00,
2013-05-01 18:41:00,79.8,44.0,30.14,SSE,166,5.1,6.6,28,0.00,,,0.00,VWS V14.01,2013-05-01 22:41:00,
2013-05-01 18:42:00,79.7,41.1,30.14,South,170,8.8,8.8,25,0.00,,,0.00,VWS V14.01,2013-05-01 22:42:00,
2013-05-01 18:43:00,79.7,40.8,30.14,South,174,8.0,8.8,25,0.00,,,0.00,VWS V14.01,2013-05-01 22:43:00,
2013-05-01 18:44:00,79.5,41.8,30.15,SSE,148,6.1,8.5,26,0.00,,,0.00,VWS V14.01,2013-05-01 22:44:00,
2013-05-01 18:45:00,78.9,43.0,30.14,SE,132,5.7,5.9,28,0.00,,,0.00,VWS V14.01,2013-05-01 22:45:00,
2013-05-01 18:46:00,79.1,43.8,30.14,SE,135,5.4,5.9,29,0.00,,,0.00,VWS V14.01,2013-05-01 22:46:00,
2013-05-01 18:48:00,79.3,42.0,30.14,SSE,163,9.2,9.2,27,0.00,,,0.00,VWS V14.01,2013-05-01 22:48:00,
2013-05-01 18:49:00,79.1,41.7,30.14,SSE,162,7.6,9.5,26,0.00,,,0.00,VWS V14.01,2013-05-01 22:49:00,
2013-05-01 18:50:00,79.2,42.7,30.14,South,173,7.3,9.5,27,0.00,,,0.00,VWS V14.01,2013-05-01 22:50:00,
2013-05-01 18:51:00,79.4,42.3,30.15,South,180,6.8,7.3,27,0.00,,,0.00,VWS V14.01,2013-05-01 22:51:00,
2013-05-01 18:52:00,79.0,42.9,30.14,South,178,7.3,7.3,28,0.00,,,0.00,VWS V14.01,2013-05-01 22:52:00,
2013-05-01 18:53:00,79.5,41.5,30.14,South,171,8.5,8.5,26,0.00,,,0.00,VWS V14.01,2013-05-01 22:53:00,
2013-05-01 18:54:00,79.1,41.4,30.14,South,184,7.8,7.8,26,0.00,,,0.00,VWS V14.01,2013-05-01 22:54:00,
2013-05-01 18:55:00,79.1,43.4,30.14,South,170,5.1,7.8,28,0.00,,,0.00,VWS V14.01,2013-05-01 22:55:00,
2013-05-01 18:56:00,79.1,43.9,30.14,SSE,157,5.2,7.3,29,0.00,,,0.00,VWS V14.01,2013-05-01 22:56:00,
2013-05-01 18:57:00,79.3,42.8,30.14,SSE,167,7.1,7.1,27,0.00,,,0.00,VWS V14.01,2013-05-01 22:57:00,
2013-05-01 18:58:00,79.1,43.0,30.14,SSE,155,7.3,7.3,28,0.00,,,0.00,VWS V14.01,2013-05-01 22:58:00,
2013-05-01 18:59:00,79.9,41.8,30.14,SSE,159,5.9,7.3,26,0.00,,,0.00,VWS V14.01,2013-05-01 22:59:00,
2013-05-01 19:00:00,78.4,43.5,30.14,SSE,155,6.1,6.1,29,0.00,,,0.00,VWS V14.01,2013-05-01 23:00:00,
2013-05-01 19:01:00,78.8,40.9,30.14,South,171,8.8,8.8,26,0.00,,,0.00,VWS V14.01,2013-05-01 23:01:00,
2013-05-01 19:02:00,78.8,40.9,30.14,South,171,8.8,8.8,26,0.00,,,0.00,VWS V14.01,2013-05-01 23:02:00,
2013-05-01 19:03:00,78.9,40.8,30.14,SSE,166,8.7,8.7,26,0.00,,,0.00,VWS V14.01,2013-05-01 23:03:00,
2013-05-01 19:04:00,78.8,40.9,30.14,South,171,8.8,8.8,26,0.00,,,0.00,VWS V14.01,2013-05-01 23:04:00,
2013-05-01 19:05:00,78.4,41.2,30.13,SSE,155,9.0,9.0,26,0.00,,,0.00,VWS V14.01,2013-05-01 23:05:00,
2013-05-01 19:06:00,78.7,41.3,30.14,SSE,149,6.4,7.8,26,0.00,,,0.00,VWS V14.01,2013-05-01 23:06:00,
2013-05-01 19:07:00,78.3,40.6,30.14,SSE,165,6.1,6.1,26,0.00,,,0.00,VWS V14.01,2013-05-01 23:07:00,
2013-05-01 19:08:00,78.4,43.3,30.14,South,173,5.9,6.1,29,0.00,,,0.00,VWS V14.01,2013-05-01 23:08:00,
2013-05-01 19:09:00,78.2,44.3,30.14,South,173,5.4,5.9,30,0.00,,,0.00,VWS V14.01,2013-05-01 23:09:00,
2013-05-01 19:10:00,78.3,42.5,30.15,SSE,155,5.4,6.6,28,0.00,,,0.00,VWS V14.01,2013-05-01 23:10:00,
2013-05-01 19:11:00,78.8,40.8,30.14,SSE,163,8.3,8.3,26,0.00,,,0.00,VWS V14.01,2013-05-01 23:11:00,
2013-05-01 19:12:00,78.8,40.3,30.14,SSE,154,11.7,11.7,25,0.00,,,0.00,VWS V14.01,2013-05-01 23:12:00,
2013-05-01 19:13:00,79.2,39.6,30.14,South,180,10.4,11.7,24,0.00,,,0.00,VWS V14.01,2013-05-01 23:13:00,
2013-05-01 19:14:00,78.7,40.5,30.14,SSE,164,7.6,10.4,26,0.00,,,0.00,VWS V14.01,2013-05-01 23:14:00,
2013-05-01 19:15:00,78.2,40.9,30.14,SSE,160,10.2,10.2,26,0.00,,,0.00,VWS V14.01,2013-05-01 23:15:00,
2013-05-01 19:16:00,78.1,41.0,30.14,SSE,156,9.9,10.2,27,0.00,,,0.00,VWS V14.01,2013-05-01 23:16:00,
2013-05-01 19:17:00,77.4,42.7,30.14,SSE,162,6.9,9.9,29,0.00,,,0.00,VWS V14.01,2013-05-01 23:17:00,
2013-05-01 19:18:00,77.3,42.8,30.14,SSE,153,7.1,7.1,29,0.00,,,0.00,VWS V14.01,2013-05-01 23:18:00,
2013-05-01 19:19:00,77.2,42.5,30.14,SSE,165,7.6,8.0,29,0.00,,,0.00,VWS V14.01,2013-05-01 23:19:00,
2013-05-01 19:20:00,77.2,42.5,30.14,SSE,165,7.6,7.6,29,0.00,,,0.00,VWS V14.01,2013-05-01 23:20:00,
2013-05-01 19:21:00,77.2,42.7,30.14,SSE,160,7.1,7.8,29,0.00,,,0.00,VWS V14.01,2013-05-01 23:21:00,
2013-05-01 19:22:00,77.2,41.8,30.13,SE,137,8.7,9.0,28,0.00,,,0.00,VWS V14.01,2013-05-01 23:22:00,
2013-05-01 19:23:00,78.1,40.1,30.14,SE,132,9.7,9.7,26,0.00,,,0.00,VWS V14.01,2013-05-01 23:23:00,
2013-05-01 19:24:00,77.6,41.0,30.14,SSE,168,8.3,9.7,27,0.00,,,0.00,VWS V14.01,2013-05-01 23:24:00,
2013-05-01 19:25:00,77.9,41.2,30.13,SSE,161,8.8,8.8,27,0.00,,,0.00,VWS V14.01,2013-05-01 23:25:00,
2013-05-01 19:26:00,77.5,42.6,30.13,SSE,165,4.9,6.4,29,0.00,,,0.00,VWS V14.01,2013-05-01 23:26:00,
2013-05-01 19:27:00,78.1,41.4,30.13,SSE,153,7.8,7.8,27,0.00,,,0.00,VWS V14.01,2013-05-01 23:27:00,
2013-05-01 19:28:00,77.8,41.5,30.13,SSE,166,7.3,7.8,27,0.00,,,0.00,VWS V14.01,2013-05-01 23:28:00,
2013-05-01 19:29:00,77.9,41.8,30.13,SSE,168,6.9,7.3,28,0.00,,,0.00,VWS V14.01,2013-05-01 23:29:00,
2013-05-01 19:30:00,77.2,42.5,30.14,SSE,163,5.9,6.9,29,0.00,,,0.00,VWS V14.01,2013-05-01 23:30:00,
2013-05-01 19:31:00,76.8,43.5,30.16,South,175,5.4,5.9,31,0.00,,,0.00,VWS V14.01,2013-05-01 23:31:00,
2013-05-01 19:32:00,77.3,42.8,30.14,SSE,154,5.7,5.7,29,0.00,,,0.00,VWS V14.01,2013-05-01 23:32:00,
2013-05-01 19:33:00,77.3,43.1,30.15,SSE,164,5.7,5.7,30,0.00,,,0.00,VWS V14.01,2013-05-01 23:33:00,
2013-05-01 19:34:00,76.8,43.2,30.14,SSE,161,5.9,6.4,30,0.00,,,0.00,VWS V14.01,2013-05-01 23:34:00,
2013-05-01 19:35:00,77.1,43.3,30.14,SSE,163,5.4,5.4,30,0.00,,,0.00,VWS V14.01,2013-05-01 23:35:00,
2013-05-01 19:36:00,77.1,43.3,30.14,SSE,163,5.4,5.4,30,0.00,,,0.00,VWS V14.01,2013-05-01 23:36:00,
2013-05-01 19:37:00,76.7,43.5,30.14,SSE,165,4.9,5.2,31,0.00,,,0.00,VWS V14.01,2013-05-01 23:37:00,
2013-05-01 19:38:00,76.8,43.2,30.15,SE,141,4.2,5.4,30,0.00,,,0.00,VWS V14.01,2013-05-01 23:38:00,
2013-05-01 19:39:00,76.8,43.8,30.14,SE,141,4.0,4.2,31,0.00,,,0.00,VWS V14.01,2013-05-01 23:39:00,
2013-05-01 19:40:00,77.0,41.5,30.14,SSE,147,5.6,5.9,28,0.00,,,0.00,VWS V14.01,2013-05-01 23:40:00,
2013-05-01 19:41:00,76.6,42.4,30.13,SE,138,4.9,5.6,29,0.00,,,0.00,VWS V14.01,2013-05-01 23:41:00,
2013-05-01 19:42:00,77.2,42.3,30.14,SE,138,6.6,6.6,29,0.00,,,0.00,VWS V14.01,2013-05-01 23:42:00,
2013-05-01 19:43:00,76.8,41.7,30.14,SE,127,6.6,6.6,29,0.00,,,0.00,VWS V14.01,2013-05-01 23:43:00,
2013-05-01 19:44:00,76.5,41.8,30.14,SE,145,6.6,6.6,29,0.00,,,0.00,VWS V14.01,2013-05-01 23:44:00,
2013-05-01 19:45:00,76.4,42.4,30.14,SE,131,4.5,6.6,30,0.00,,,0.00,VWS V14.01,2013-05-01 23:45:00,
2013-05-01 19:46:00,75.6,42.2,30.14,SE,126,5.2,5.2,30,0.00,,,0.00,VWS V14.01,2013-05-01 23:46:00,
2013-05-01 19:47:00,76.8,42.6,30.14,SE,131,4.9,5.2,29,0.00,,,0.00,VWS V14.01,2013-05-01 23:47:00,
2013-05-01 19:48:00,76.8,42.6,30.14,SE,131,4.9,5.2,29,0.00,,,0.00,VWS V14.01,2013-05-01 23:48:00,
2013-05-01 19:49:00,76.4,42.5,30.14,SE,144,6.1,6.1,30,0.00,,,0.00,VWS V14.01,2013-05-01 23:49:00,
2013-05-01 19:50:00,76.8,42.0,30.15,SSE,153,7.8,7.8,29,0.00,,,0.00,VWS V14.01,2013-05-01 23:50:00,
2013-05-01 19:51:00,76.1,42.1,30.15,SSE,153,6.6,7.8,30,0.00,,,0.00,VWS V14.01,2013-05-01 23:51:00,
2013-05-01 19:52:00,76.3,42.2,30.15,SSE,148,5.9,6.6,29,0.00,,,0.00,VWS V14.01,2013-05-01 23:52:00,
2013-05-01 19:53:00,77.0,42.0,30.14,SSE,148,6.8,6.8,29,0.00,,,0.00,VWS V14.01,2013-05-01 23:53:00,
2013-05-01 19:54:00,75.9,42.3,30.14,SE,146,5.2,6.8,30,0.00,,,0.00,VWS V14.01,2013-05-01 23:54:00,
2013-05-01 19:55:00,76.4,42.8,30.14,SE,144,4.9,5.2,30,0.00,,,0.00,VWS V14.01,2013-05-01 23:55:00,
2013-05-01 19:56:00,76.1,42.2,30.14,SE,142,5.1,5.7,30,0.00,,,0.00,VWS V14.01,2013-05-01 23:56:00,
2013-05-01 19:57:00,76.3,41.8,30.14,SE,140,5.4,5.4,29,0.00,,,0.00,VWS V14.01,2013-05-01 23:57:00,
2013-05-01 19:58:00,75.7,41.8,30.14,SE,145,5.7,5.7,30,0.00,,,0.00,VWS V14.01,2013-05-01 23:58:00,
2013-05-01 19:59:00,75.7,41.8,30.14,SE,145,5.7,5.7,30,0.00,,,0.00,VWS V14.01,2013-05-01 23:59:00,
2013-05-01 20:00:00,75.1,42.2,30.14,SE,145,4.9,5.4,31,0.00,,,0.00,VWS V14.01,2013-05-02 00:00:00,
2013-05-01 20:01:00,74.8,42.5,30.14,SSE,157,5.1,5.1,31,0.00,,,0.00,VWS V14.01,2013-05-02 00:01:00,
2013-05-01 20:03:00,75.0,42.8,30.15,SE,145,4.4,5.1,32,0.00,,,0.00,VWS V14.01,2013-05-02 00:03:00,
2013-05-01 20:04:00,75.3,42.8,30.14,SSE,147,5.1,5.1,31,0.00,,,0.00,VWS V14.01,2013-05-02 00:04:00,
2013-05-01 20:05:00,75.5,42.3,30.14,SSE,147,5.2,5.2,30,0.00,,,0.00,VWS V14.01,2013-05-02 00:05:00,
2013-05-01 20:06:00,74.7,42.3,30.14,SSE,150,4.4,4.9,31,0.00,,,0.00,VWS V14.01,2013-05-02 00:06:00,
2013-05-01 20:07:00,74.9,42.6,30.16,SE,141,4.5,4.5,31,0.00,,,0.00,VWS V14.01,2013-05-02 00:07:00,
2013-05-01 20:08:00,75.6,42.4,30.15,SE,144,4.5,5.1,30,0.00,,,0.00,VWS V14.01,2013-05-02 00:08:00,
2013-05-01 20:09:00,75.6,42.1,30.14,SE,136,5.4,5.4,30,0.00,,,0.00,VWS V14.01,2013-05-02 00:09:00,
2013-05-01 20:10:00,75.2,41.8,30.15,SE,142,5.2,5.4,30,0.00,,,0.00,VWS V14.01,2013-05-02 00:10:00,
2013-05-01 20:11:00,75.2,41.7,30.13,SSE,152,5.9,6.9,30,0.00,,,0.00,VWS V14.01,2013-05-02 00:11:00,
2013-05-01 20:12:00,74.5,41.6,30.13,SE,145,4.7,5.9,31,0.00,,,0.00,VWS V14.01,2013-05-02 00:12:00,
2013-05-01 20:13:00,76.1,41.8,30.15,SE,143,4.9,4.9,29,0.00,,,0.00,VWS V14.01,2013-05-02 00:13:00,
2013-05-01 20:14:00,74.9,41.6,30.15,SSE,151,3.7,3.7,30,0.00,,,0.00,VWS V14.01,2013-05-02 00:14:00,
2013-05-01 20:15:00,74.6,41.9,30.15,SE,141,4.7,4.7,31,0.00,,,0.00,VWS V14.01,2013-05-02 00:15:00,
2013-05-01 20:16:00,74.9,41.9,30.14,SE,143,4.2,4.5,31,0.00,,,0.00,VWS V14.01,2013-05-02 00:16:00,
2013-05-01 20:17:00,75.2,42.1,30.15,SE,144,4.9,4.9,31,0.00,,,0.00,VWS V14.01,2013-05-02 00:17:00,
2013-05-01 20:18:00,74.7,36.5,30.15,SE,132,4.2,5.1,25,0.00,,,0.00,VWS V14.01,2013-05-02 00:18:00,
2013-05-01 20:19:00,75.3,42.1,30.15,SE,132,5.2,5.2,30,0.00,,,0.00,VWS V14.01,2013-05-02 00:19:00,
2013-05-01 20:20:00,74.5,42.1,30.15,SE,134,4.2,5.2,31,0.00,,,0.00,VWS V14.01,2013-05-02 00:20:00,
2013-05-01 20:21:00,73.5,42.0,30.14,SE,132,4.2,4.5,32,0.00,,,0.00,VWS V14.01,2013-05-02 00:21:00,
2013-05-01 20:22:00,74.6,42.7,30.15,SE,125,4.7,4.7,32,0.00,,,0.00,VWS V14.01,2013-05-02 00:22:00,
2013-05-01 20:23:00,74.6,42.7,30.15,SE,125,4.7,4.7,32,0.00,,,0.00,VWS V14.01,2013-05-02 00:23:00,
2013-05-01 20:24:00,75.0,42.8,30.14,SE,134,4.5,4.5,32,0.00,,,0.00,VWS V14.01,2013-05-02 00:24:00,
2013-05-01 20:25:00,74.8,42.5,30.14,SE,134,4.4,4.5,31,0.00,,,0.00,VWS V14.01,2013-05-02 00:25:00,
2013-05-01 20:26:00,75.2,42.5,30.15,SE,142,5.4,5.4,31,0.00,,,0.00,VWS V14.01,2013-05-02 00:26:00,
2013-05-01 20:27:00,75.0,42.2,30.15,SE,133,5.1,5.1,31,0.00,,,0.00,VWS V14.01,2013-05-02 00:27:00,
2013-05-01 20:28:00,75.0,42.2,30.15,SE,133,5.1,5.1,31,0.00,,,0.00,VWS V14.01,2013-05-02 00:28:00,
2013-05-01 20:29:00,74.9,42.2,30.15,SE,127,4.9,5.1,31,0.00,,,0.00,VWS V14.01,2013-05-02 00:29:00,
2013-05-01 20:30:00,74.4,42.0,30.14,SE,125,5.2,5.2,31,0.00,,,0.00,VWS V14.01,2013-05-02 00:30:00,
2013-05-01 20:31:00,73.7,42.3,30.15,ESE,122,5.1,5.2,32,0.00,,,0.00,VWS V14.01,2013-05-02 00:31:00,
2013-05-01 20:32:00,74.3,42.7,30.15,SE,126,5.1,5.1,32,0.00,,,0.00,VWS V14.01,2013-05-02 00:32:00,
2013-05-01 20:33:00,73.4,42.8,30.14,ESE,123,5.1,5.2,33,0.00,,,0.00,VWS V14.01,2013-05-02 00:33:00,
2013-05-01 20:34:00,73.8,43.3,30.14,ESE,123,5.1,5.1,33,0.00,,,0.00,VWS V14.01,2013-05-02 00:34:00,
2013-05-01 20:35:00,73.2,43.2,30.14,SE,125,5.1,5.1,34,0.00,,,0.00,VWS V14.01,2013-05-02 00:35:00,
2013-05-01 20:36:00,72.9,43.4,30.15,SE,124,5.2,5.2,35,0.00,,,0.00,VWS V14.01,2013-05-02 00:36:00,
2013-05-01 20:37:00,72.6,43.3,30.15,ESE,122,5.1,5.2,35,0.00,,,0.00,VWS V14.01,2013-05-02 00:37:00,
2013-05-01 20:38:00,72.7,43.4,30.15,SE,127,4.9,5.1,35,0.00,,,0.00,VWS V14.01,2013-05-02 00:38:00,
2013-05-01 20:39:00,73.1,43.3,30.14,SE,124,4.9,5.1,34,0.00,,,0.00,VWS V14.01,2013-05-02 00:39:00,
2013-05-01 20:40:00,73.3,43.8,30.14,ESE,123,4.9,4.9,35,0.00,,,0.00,VWS V14.01,2013-05-02 00:40:00,
2013-05-01 20:41:00,73.1,43.4,30.15,SE,128,4.5,4.9,34,0.00,,,0.00,VWS V14.01,2013-05-02 00:41:00,
2013-05-01 20:42:00,73.0,43.5,30.15,ESE,122,4.9,4.9,35,0.00,,,0.00,VWS V14.01,2013-05-02 00:42:00,
2013-05-01 20:43:00,73.0,43.5,30.15,ESE,122,4.9,4.9,35,0.00,,,0.00,VWS V14.01,2013-05-02 00:43:00,
2013-05-01 20:44:00,72.6,43.5,30.15,ESE,121,4.7,4.9,35,0.00,,,0.00,VWS V14.01,2013-05-02 00:44:00,
2013-05-01 20:45:00,72.9,43.8,30.15,ESE,123,4.9,4.9,35,0.00,,,0.00,VWS V14.01,2013-05-02 00:45:00,
2013-05-01 20:46:00,73.1,44.0,30.15,ESE,123,4.9,4.9,35,0.00,,,0.00,VWS V14.01,2013-05-02 00:46:00,
2013-05-01 20:47:00,72.0,43.3,30.15,ESE,123,4.9,4.9,35,0.00,,,0.00,VWS V14.01,2013-05-02 00:47:00,
2013-05-01 20:48:00,73.4,43.9,30.15,SE,130,4.9,5.2,35,0.00,,,0.00,VWS V14.01,2013-05-02 00:48:00,
2013-05-01 20:49:00,74.0,43.9,30.15,SE,130,5.1,5.1,34,0.00,,,0.00,VWS V14.01,2013-05-02 00:49:00,
2013-05-01 20:50:00,72.7,43.1,30.15,SE,130,4.7,4.9,34,0.00,,,0.00,VWS V14.01,2013-05-02 00:50:00,
2013-05-01 20:51:00,73.2,43.6,30.15,SE,126,5.1,5.1,35,0.00,,,0.00,VWS V14.01,2013-05-02 00:51:00,
2013-05-01 20:52:00,73.2,43.6,30.15,SE,126,5.1,5.1,35,0.00,,,0.00,VWS V14.01,2013-05-02 00:52:00,
2013-05-01 20:53:00,72.8,43.6,30.15,SE,127,5.1,5.1,35,0.00,,,0.00,VWS V14.01,2013-05-02 00:53:00,
2013-05-01 20:54:00,72.7,43.8,30.15,SE,125,4.7,5.1,35,0.00,,,0.00,VWS V14.01,2013-05-02 00:54:00,
2013-05-01 20:55:00,71.6,43.2,30.15,ESE,120,4.2,5.1,36,0.00,,,0.00,VWS V14.01,2013-05-02 00:55:00,
2013-05-01 20:56:00,72.4,44.0,30.15,SE,126,4.7,5.1,36,0.00,,,0.00,VWS V14.01,2013-05-02 00:56:00,
2013-05-01 20:57:00,72.1,44.0,30.15,SE,125,4.9,4.9,36,0.00,,,0.00,VWS V14.01,2013-05-02 00:57:00,
2013-05-01 20:58:00,71.3,43.7,30.15,ESE,119,4.5,4.9,37,0.00,,,0.00,VWS V14.01,2013-05-02 00:58:00,
2013-05-01 20:59:00,71.3,43.7,30.15,ESE,119,4.5,4.9,37,0.00,,,0.00,VWS V14.01,2013-05-02 00:59:00,
2013-05-01 21:00:00,72.6,44.7,30.16,ESE,122,5.1,5.1,37,0.00,,,0.00,VWS V14.01,2013-05-02 01:00:00,
2013-05-01 21:01:00,71.9,44.1,30.15,ESE,122,4.7,5.1,37,0.00,,,0.00,VWS V14.01,2013-05-02 01:01:00,
2013-05-01 21:02:00,71.7,44.2,30.15,ESE,116,4.7,4.7,37,0.00,,,0.00,VWS V14.01,2013-05-02 01:02:00,
2013-05-01 21:03:00,71.8,44.8,30.15,ESE,120,4.5,4.5,38,0.00,,,0.00,VWS V14.01,2013-05-02 01:03:00,
2013-05-01 21:04:00,71.2,44.5,30.15,ESE,117,4.2,4.2,38,0.00,,,0.00,VWS V14.01,2013-05-02 01:04:00,
2013-05-01 21:05:00,71.5,44.7,30.15,ESE,115,4.4,4.4,38,0.00,,,0.00,VWS V14.01,2013-05-02 01:05:00,
2013-05-01 21:06:00,72.1,44.8,30.15,ESE,118,4.9,4.9,38,0.00,,,0.00,VWS V14.01,2013-05-02 01:06:00,
2013-05-01 21:07:00,72.4,44.9,30.16,ESE,121,4.7,4.9,37,0.00,,,0.00,VWS V14.01,2013-05-02 01:07:00,
2013-05-01 21:08:00,72.3,44.8,30.16,ESE,121,4.7,4.7,37,0.00,,,0.00,VWS V14.01,2013-05-02 01:08:00,
2013-05-01 21:09:00,72.0,44.5,30.17,ESE,121,4.5,4.7,37,0.00,,,0.00,VWS V14.01,2013-05-02 01:09:00,
2013-05-01 21:10:00,72.8,45.0,30.16,ESE,122,4.4,4.5,37,0.00,,,0.00,VWS V14.01,2013-05-02 01:10:00,
2013-05-01 21:11:00,72.4,44.5,30.16,ESE,123,4.4,4.5,37,0.00,,,0.00,VWS V14.01,2013-05-02 01:11:00,
2013-05-01 21:12:00,71.9,44.1,30.18,ESE,121,4.0,4.2,37,0.00,,,0.00,VWS V14.01,2013-05-02 01:12:00,
2013-05-01 21:13:00,71.4,44.1,30.15,ESE,117,4.0,4.2,37,0.00,,,0.00,VWS V14.01,2013-05-02 01:13:00,
2013-05-01 21:14:00,71.6,44.4,30.15,ESE,118,4.0,4.0,38,0.00,,,0.00,VWS V14.01,2013-05-02 01:14:00,
2013-05-01 21:15:00,70.8,44.7,30.16,ESE,111,3.9,4.0,39,0.00,,,0.00,VWS V14.01,2013-05-02 01:15:00,
2013-05-01 21:16:00,70.0,44.3,30.16,ESE,110,3.7,4.0,39,0.00,,,0.00,VWS V14.01,2013-05-02 01:16:00,
2013-05-01 21:17:00,70.6,44.9,30.16,ESE,110,3.5,3.7,40,0.00,,,0.00,VWS V14.01,2013-05-02 01:17:00,
2013-05-01 21:18:00,71.4,45.7,30.17,ESE,123,3.7,3.7,40,0.00,,,0.00,VWS V14.01,2013-05-02 01:18:00,
2013-05-01 21:19:00,70.9,45.1,30.16,ESE,109,3.9,3.9,40,0.00,,,0.00,VWS V14.01,2013-05-02 01:19:00,
2013-05-01 21:20:00,71.0,45.2,30.15,ESE,114,3.7,3.9,40,0.00,,,0.00,VWS V14.01,2013-05-02 01:20:00,
2013-05-01 21:21:00,70.9,45.0,30.15,ESE,107,3.9,3.9,39,0.00,,,0.00,VWS V14.01,2013-05-02 01:21:00,
2013-05-01 21:22:00,70.3,44.4,30.16,SE,131,3.9,3.9,39,0.00,,,0.00,VWS V14.01,2013-05-02 01:22:00,
2013-05-01 21:23:00,71.5,45.2,30.15,ESE,116,4.2,4.2,39,0.00,,,0.00,VWS V14.01,2013-05-02 01:23:00,
2013-05-01 21:24:00,71.4,45.1,30.15,ESE,119,3.9,4.2,39,0.00,,,0.00,VWS V14.01,2013-05-02 01:24:00,
2013-05-01 21:25:00,71.6,45.2,30.16,ESE,120,4.2,4.2,39,0.00,,,0.00,VWS V14.01,2013-05-02 01:25:00,
2013-05-01 21:26:00,71.3,44.8,30.16,ESE,117,4.2,4.5,39,0.00,,,0.00,VWS V14.01,2013-05-02 01:26:00,
2013-05-01 21:27:00,71.1,44.8,30.16,ESE,116,3.9,4.2,39,0.00,,,0.00,VWS V14.01,2013-05-02 01:27:00,
2013-05-01 21:28:00,70.8,44.6,30.16,ESE,116,3.9,3.9,39,0.00,,,0.00,VWS V14.01,2013-05-02 01:28:00,
2013-05-01 21:29:00,71.7,45.0,30.16,ESE,118,4.5,4.5,38,0.00,,,0.00,VWS V14.01,2013-05-02 01:29:00,
2013-05-01 21:30:00,71.2,44.7,30.16,ESE,117,3.9,4.5,39,0.00,,,0.00,VWS V14.01,2013-05-02 01:30:00,
2013-05-01 21:31:00,71.2,44.8,30.16,ESE,117,3.7,4.0,39,0.00,,,0.00,VWS V14.01,2013-05-02 01:31:00,
2013-05-01 21:32:00,70.6,44.6,30.16,ESE,115,3.0,3.7,39,0.00,,,0.00,VWS V14.01,2013-05-02 01:32:00,
2013-05-01 21:33:00,70.2,44.7,30.16,ESE,115,2.3,2.8,40,0.00,,,0.00,VWS V14.01,2013-05-02 01:33:00,
2013-05-01 21:34:00,70.2,44.8,30.16,ESE,115,2.8,2.8,40,0.00,,,0.00,VWS V14.01,2013-05-02 01:34:00,
2013-05-01 21:35:00,69.7,44.9,30.17,ESE,114,2.5,2.8,41,0.00,,,0.00,VWS V14.01,2013-05-02 01:35:00,
2013-05-01 21:36:00,70.2,45.4,30.17,ESE,114,2.8,2.8,41,0.00,,,0.00,VWS V14.01,2013-05-02 01:36:00,
2013-05-01 21:37:00,70.0,45.2,30.17,ESE,114,2.5,2.8,41,0.00,,,0.00,VWS V14.01,2013-05-02 01:37:00,
2013-05-01 21:38:00,69.5,45.1,30.16,ESE,114,2.3,2.7,41,0.00,,,0.00,VWS V14.01,2013-05-02 01:38:00,
2013-05-01 21:39:00,69.7,45.5,30.16,ESE,114,2.5,2.7,42,0.00,,,0.00,VWS V14.01,2013-05-02 01:39:00,
2013-05-01 21:40:00,69.3,45.4,30.16,ESE,112,2.0,2.5,42,0.00,,,0.00,VWS V14.01,2013-05-02 01:40:00,
2013-05-01 21:41:00,69.7,45.9,30.16,ESE,111,2.5,2.5,43,0.00,,,0.00,VWS V14.01,2013-05-02 01:41:00,
2013-05-01 21:42:00,69.3,45.7,30.16,ESE,110,2.3,2.5,43,0.00,,,0.00,VWS V14.01,2013-05-02 01:42:00,
2013-05-01 21:43:00,69.3,45.8,30.17,ESE,102,2.3,2.5,43,0.00,,,0.00,VWS V14.01,2013-05-02 01:43:00,
2013-05-01 21:44:00,69.5,46.2,30.17,East,92,1.8,2.3,43,0.00,,,0.00,VWS V14.01,2013-05-02 01:44:00,
2013-05-01 21:45:00,69.3,46.0,30.17,East,92,2.2,2.2,43,0.00,,,0.00,VWS V14.01,2013-05-02 01:45:00,
2013-05-01 21:46:00,69.1,45.9,30.16,East,87,2.0,2.5,43,0.00,,,0.00,VWS V14.01,2013-05-02 01:46:00,
2013-05-01 21:47:00,69.2,46.0,30.16,ENE,77,2.2,2.7,43,0.00,,,0.00,VWS V14.01,2013-05-02 01:47:00,
2013-05-01 21:48:00,68.9,45.8,30.16,ENE,77,2.2,2.2,43,0.00,,,0.00,VWS V14.01,2013-05-02 01:48:00,
2013-05-01 21:49:00,69.6,46.6,30.16,ENE,77,2.2,2.2,44,0.00,,,0.00,VWS V14.01,2013-05-02 01:49:00,
2013-05-01 21:50:00,69.7,46.5,30.16,ENE,77,2.0,2.2,44,0.00,,,0.00,VWS V14.01,2013-05-02 01:50:00,
2013-05-01 21:51:00,69.5,46.6,30.16,ENE,77,1.3,2.0,44,0.00,,,0.00,VWS V14.01,2013-05-02 01:51:00,
2013-05-01 21:52:00,69.2,46.4,30.18,ENE,77,0.0,2.3,44,0.00,,,0.00,VWS V14.01,2013-05-02 01:52:00,
2013-05-01 21:53:00,69.2,46.4,30.17,ENE,77,0.0,1.6,44,0.00,,,0.00,VWS V14.01,2013-05-02 01:53:00,
2013-05-01 21:54:00,68.9,46.4,30.17,ENE,77,0.0,1.3,45,0.00,,,0.00,VWS V14.01,2013-05-02 01:54:00,
2013-05-01 21:55:00,69.1,46.6,30.17,ENE,77,0.0,1.3,45,0.00,,,0.00,VWS V14.01,2013-05-02 01:55:00,
2013-05-01 21:56:00,68.8,46.3,30.17,ENE,77,1.5,1.5,44,0.00,,,0.00,VWS V14.01,2013-05-02 01:56:00,
2013-05-01 21:57:00,69.2,46.5,30.20,ENE,77,1.6,1.6,44,0.00,,,0.00,VWS V14.01,2013-05-02 01:57:00,
2013-05-01 21:58:00,69.4,46.6,30.18,ENE,77,1.0,2.0,44,0.00,,,0.00,VWS V14.01,2013-05-02 01:58:00,
2013-05-01 22:00:00,69.1,46.2,30.18,ENE,77,1.8,1.8,44,0.00,,,0.00,VWS V14.01,2013-05-02 02:00:00,
2013-05-01 22:01:00,68.3,46.7,30.17,ENE,77,1.8,2.0,46,0.00,,,0.00,VWS V14.01,2013-05-02 02:01:00,
2013-05-01 22:02:00,68.4,47.1,30.17,ENE,77,1.8,2.0,47,0.00,,,0.00,VWS V14.01,2013-05-02 02:02:00,
2013-05-01 22:03:00,68.5,47.2,30.17,ENE,77,1.5,1.8,46,0.00,,,0.00,VWS V14.01,2013-05-02 02:03:00,
2013-05-01 22:04:00,68.3,47.1,30.17,ENE,77,1.8,2.0,47,0.00,,,0.00,VWS V14.01,2013-05-02 02:04:00,
2013-05-01 22:05:00,68.4,47.3,30.17,ENE,77,1.3,1.8,47,0.00,,,0.00,VWS V14.01,2013-05-02 02:05:00,
2013-05-01 22:06:00,68.5,47.4,30.17,ENE,77,2.0,2.0,47,0.00,,,0.00,VWS V14.01,2013-05-02 02:06:00,
2013-05-01 22:07:00,68.6,47.3,30.17,ENE,77,2.2,2.2,47,0.00,,,0.00,VWS V14.01,2013-05-02 02:07:00,
2013-05-01 22:08:00,68.6,47.3,30.17,ENE,77,2.2,2.2,47,0.00,,,0.00,VWS V14.01,2013-05-02 02:08:00,
2013-05-01 22:09:00,68.6,47.4,30.17,ENE,72,0.0,2.0,47,0.00,,,0.00,VWS V14.01,2013-05-02 02:09:00,
2013-05-01 22:10:00,68.3,47.3,30.17,ENE,72,1.1,2.0,47,0.00,,,0.00,VWS V14.01,2013-05-02 02:10:00,
2013-05-01 22:11:00,68.6,47.4,30.17,ENE,72,0.0,1.1,47,0.00,,,0.00,VWS V14.01,2013-05-02 02:11:00,
2013-05-01 22:12:00,68.5,47.5,30.18,ENE,72,0.0,0.0,47,0.00,,,0.00,VWS V14.01,2013-05-02 02:12:00,
2013-05-01 22:13:00,68.0,47.3,30.18,ENE,72,0.0,0.0,47,0.00,,,0.00,VWS V14.01,2013-05-02 02:13:00,
2013-05-01 22:14:00,68.0,47.4,30.18,ENE,72,0.0,0.0,48,0.00,,,0.00,VWS V14.01,2013-05-02 02:14:00,
2013-05-01 22:15:00,67.0,46.5,30.17,ENE,60,3.0,3.0,48,0.00,,,0.00,VWS V14.01,2013-05-02 02:15:00,
2013-05-01 22:16:00,66.4,46.2,30.17,ENE,60,3.4,3.4,48,0.00,,,0.00,VWS V14.01,2013-05-02 02:16:00,
2013-05-01 22:17:00,66.9,48.0,30.18,NE,56,4.4,4.4,51,0.00,,,0.00,VWS V14.01,2013-05-02 02:17:00,
2013-05-01 22:18:00,69.6,50.2,30.18,NE,53,4.4,4.5,50,0.00,,,0.00,VWS V14.01,2013-05-02 02:18:00,
2013-05-01 22:19:00,68.2,47.6,30.18,ENE,75,7.6,7.6,48,0.00,,,0.00,VWS V14.01,2013-05-02 02:19:00,
2013-05-01 22:20:00,68.4,47.4,30.18,ENE,60,6.4,7.6,47,0.00,,,0.00,VWS V14.01,2013-05-02 02:20:00,
2013-05-01 22:21:00,68.8,47.9,30.17,ENE,72,7.5,7.5,47,0.00,,,0.00,VWS V14.01,2013-05-02 02:21:00,
2013-05-01 22:22:00,68.8,48.3,30.18,ENE,67,6.6,7.5,48,0.00,,,0.00,VWS V14.01,2013-05-02 02:22:00,
2013-05-01 22:23:00,65.6,46.0,30.18,East,79,4.9,7.8,49,0.00,,,0.00,VWS V14.01,2013-05-02 02:23:00,
2013-05-01 22:24:00,66.6,47.8,30.20,ENE,71,6.3,6.3,51,0.00,,,0.00,VWS V14.01,2013-05-02 02:24:00,
2013-05-01 22:25:00,66.5,48.2,30.18,ENE,64,6.4,6.4,52,0.00,,,0.00,VWS V14.01,2013-05-02 02:25:00,
2013-05-01 22:26:00,66.2,48.2,30.18,ENE,65,6.9,6.9,52,0.00,,,0.00,VWS V14.01,2013-05-02 02:26:00,
2013-05-01 22:27:00,67.3,49.8,30.18,East,86,5.9,6.9,53,0.00,,,0.00,VWS V14.01,2013-05-02 02:27:00,
2013-05-01 22:28:00,66.9,49.8,30.17,ENE,76,5.7,5.7,54,0.00,,,0.00,VWS V14.01,2013-05-02 02:28:00,
2013-05-01 22:29:00,66.3,49.5,30.18,ENE,68,5.2,6.1,55,0.00,,,0.00,VWS V14.01,2013-05-02 02:29:00,
2013-05-01 22:30:00,65.5,49.0,30.19,ENE,60,6.8,6.8,55,0.00,,,0.00,VWS V14.01,2013-05-02 02:30:00,
2013-05-01 22:31:00,65.0,48.7,30.18,East,87,5.6,5.6,55,0.00,,,0.00,VWS V14.01,2013-05-02 02:31:00,
2013-05-01 22:32:00,65.5,49.9,30.19,East,79,6.3,6.3,57,0.00,,,0.00,VWS V14.01,2013-05-02 02:32:00,
2013-05-01 22:33:00,65.9,50.5,30.18,ENE,59,5.9,6.3,58,0.00,,,0.00,VWS V14.01,2013-05-02 02:33:00,
2013-05-01 22:34:00,65.3,50.5,30.18,ENE,72,6.9,6.9,59,0.00,,,0.00,VWS V14.01,2013-05-02 02:34:00,
2013-05-01 22:35:00,65.1,50.7,30.18,ENE,73,4.2,6.9,60,0.00,,,0.00,VWS V14.01,2013-05-02 02:35:00,
2013-05-01 22:36:00,65.6,51.4,30.18,ENE,68,5.4,5.4,60,0.00,,,0.00,VWS V14.01,2013-05-02 02:36:00,
2013-05-01 22:37:00,65.2,50.9,30.19,East,79,5.9,5.9,60,0.00,,,0.00,VWS V14.01,2013-05-02 02:37:00,
2013-05-01 22:38:00,64.2,50.3,30.19,East,79,4.0,5.9,61,0.00,,,0.00,VWS V14.01,2013-05-02 02:38:00,
2013-05-01 22:39:00,65.2,51.6,30.18,East,83,5.1,5.1,62,0.00,,,0.00,VWS V14.01,2013-05-02 02:39:00,
2013-05-01 22:40:00,64.7,51.5,30.17,ENE,65,6.6,6.6,62,0.00,,,0.00,VWS V14.01,2013-05-02 02:40:00,
2013-05-01 22:41:00,65.9,52.7,30.18,East,90,6.8,6.8,62,0.00,,,0.00,VWS V14.01,2013-05-02 02:41:00,
2013-05-01 22:43:00,63.6,50.5,30.17,ENE,70,3.9,6.8,62,0.00,,,0.00,VWS V14.01,2013-05-02 02:43:00,
2013-05-01 22:44:00,64.5,51.9,30.18,ENE,76,4.9,4.9,64,0.00,,,0.00,VWS V14.01,2013-05-02 02:44:00,
2013-05-01 22:45:00,64.6,52.0,30.19,NE,55,4.9,7.6,64,0.00,,,0.00,VWS V14.01,2013-05-02 02:45:00,
2013-05-01 22:46:00,64.7,52.0,30.18,ENE,67,4.7,4.9,63,0.00,,,0.00,VWS V14.01,2013-05-02 02:46:00,
2013-05-01 22:47:00,64.2,51.7,30.18,ENE,76,5.1,5.1,64,0.00,,,0.00,VWS V14.01,2013-05-02 02:47:00,
2013-05-01 22:48:00,64.8,52.3,30.19,ENE,60,4.9,5.9,64,0.00,,,0.00,VWS V14.01,2013-05-02 02:48:00,
2013-05-01 22:49:00,64.8,52.3,30.19,East,79,4.7,4.9,64,0.00,,,0.00,VWS V14.01,2013-05-02 02:49:00,
2013-05-01 22:50:00,64.3,51.8,30.18,ENE,67,5.1,5.1,64,0.00,,,0.00,VWS V14.01,2013-05-02 02:50:00,
2013-05-01 22:51:00,63.4,50.9,30.18,ENE,75,4.5,5.2,64,0.00,,,0.00,VWS V14.01,2013-05-02 02:51:00,
2013-05-01 22:52:00,63.7,51.9,30.18,ENE,68,6.1,6.1,65,0.00,,,0.00,VWS V14.01,2013-05-02 02:52:00,
2013-05-01 22:53:00,63.8,52.2,30.18,East,79,4.7,6.1,66,0.00,,,0.00,VWS V14.01,2013-05-02 02:53:00,
2013-05-01 22:54:00,63.9,52.0,30.18,ENE,61,4.5,6.8,65,0.00,,,0.00,VWS V14.01,2013-05-02 02:54:00,
2013-05-01 22:55:00,64.3,52.5,30.18,ENE,67,6.3,6.3,66,0.00,,,0.00,VWS V14.01,2013-05-02 02:55:00,
2013-05-01 22:56:00,64.4,52.5,30.18,ENE,69,4.9,6.9,65,0.00,,,0.00,VWS V14.01,2013-05-02 02:56:00,
2013-05-01 22:57:00,64.4,52.5,30.18,ENE,67,6.3,6.3,65,0.00,,,0.00,VWS V14.01,2013-05-02 02:57:00,
2013-05-01 22:58:00,64.1,52.4,30.18,East,83,5.6,6.3,66,0.00,,,0.00,VWS V14.01,2013-05-02 02:58:00,
2013-05-01 22:59:00,63.1,51.5,30.17,ENE,66,4.9,6.9,66,0.00,,,0.00,VWS V14.01,2013-05-02 02:59:00,
2013-05-01 23:00:00,64.3,52.8,30.18,East,86,5.4,5.4,66,0.00,,,0.00,VWS V14.01,2013-05-02 03:00:00,
2013-05-01 23:01:00,64.6,53.1,30.18,ENE,69,5.6,5.6,66,0.00,,,0.00,VWS V14.01,2013-05-02 03:01:00,
2013-05-01 23:02:00,63.0,51.8,30.17,East,84,4.7,4.7,67,0.00,,,0.00,VWS V14.01,2013-05-02 03:02:00,
2013-05-01 23:03:00,63.5,52.4,30.18,NE,53,4.9,5.2,67,0.00,,,0.00,VWS V14.01,2013-05-02 03:03:00,
2013-05-01 23:05:00,63.6,52.8,30.19,ENE,78,5.2,5.2,68,0.00,,,0.00,VWS V14.01,2013-05-02 03:05:00,
2013-05-01 23:07:00,63.2,52.5,30.19,East,85,5.2,5.2,68,0.00,,,0.00,VWS V14.01,2013-05-02 03:07:00,
2013-05-01 23:08:00,63.5,50.4,30.18,ENE,67,4.9,5.2,62,0.00,,,0.00,VWS V14.01,2013-05-02 03:08:00,
2013-05-01 23:09:00,63.1,52.6,30.19,ENE,77,5.1,5.1,69,0.00,,,0.00,VWS V14.01,2013-05-02 03:09:00,
2013-05-01 23:10:00,63.1,52.4,30.19,ENE,68,5.4,5.4,68,0.00,,,0.00,VWS V14.01,2013-05-02 03:10:00,
2013-05-01 23:13:00,63.2,53.1,30.19,ENE,76,5.4,5.4,70,0.00,,,0.00,VWS V14.01,2013-05-02 03:13:00,
2013-05-01 23:14:00,62.9,52.5,30.19,NE,55,5.2,7.6,69,0.00,,,0.00,VWS V14.01,2013-05-02 03:14:00,
2013-05-01 23:15:00,62.6,52.3,30.19,ENE,64,5.6,5.9,69,0.00,,,0.00,VWS V14.01,2013-05-02 03:15:00,
2013-05-01 23:16:00,63.0,52.8,30.19,ENE,69,5.1,5.6,69,0.00,,,0.00,VWS V14.01,2013-05-02 03:16:00,
2013-05-01 23:20:00,63.7,53.8,30.19,East,96,6.1,6.1,70,0.00,,,0.00,VWS V14.01,2013-05-02 03:20:00,
2013-05-01 23:21:00,62.9,53.0,30.18,ENE,66,5.6,5.6,70,0.00,,,0.00,VWS V14.01,2013-05-02 03:21:00,
2013-05-01 23:22:00,63.1,53.1,30.21,ENE,74,5.9,5.9,70,0.00,,,0.00,VWS V14.01,2013-05-02 03:22:00,
2013-05-01 23:23:00,62.6,52.5,30.19,ENE,59,5.1,5.9,70,0.00,,,0.00,VWS V14.01,2013-05-02 03:23:00,
2013-05-01 23:25:00,62.2,51.1,30.18,ENE,57,4.5,5.2,67,0.00,,,0.00,VWS V14.01,2013-05-02 03:25:00,
2013-05-01 23:26:00,62.5,52.5,30.19,ENE,61,4.5,5.6,70,0.00,,,0.00,VWS V14.01,2013-05-02 03:26:00,
2013-05-01 23:27:00,62.2,52.2,30.19,ENE,66,4.9,4.9,70,0.00,,,0.00,VWS V14.01,2013-05-02 03:27:00,
2013-05-01 23:28:00,62.3,52.8,30.19,ENE,66,4.4,4.9,71,0.00,,,0.00,VWS V14.01,2013-05-02 03:28:00,
2013-05-01 23:29:00,63.0,53.5,30.19,ENE,60,5.1,5.1,71,0.00,,,0.00,VWS V14.01,2013-05-02 03:29:00,
2013-05-01 23:31:00,62.3,52.8,30.19,ENE,65,4.5,5.6,71,0.00,,,0.00,VWS V14.01,2013-05-02 03:31:00,
2013-05-01 23:33:00,61.6,52.2,30.18,ENE,59,4.2,5.6,71,0.00,,,0.00,VWS V14.01,2013-05-02 03:33:00,
2013-05-01 23:35:00,61.7,52.2,30.19,ENE,71,4.5,5.6,71,0.00,,,0.00,VWS V14.01,2013-05-02 03:35:00,
2013-05-01 23:38:00,61.7,52.7,30.20,ENE,58,4.5,5.6,72,0.00,,,0.00,VWS V14.01,2013-05-02 03:38:00,
2013-05-01 23:39:00,62.3,53.2,30.18,ENE,77,6.4,7.3,72,0.00,,,0.00,VWS V14.01,2013-05-02 03:39:00,
2013-05-01 23:43:00,61.0,52.1,30.19,ENE,66,4.5,6.4,72,0.00,,,0.00,VWS V14.01,2013-05-02 03:43:00,
2013-05-01 23:44:00,62.4,53.8,30.19,East,93,6.4,6.4,73,0.00,,,0.00,VWS V14.01,2013-05-02 03:44:00,
2013-05-01 23:45:00,61.6,52.8,30.19,NE,54,6.3,6.3,73,0.00,,,0.00,VWS V14.01,2013-05-02 03:45:00,
2013-05-01 23:46:00,61.1,52.2,30.18,ENE,67,6.1,6.3,73,0.00,,,0.00,VWS V14.01,2013-05-02 03:46:00,
2013-05-01 23:49:00,61.7,53.3,30.19,ENE,75,6.1,6.1,74,0.00,,,0.00,VWS V14.01,2013-05-02 03:49:00,
2013-05-01 23:50:00,61.4,52.8,30.19,NE,54,5.6,6.1,73,0.00,,,0.00,VWS V14.01,2013-05-02 03:50:00,
2013-05-01 23:51:00,61.8,53.1,30.19,ENE,70,5.6,6.1,73,0.00,,,0.00,VWS V14.01,2013-05-02 03:51:00,
2013-05-01 23:52:00,61.0,52.2,30.18,ENE,65,4.5,4.5,73,0.00,,,0.00,VWS V14.01,2013-05-02 03:52:00,
2013-05-01 23:54:00,61.5,52.9,30.19,ENE,72,5.7,5.7,74,0.00,,,0.00,VWS V14.01,2013-05-02 03:54:00,
2013-05-01 23:56:00,60.3,52.1,30.19,ENE,64,3.2,4.4,74,0.00,,,0.00,VWS V14.01,2013-05-02 03:56:00,
2013-05-01 23:58:00,61.3,53.2,30.19,ENE,73,5.4,5.4,75,0.00,,,0.00,VWS V14.01,2013-05-02 03:58:00,
2013-05-01 23:59:00,61.1,52.9,30.22,ENE,65,4.0,5.4,74,0.00,,,0.00,VWS V14.01,2013-05-02 03:59:00,